Darstellungsparameter: Aktuell verwendete Einstellungen:
Skalierung der Graphiken ... ?
xyx+y,   Skalierungsfaktor:      Skalierung: Modus: x, Faktor: 1
Darstellungszeitraum ... ?
Vom - - bis: - -   Zeitraum: 17.02.2009 - 16.05.2009
Min/Max/Avg-Anzeige ... ?
Zeige MMA aktuell
Zeige MMA Monat
Zeige MMA alles
Zeige --A aktuell
Zeige --A Monat
Zeige --A alles
Keine MMA-Anzeige
MMA:
Average (ber die Originaldaten)
MMA-Basis: 17.04.2019 - 19.05.2019
Quicknavigation für Darstellung... ?
Tage:      1T, 2T, 3T, 5T -1T -2T -3T -5T +1T +2T +3T +5T
Wochen: 1W, 2W, 3W -1W -2W -3W +1W +2W +3W
Monate: 1M, 3M, 6M -1M -3M -6M +1M +3M +6M
Jahre:    1J, 3J, 5J, 10J -1J -3J -5J -10J +1J +3J +5J +10J
Nutze für die Darstellung ... ?
Originaldaten oder Mittelwerte auf ...
Stundenbasis Tagesbasis Wochenbasis
Monatsbasis Jahresbasis      Datenbasis: Original-Daten
Darstellen als:
Statistik (Auto) Statistik J:M      Darstellung:
Zur Graphik,    zurück zur Übersicht aller Sensoren.
 
Tabellarische Datenbersicht: ?
 
Sensor: Nr:Datum:Temp:Abs-Feuchte:Windchill:Wind:
Aussen-T/F 1 17-02-2009 00:04:59 4 C 5.79 g/m*3 4 C 0 km/h
2 17-02-2009 00:16:59 4 C 5.79 g/m*3 4 C 0 km/h
3 17-02-2009 00:28:59 3.9 C 5.75 g/m*3 3.9 C 0 km/h
4 17-02-2009 00:40:59 3.9 C 5.81 g/m*3 3.9 C 0 km/h
5 17-02-2009 00:51:59 3.9 C 5.81 g/m*3 3.9 C 0 km/h
6 17-02-2009 01:04:00 3.9 C 5.81 g/m*3 3.9 C 0 km/h
7 17-02-2009 01:16:00 3.9 C 5.81 g/m*3 3.9 C 0 km/h
8 17-02-2009 01:28:00 3.9 C 5.81 g/m*3 3.9 C 0 km/h
9 17-02-2009 01:40:00 4 C 5.85 g/m*3 4 C 0 km/h
10 17-02-2009 01:52:00 3.9 C 5.87 g/m*3 3.9 C 0 km/h
11 17-02-2009 02:04:00 3.9 C 5.87 g/m*3 3.9 C 0 km/h
12 17-02-2009 02:16:00 3.9 C 5.87 g/m*3 3.9 C 0 km/h
13 17-02-2009 02:28:00 3.9 C 5.87 g/m*3 3.9 C 0 km/h
14 17-02-2009 02:40:00 3.9 C 5.87 g/m*3 3.9 C 0 km/h
15 17-02-2009 02:52:00 3.9 C 5.87 g/m*3 3.9 C 0 km/h
16 17-02-2009 03:04:00 4 C 5.91 g/m*3 4 C 0 km/h
17 17-02-2009 03:16:00 4 C 5.91 g/m*3 4 C 0 km/h
18 17-02-2009 03:28:00 4 C 5.91 g/m*3 4 C 0 km/h
19 17-02-2009 03:40:00 4 C 5.91 g/m*3 4 C 0 km/h
20 17-02-2009 03:52:00 4 C 5.91 g/m*3 4 C 0 km/h
21 17-02-2009 04:04:00 4 C 5.91 g/m*3 4 C 0 km/h
22 17-02-2009 04:16:00 4.1 C 6.02 g/m*3 4.1 C 0 km/h
23 17-02-2009 04:28:00 4.2 C 6.06 g/m*3 4.2 C 0 km/h
24 17-02-2009 04:40:00 4.2 C 6.06 g/m*3 4.2 C 0 km/h
25 17-02-2009 04:52:00 4.3 C 6.1 g/m*3 4.3 C 0 km/h
Sensor: Nr:Datum:Temp:Abs-Feuchte:Windchill:Wind:
Aussen-T/F 26 17-02-2009 05:04:00 4.3 C 6.1 g/m*3 4.3 C 0 km/h
27 17-02-2009 05:16:01 4.3 C 6.1 g/m*3 4.3 C 0 km/h
28 17-02-2009 05:28:01 4.4 C 6.14 g/m*3 4.4 C 0 km/h
29 17-02-2009 05:40:01 4.4 C 6.14 g/m*3 4.4 C 0 km/h
30 17-02-2009 05:52:01 4.4 C 6.14 g/m*3 4.4 C 0 km/h
31 17-02-2009 06:04:01 4.5 C 6.18 g/m*3 4.5 C 0 km/h
32 17-02-2009 06:16:01 4.4 C 6.14 g/m*3 4.4 C 0 km/h
33 17-02-2009 06:28:01 4.4 C 6.14 g/m*3 4.4 C 0 km/h
34 17-02-2009 06:40:01 4.4 C 6.14 g/m*3 4.4 C 0 km/h
35 17-02-2009 06:52:01 4.5 C 6.18 g/m*3 4.5 C 0 km/h
36 17-02-2009 07:04:43 4.5 C 6.18 g/m*3 4.5 C 0 km/h
37 17-02-2009 07:16:43 4.7 C 6.33 g/m*3 4.7 C 0 km/h
38 17-02-2009 07:28:43 4.7 C 6.33 g/m*3 4.7 C 0 km/h
39 17-02-2009 07:40:43 4.6 C 6.29 g/m*3 4.6 C 0 km/h
40 17-02-2009 07:52:43 4.7 C 6.33 g/m*3 4.7 C 0 km/h
41 17-02-2009 08:04:42 4.6 C 6.29 g/m*3 4.6 C 0 km/h
42 17-02-2009 08:16:43 4.6 C 6.29 g/m*3 4.6 C 0 km/h
43 17-02-2009 08:28:44 4.8 C 6.37 g/m*3 4.8 C 0 km/h
44 17-02-2009 08:40:42 5 C 6.46 g/m*3 5 C 0 km/h
45 17-02-2009 08:52:42 5.1 C 6.5 g/m*3 5.1 C 0 km/h
46 17-02-2009 09:04:42 5.3 C 6.58 g/m*3 5.3 C 0 km/h
47 17-02-2009 09:16:42 5.5 C 6.67 g/m*3 5.5 C 0 km/h
48 17-02-2009 09:28:42 5.5 C 6.67 g/m*3 5.5 C 0 km/h
49 17-02-2009 09:40:42 5.6 C 6.72 g/m*3 5.6 C 0 km/h
50 17-02-2009 09:52:42 5.6 C 6.65 g/m*3 5.6 C 0 km/h
Sensor: Nr:Datum:Temp:Abs-Feuchte:Windchill:Wind:
Aussen-T/F 51 17-02-2009 10:04:42 5.7 C 6.69 g/m*3 5.7 C 0 km/h
52 17-02-2009 10:16:41 5.7 C 6.69 g/m*3 5.7 C 0 km/h
53 17-02-2009 10:28:41 5.7 C 6.62 g/m*3 5.7 C 0 km/h
54 17-02-2009 10:40:41 6 C 6.68 g/m*3 6 C 0 km/h
55 17-02-2009 10:52:41 6 C 6.68 g/m*3 6 C 0 km/h
56 17-02-2009 11:04:41 5.9 C 6.71 g/m*3 5.9 C 0 km/h
57 17-02-2009 11:16:40 5.9 C 6.71 g/m*3 5.9 C 0 km/h
58 17-02-2009 11:28:40 6 C 6.68 g/m*3 6 C 0 km/h
59 17-02-2009 11:40:41 6 C 6.68 g/m*3 6 C 0 km/h
60 17-02-2009 11:52:41 6 C 6.68 g/m*3 6 C 0 km/h
61 17-02-2009 12:04:40 6.1 C 6.72 g/m*3 6.1 C 0 km/h
62 17-02-2009 12:16:41 6.3 C 6.88 g/m*3 6.3 C 0 km/h
63 17-02-2009 12:28:41 6.3 C 6.88 g/m*3 6.3 C 0 km/h
64 17-02-2009 12:40:40 6.3 C 6.88 g/m*3 6.3 C 0 km/h
65 17-02-2009 12:52:40 6.6 C 7.02 g/m*3 6.6 C 0 km/h
66 17-02-2009 13:04:39 6.7 C 7.07 g/m*3 6.7 C 0 km/h
67 17-02-2009 13:16:40 6.7 C 6.99 g/m*3 6.7 C 0 km/h
68 17-02-2009 13:28:40 6.5 C 6.9 g/m*3 6.5 C 0 km/h
69 17-02-2009 13:40:39 6.5 C 6.9 g/m*3 6.5 C 0 km/h
70 17-02-2009 13:52:39 6.4 C 6.71 g/m*3 6.4 C 0 km/h
71 17-02-2009 14:04:40 6.4 C 6.71 g/m*3 6.4 C 0 km/h
72 17-02-2009 14:16:39 6.5 C 6.6 g/m*3 6.5 C 0 km/h
73 17-02-2009 14:28:39 6.7 C 6.53 g/m*3 6.7 C 0 km/h
74 17-02-2009 14:40:39 6.8 C 6.35 g/m*3 6.8 C 0 km/h
75 17-02-2009 14:52:39 7 C 6.2 g/m*3 7 C 0 km/h
Sensor: Nr:Datum:Temp:Abs-Feuchte:Windchill:Wind:
Aussen-T/F 76 17-02-2009 15:04:39 6.9 C 6.16 g/m*3 6.9 C 0 km/h
77 17-02-2009 15:16:38 6.9 C 6.08 g/m*3 6.9 C 0 km/h
78 17-02-2009 15:28:38 7 C 5.81 g/m*3 7 C 0 km/h
79 17-02-2009 15:40:38 6.9 C 5.93 g/m*3 6.9 C 0 km/h
80 17-02-2009 15:52:38 6.8 C 5.58 g/m*3 6.8 C 0 km/h
81 17-02-2009 16:04:38 5.9 C 5.19 g/m*3 5.9 C 0 km/h
82 17-02-2009 16:16:38 5.5 C 5.06 g/m*3 5.5 C 0 km/h
83 17-02-2009 16:28:38 5.1 C 4.99 g/m*3 5.1 C 0 km/h
84 17-02-2009 16:40:38 4.9 C 5 g/m*3 4.9 C 0 km/h
85 17-02-2009 16:52:38 4.6 C 4.76 g/m*3 4.6 C 0 km/h
86 17-02-2009 17:04:37 4.4 C 4.7 g/m*3 4.4 C 0 km/h
87 17-02-2009 17:16:38 4 C 4.51 g/m*3 4 C 0 km/h
88 17-02-2009 17:28:38 3.7 C 4.42 g/m*3 3.7 C 0 km/h
89 17-02-2009 17:40:37 3.6 C 4.33 g/m*3 3.6 C 0 km/h
90 17-02-2009 17:52:37 3.4 C 4.15 g/m*3 3.4 C 0 km/h
91 17-02-2009 18:04:37 3.1 C 4.07 g/m*3 3.1 C 0 km/h
92 17-02-2009 18:16:37 2.9 C 4.02 g/m*3 2.9 C 0 km/h
93 17-02-2009 18:28:37 2.8 C 4.05 g/m*3 2.8 C 0 km/h
94 17-02-2009 18:40:37 2.5 C 3.97 g/m*3 2.5 C 0 km/h
95 17-02-2009 18:52:37 2.3 C 3.74 g/m*3 2.3 C 0 km/h
96 17-02-2009 19:04:37 2.1 C 3.41 g/m*3 2.1 C 0 km/h
97 17-02-2009 19:16:36 2.1 C 3.3 g/m*3 2.1 C 0 km/h
98 17-02-2009 19:28:36 1.9 C 3.09 g/m*3 1.9 C 0 km/h
99 17-02-2009 19:40:36 1.6 C 2.97 g/m*3 1.6 C 0 km/h
100 17-02-2009 19:52:36 1.1 C 2.98 g/m*3 1.1 C 0 km/h
Sensor: Nr:Datum:Temp:Abs-Feuchte:Windchill:Wind:
Aussen-T/F 101 17-02-2009 20:04:36 0.7 C 2.85 g/m*3 0.7 C 0 km/h
102 17-02-2009 20:16:35 0.3 C 2.67 g/m*3 0.3 C 0 km/h
103 17-02-2009 20:28:35 0 C 2.66 g/m*3 0 C 0 km/h
104 17-02-2009 20:40:36 -0.3 C 2.66 g/m*3 -0.3 C 0 km/h
105 17-02-2009 20:52:35 -0.4 C 2.54 g/m*3 -0.4 C 0 km/h
106 17-02-2009 21:04:36 -0.5 C 2.57 g/m*3 -0.5 C 0 km/h
107 17-02-2009 21:16:35 -0.7 C 2.45 g/m*3 -0.7 C 0 km/h
108 17-02-2009 21:28:35 -0.9 C 2.46 g/m*3 -0.9 C 0 km/h
109 17-02-2009 21:41:36 -1 C 2.44 g/m*3 -1 C 0 km/h
110 17-02-2009 21:53:36 -1.2 C 2.41 g/m*3 -1.2 C 0 km/h
111 17-02-2009 22:05:36 -1.3 C 2.39 g/m*3 -1.3 C 0 km/h
112 17-02-2009 22:17:36 -1.5 C 2.49 g/m*3 -1.5 C 0 km/h
113 17-02-2009 22:29:36 -1.7 C 2.5 g/m*3 -1.7 C 0 km/h
114 17-02-2009 22:41:36 -1.9 C 2.55 g/m*3 -1.9 C 0 km/h
115 17-02-2009 22:53:36 -2 C 2.49 g/m*3 -2 C 0 km/h
116 17-02-2009 23:05:36 -2.2 C 2.49 g/m*3 -2.2 C 0 km/h
117 17-02-2009 23:17:36 -2.3 C 2.48 g/m*3 -2.3 C 0 km/h
118 17-02-2009 23:29:36 -2.4 C 2.5 g/m*3 -2.4 C 0 km/h
119 17-02-2009 23:41:36 -2.6 C 2.51 g/m*3 -2.6 C 0 km/h
120 17-02-2009 23:53:36 -2.6 C 2.51 g/m*3 -2.6 C 0 km/h
121 18-02-2009 00:05:36 -2.8 C 2.51 g/m*3 -2.8 C 0 km/h
122 18-02-2009 00:17:36 -2.9 C 2.53 g/m*3 -2.9 C 0 km/h
123 18-02-2009 00:29:37 -2.9 C 2.57 g/m*3 -2.9 C 0 km/h
124 18-02-2009 00:41:37 -3 C 2.59 g/m*3 -3 C 0 km/h
125 18-02-2009 00:53:37 -3.2 C 2.52 g/m*3 -3.2 C 0 km/h
Sensor: Nr:Datum:Temp:Abs-Feuchte:Windchill:Wind:
Aussen-T/F 126 18-02-2009 01:05:37 -3.3 C 2.5 g/m*3 -3.3 C 0 km/h
127 18-02-2009 01:17:37 -3.4 C 2.48 g/m*3 -3.4 C 0 km/h
128 18-02-2009 01:29:37 -3.5 C 2.5 g/m*3 -3.5 C 0 km/h
129 18-02-2009 01:41:37 -3.5 C 2.5 g/m*3 -3.5 C 0 km/h
130 18-02-2009 01:53:37 -3.6 C 2.48 g/m*3 -3.6 C 0 km/h
131 18-02-2009 02:05:37 -3.7 C 2.47 g/m*3 -3.7 C 0 km/h
132 18-02-2009 02:17:37 -3.7 C 2.5 g/m*3 -3.7 C 0 km/h
133 18-02-2009 02:29:37 -3.7 C 2.54 g/m*3 -3.7 C 0 km/h
134 18-02-2009 02:41:37 -3.8 C 2.52 g/m*3 -3.8 C 0 km/h
135 18-02-2009 02:53:37 -4 C 2.49 g/m*3 -4 C 0 km/h
136 18-02-2009 03:05:37 -4 C 2.52 g/m*3 -4 C 0 km/h
137 18-02-2009 03:17:37 -4.1 C 2.51 g/m*3 -4.1 C 0 km/h
138 18-02-2009 03:29:37 -4.3 C 2.47 g/m*3 -4.3 C 0 km/h
139 18-02-2009 03:41:37 -4.3 C 2.51 g/m*3 -4.3 C 0 km/h
140 18-02-2009 03:53:37 -4.5 C 2.47 g/m*3 -4.5 C 0 km/h
141 18-02-2009 04:05:37 -4.5 C 2.47 g/m*3 -4.5 C 0 km/h
142 18-02-2009 04:17:37 -4.7 C 2.44 g/m*3 -4.7 C 0 km/h
143 18-02-2009 04:29:37 -4.8 C 2.42 g/m*3 -4.8 C 0 km/h
144 18-02-2009 04:41:38 -4.8 C 2.42 g/m*3 -4.8 C 0 km/h
145 18-02-2009 04:53:38 -4.9 C 2.4 g/m*3 -4.9 C 0 km/h
146 18-02-2009 05:05:38 -4.9 C 2.4 g/m*3 -4.9 C 0 km/h
147 18-02-2009 05:17:38 -5.1 C 2.4 g/m*3 -5.1 C 0 km/h
148 18-02-2009 05:29:38 -5 C 2.45 g/m*3 -5 C 0 km/h
149 18-02-2009 05:41:38 -5.1 C 2.43 g/m*3 -5.1 C 0 km/h
150 18-02-2009 05:53:38 -5.4 C 2.38 g/m*3 -5.4 C 0 km/h
Sensor: Nr:Datum:Temp:Abs-Feuchte:Windchill:Wind:
Aussen-T/F 151 18-02-2009 06:05:38 -5.5 C 2.36 g/m*3 -5.5 C 0 km/h
152 18-02-2009 06:17:38 -5.6 C 2.35 g/m*3 -5.6 C 0 km/h
153 18-02-2009 06:29:38 -5.7 C 2.36 g/m*3 -5.7 C 0 km/h
154 18-02-2009 06:41:38 -5.5 C 2.4 g/m*3 -5.5 C 0 km/h
155 18-02-2009 06:53:38 -5.5 C 2.43 g/m*3 -5.5 C 0 km/h
156 18-02-2009 07:05:36 -5.7 C 2.4 g/m*3 -5.7 C 0 km/h
157 18-02-2009 07:17:35 -6.1 C 2.3 g/m*3 -6.1 C 0 km/h
158 18-02-2009 07:29:36 -6.2 C 2.28 g/m*3 -6.2 C 0 km/h
159 18-02-2009 07:41:36 -5.9 C 2.36 g/m*3 -5.9 C 0 km/h
160 18-02-2009 07:53:35 -5.8 C 2.41 g/m*3 -5.8 C 0 km/h
161 18-02-2009 08:05:35 -5.7 C 2.43 g/m*3 -5.7 C 0 km/h
162 18-02-2009 08:17:35 -5.6 C 2.48 g/m*3 -5.6 C 0 km/h
163 18-02-2009 08:29:35 -5.8 C 2.44 g/m*3 -5.8 C 0 km/h
164 18-02-2009 08:41:35 -5.9 C 2.42 g/m*3 -5.9 C 0 km/h
165 18-02-2009 08:53:34 -5.7 C 2.46 g/m*3 -5.7 C 0 km/h
166 18-02-2009 09:05:35 -5.7 C 2.46 g/m*3 -5.7 C 0 km/h
167 18-02-2009 09:17:35 -5.5 C 2.53 g/m*3 -5.5 C 0 km/h
168 18-02-2009 09:29:34 -5.4 C 2.55 g/m*3 -5.4 C 0 km/h
169 18-02-2009 09:41:34 -4.9 C 2.64 g/m*3 -4.9 C 0 km/h
170 18-02-2009 09:53:35 -4.7 C 2.68 g/m*3 -4.7 C 0 km/h
171 18-02-2009 10:05:34 -4.2 C 2.78 g/m*3 -4.2 C 0 km/h
172 18-02-2009 10:17:34 -3.5 C 2.84 g/m*3 -3.5 C 0 km/h
173 18-02-2009 10:29:34 -2.4 C 2.87 g/m*3 -2.4 C 0 km/h
174 18-02-2009 10:41:34 -1.7 C 2.67 g/m*3 -1.7 C 0 km/h
175 18-02-2009 10:53:34 -1.3 C 2.52 g/m*3 -1.3 C 0 km/h
Sensor: Nr:Datum:Temp:Abs-Feuchte:Windchill:Wind:
Aussen-T/F 176 18-02-2009 11:05:34 -1.5 C 2.36 g/m*3 -1.5 C 0 km/h
177 18-02-2009 11:17:33 -1.3 C 2.39 g/m*3 -1.3 C 0 km/h
178 18-02-2009 11:29:33 -1 C 2.35 g/m*3 -1 C 0 km/h
179 18-02-2009 11:41:33 -0.7 C 2.12 g/m*3 -0.7 C 0 km/h
180 18-02-2009 11:53:33 -0.3 C 2.28 g/m*3 -0.3 C 0 km/h
181 18-02-2009 12:05:33 0 C 2.33 g/m*3 0 C 0 km/h
182 18-02-2009 12:17:32 0.2 C 2.36 g/m*3 0.2 C 0 km/h
183 18-02-2009 12:29:33 0.5 C 2.31 g/m*3 0.5 C 0 km/h
184 18-02-2009 12:41:33 0.7 C 2.29 g/m*3 0.7 C 0 km/h
185 18-02-2009 12:53:32 1.1 C 2.09 g/m*3 1.1 C 0 km/h
186 18-02-2009 13:05:32 1.9 C 2.1 g/m*3 1.9 C 0 km/h
187 18-02-2009 13:17:33 2.3 C 2.04 g/m*3 2.3 C 0 km/h
188 18-02-2009 13:29:32 2.7 C 2.04 g/m*3 2.7 C 0 km/h
189 18-02-2009 13:41:32 2.8 C 1.82 g/m*3 2.8 C 0 km/h
190 18-02-2009 13:53:32 3.6 C 1.55 g/m*3 3.6 C 0 km/h
191 18-02-2009 14:05:32 3.6 C 1.55 g/m*3 3.6 C 0 km/h
192 18-02-2009 14:17:32 4.4 C 1.31 g/m*3 4.4 C 0 km/h
193 18-02-2009 14:29:31 4.8 C 1.34 g/m*3 4.8 C 0 km/h
194 18-02-2009 14:41:31 5.5 C 1.4 g/m*3 5.5 C 0 km/h
195 18-02-2009 14:53:32 5.7 C 1.42 g/m*3 5.7 C 0 km/h
196 18-02-2009 15:05:31 5.9 C 1.44 g/m*3 5.9 C 0 km/h
197 18-02-2009 15:17:31 5.5 C 1.4 g/m*3 5.5 C 0 km/h
198 18-02-2009 15:29:31 5.7 C 1.42 g/m*3 5.7 C 0 km/h
199 18-02-2009 15:41:31 6 C 1.45 g/m*3 6 C 0 km/h
200 18-02-2009 15:53:31 6 C 1.45 g/m*3 6 C 0 km/h
Sensor: Nr:Datum:Temp:Abs-Feuchte:Windchill:Wind:
Aussen-T/F 201 18-02-2009 16:05:31 6.7 C 1.52 g/m*3 6.7 C 0 km/h
202 18-02-2009 16:17:30 6.9 C 1.54 g/m*3 6.9 C 0 km/h
203 18-02-2009 16:29:31 5.1 C 1.37 g/m*3 5.1 C 0 km/h
204 18-02-2009 16:41:31 5.5 C 1.4 g/m*3 5.5 C 0 km/h
205 18-02-2009 16:53:30 5.7 C 1.42 g/m*3 5.7 C 0 km/h
206 18-02-2009 17:05:30 5.4 C 1.4 g/m*3 5.4 C 0 km/h
207 18-02-2009 17:17:30 4.7 C 1.67 g/m*3 4.7 C 0 km/h
208 18-02-2009 17:29:30 3.2 C 1.81 g/m*3 3.2 C 0 km/h
209 18-02-2009 17:41:30 1.9 C 2.04 g/m*3 1.9 C 0 km/h
210 18-02-2009 17:53:30 1 C 2.13 g/m*3 1 C 0 km/h
211 18-02-2009 18:05:29 0.4 C 2.14 g/m*3 0.4 C 0 km/h
212 18-02-2009 18:17:29 -0.1 C 2.21 g/m*3 -0.1 C 0 km/h
213 18-02-2009 18:29:30 -0.4 C 2.26 g/m*3 -0.4 C 0 km/h
214 18-02-2009 18:41:30 -0.6 C 2.28 g/m*3 -0.6 C 0 km/h
215 18-02-2009 18:53:29 -0.9 C 2.37 g/m*3 -0.9 C 0 km/h
216 18-02-2009 19:05:29 -1 C 2.26 g/m*3 -1 C 0 km/h
217 18-02-2009 19:17:29 -1.2 C 2.27 g/m*3 -1.2 C 0 km/h
218 18-02-2009 19:29:29 -1.3 C 2.26 g/m*3 -1.3 C 0 km/h
219 18-02-2009 19:41:29 -1.4 C 2.33 g/m*3 -1.4 C 0 km/h
220 18-02-2009 19:53:28 -1.6 C 2.3 g/m*3 -1.6 C 0 km/h
221 18-02-2009 20:05:29 -1.7 C 2.32 g/m*3 -1.7 C 0 km/h
222 18-02-2009 20:17:28 -1.8 C 2.35 g/m*3 -1.8 C 0 km/h
223 18-02-2009 20:29:28 -1.9 C 2.33 g/m*3 -1.9 C 0 km/h
224 18-02-2009 20:41:28 -2 C 2.32 g/m*3 -2 C 0 km/h
225 18-02-2009 20:53:28 -2.1 C 2.22 g/m*3 -2.1 C 0 km/h
Sensor: Nr:Datum:Temp:Abs-Feuchte:Windchill:Wind:
Aussen-T/F 226 18-02-2009 21:05:28 -2.2 C 2.29 g/m*3 -2.2 C 0 km/h
227 18-02-2009 21:17:28 -2.3 C 2.27 g/m*3 -2.3 C 0 km/h
228 18-02-2009 21:29:27 -2.3 C 2.23 g/m*3 -2.3 C 0 km/h
229 18-02-2009 21:41:27 -2.4 C 2.17 g/m*3 -2.4 C 0 km/h
230 18-02-2009 21:53:28 -2.6 C 2.3 g/m*3 -2.6 C 0 km/h
231 18-02-2009 22:06:27 -2.7 C 2.33 g/m*3 -2.7 C 0 km/h
232 18-02-2009 22:18:27 -2.9 C 2.33 g/m*3 -2.9 C 0 km/h
233 18-02-2009 22:30:27 -2.9 C 2.37 g/m*3 -2.9 C 0 km/h
234 18-02-2009 22:42:27 -2.9 C 2.41 g/m*3 -2.9 C 0 km/h
235 18-02-2009 22:54:27 -3.1 C 2.38 g/m*3 -3.1 C 0 km/h
236 18-02-2009 23:06:27 -3.3 C 2.35 g/m*3 -3.3 C 0 km/h
237 18-02-2009 23:18:27 -3.2 C 2.4 g/m*3 -3.2 C 0 km/h
238 18-02-2009 23:30:27 -2.9 C 2.45 g/m*3 -2.9 C 0 km/h
239 18-02-2009 23:42:28 -2.7 C 2.45 g/m*3 -2.7 C 0 km/h
240 18-02-2009 23:54:28 -2.5 C 2.48 g/m*3 -2.5 C 0 km/h
241 19-02-2009 00:06:28 -2.5 C 2.56 g/m*3 -2.5 C 0 km/h
242 19-02-2009 00:18:28 -2.4 C 2.58 g/m*3 -2.4 C 0 km/h
243 19-02-2009 00:30:28 -2.3 C 2.6 g/m*3 -2.3 C 0 km/h
244 19-02-2009 00:42:28 -2.3 C 2.56 g/m*3 -2.3 C 0 km/h
245 19-02-2009 00:54:28 -2.2 C 2.58 g/m*3 -2.2 C 0 km/h
246 19-02-2009 01:06:28 -2.1 C 2.6 g/m*3 -2.1 C 0 km/h
247 19-02-2009 01:18:28 -2.1 C 2.6 g/m*3 -2.1 C 0 km/h
248 19-02-2009 01:30:28 -2.1 C 2.55 g/m*3 -2.1 C 0 km/h
249 19-02-2009 01:42:28 -2.1 C 2.55 g/m*3 -2.1 C 0 km/h
250 19-02-2009 01:54:28 -2.3 C 2.52 g/m*3 -2.3 C 0 km/h
Sensor: Nr:Datum:Temp:Abs-Feuchte:Windchill:Wind:
Aussen-T/F 251 19-02-2009 02:06:28 -2.1 C 2.6 g/m*3 -2.1 C 0 km/h
252 19-02-2009 02:18:28 -2 C 2.57 g/m*3 -2 C 0 km/h
253 19-02-2009 02:30:28 -2 C 2.57 g/m*3 -2 C 0 km/h
254 19-02-2009 02:42:28 -2 C 2.57 g/m*3 -2 C 0 km/h
255 19-02-2009 02:54:28 -2.1 C 2.55 g/m*3 -2.1 C 0 km/h
256 19-02-2009 03:06:28 -2.2 C 2.58 g/m*3 -2.2 C 0 km/h
257 19-02-2009 03:18:28 -2.3 C 2.56 g/m*3 -2.3 C 0 km/h
258 19-02-2009 03:30:29 -2.3 C 2.6 g/m*3 -2.3 C 0 km/h
259 19-02-2009 03:42:29 -2.1 C 2.64 g/m*3 -2.1 C 0 km/h
260 19-02-2009 03:54:29 -2.1 C 2.64 g/m*3 -2.1 C 0 km/h
261 19-02-2009 04:06:29 -2.1 C 2.64 g/m*3 -2.1 C 0 km/h
262 19-02-2009 04:18:29 -2.2 C 2.58 g/m*3 -2.2 C 0 km/h
263 19-02-2009 04:30:29 -2.1 C 2.64 g/m*3 -2.1 C 0 km/h
264 19-02-2009 04:42:29 -2.1 C 2.64 g/m*3 -2.1 C 0 km/h
265 19-02-2009 04:54:29 -2.1 C 2.64 g/m*3 -2.1 C 0 km/h
266 19-02-2009 05:06:29 -2.1 C 2.64 g/m*3 -2.1 C 0 km/h
267 19-02-2009 05:18:29 -2.1 C 2.64 g/m*3 -2.1 C 0 km/h
268 19-02-2009 05:30:27 -2.2 C 2.62 g/m*3 -2.2 C 0 km/h
269 19-02-2009 05:42:27 -2.3 C 2.6 g/m*3 -2.3 C 0 km/h
270 19-02-2009 05:54:27 -2.3 C 2.64 g/m*3 -2.3 C 0 km/h
271 19-02-2009 06:06:27 -2.3 C 2.64 g/m*3 -2.3 C 0 km/h
272 19-02-2009 06:18:27 -2.3 C 2.64 g/m*3 -2.3 C 0 km/h
273 19-02-2009 06:30:27 -2.2 C 2.66 g/m*3 -2.2 C 0 km/h
274 19-02-2009 06:42:27 -2.2 C 2.66 g/m*3 -2.2 C 0 km/h
275 19-02-2009 06:54:27 -2.1 C 2.64 g/m*3 -2.1 C 0 km/h
Sensor: Nr:Datum:Temp:Abs-Feuchte:Windchill:Wind:
Aussen-T/F 276 19-02-2009 07:06:27 -2.1 C 2.55 g/m*3 -2.1 C 0 km/h
277 19-02-2009 07:18:02 -2 C 2.57 g/m*3 -2 C 0 km/h
278 19-02-2009 07:30:02 -2 C 2.53 g/m*3 -2 C 0 km/h
279 19-02-2009 07:42:02 -2 C 2.57 g/m*3 -2 C 0 km/h
280 19-02-2009 07:54:01 -2 C 2.61 g/m*3 -2 C 0 km/h
281 19-02-2009 08:06:01 -1.9 C 2.63 g/m*3 -1.9 C 0 km/h
282 19-02-2009 08:18:02 -1.9 C 2.63 g/m*3 -1.9 C 0 km/h
283 19-02-2009 08:30:02 -1.6 C 2.69 g/m*3 -1.6 C 0 km/h
284 19-02-2009 08:42:01 -1.3 C 2.7 g/m*3 -1.3 C 0 km/h
285 19-02-2009 08:54:01 -1 C 2.71 g/m*3 -1 C 0 km/h
286 19-02-2009 09:06:01 -0.8 C 2.61 g/m*3 -0.8 C 0 km/h
287 19-02-2009 09:18:01 -0.9 C 2.55 g/m*3 -0.9 C 0 km/h
288 19-02-2009 09:30:01 -0.7 C 2.58 g/m*3 -0.7 C 0 km/h
289 19-02-2009 09:42:00 -0.7 C 2.54 g/m*3 -0.7 C 0 km/h
290 19-02-2009 09:54:01 -0.6 C 2.56 g/m*3 -0.6 C 0 km/h
291 19-02-2009 10:06:01 -0.4 C 2.59 g/m*3 -0.4 C 0 km/h
292 19-02-2009 10:18:00 -0.1 C 2.55 g/m*3 -0.1 C 0 km/h
293 19-02-2009 10:30:00 0.1 C 2.54 g/m*3 0.1 C 0 km/h
294 19-02-2009 10:42:00 0.5 C 2.56 g/m*3 0.5 C 0 km/h
295 19-02-2009 10:54:00 0.5 C 2.46 g/m*3 0.5 C 0 km/h
296 19-02-2009 11:06:00 0.8 C 2.51 g/m*3 0.8 C 0 km/h
297 19-02-2009 11:18:59 1 C 2.44 g/m*3 1 C 0 km/h
298 19-02-2009 11:29:59 0.9 C 2.47 g/m*3 0.9 C 0 km/h
299 19-02-2009 11:41:59 1 C 2.44 g/m*3 1 C 0 km/h
300 19-02-2009 11:54:59 1.1 C 2.4 g/m*3 1.1 C 0 km/h
Sensor: Nr:Datum:Temp:Abs-Feuchte:Windchill:Wind:
Aussen-T/F 301 19-02-2009 12:06:59 1.2 C 2.42 g/m*3 1.2 C 0 km/h
302 19-02-2009 12:29:59 1.6 C 2.38 g/m*3 1.6 C 0 km/h
303 19-02-2009 12:30:59 2 C 2.22 g/m*3 2 C 0 km/h
304 19-02-2009 12:42:59 2.4 C 2.11 g/m*3 2.4 C 0 km/h
305 19-02-2009 12:54:59 3 C 1.96 g/m*3 3 C 0 km/h
306 19-02-2009 13:06:58 3.5 C 1.91 g/m*3 3.5 C 0 km/h
307 19-02-2009 13:18:59 3.9 C 1.96 g/m*3 3.9 C 0 km/h
308 19-02-2009 13:30:58 4.5 C 1.84 g/m*3 4.5 C 0 km/h
309 19-02-2009 13:42:58 4.2 C 1.8 g/m*3 4.2 C 0 km/h
310 19-02-2009 13:54:58 4.3 C 1.82 g/m*3 4.3 C 0 km/h
311 19-02-2009 14:06:59 4.9 C 1.82 g/m*3 4.9 C 0 km/h
312 19-02-2009 14:18:58 5.7 C 1.78 g/m*3 5.7 C 0 km/h
313 19-02-2009 14:30:58 5.8 C 1.43 g/m*3 5.8 C 0 km/h
314 19-02-2009 14:42:58 6.5 C 1.5 g/m*3 6.5 C 0 km/h
315 19-02-2009 14:54:58 6.8 C 1.53 g/m*3 6.8 C 0 km/h
316 19-02-2009 15:06:58 7.1 C 1.56 g/m*3 7.1 C 0 km/h
317 19-02-2009 15:18:57 6.6 C 1.51 g/m*3 6.6 C 0 km/h
318 19-02-2009 15:30:57 6.3 C 1.48 g/m*3 6.3 C 0 km/h
319 19-02-2009 15:42:57 6.7 C 1.52 g/m*3 6.7 C 0 km/h
320 19-02-2009 15:54:57 7.1 C 1.56 g/m*3 7.1 C 0 km/h
321 19-02-2009 16:06:57 7.1 C 1.56 g/m*3 7.1 C 0 km/h
322 19-02-2009 16:18:57 7.4 C 1.59 g/m*3 7.4 C 0 km/h
323 19-02-2009 16:30:54 7 C 1.55 g/m*3 7 C 0 km/h
324 19-02-2009 16:42:54 6.5 C 1.72 g/m*3 6.5 C 0 km/h
325 19-02-2009 16:54:57 5.8 C 1.79 g/m*3 5.8 C 0 km/h
Sensor: Nr:Datum:Temp:Abs-Feuchte:Windchill:Wind:
Aussen-T/F 326 19-02-2009 17:06:02 5.4 C 2.09 g/m*3 5.4 C 0 km/h
327 19-02-2009 17:18:02 4.8 C 2.08 g/m*3 4.8 C 0 km/h
328 19-02-2009 17:30:02 4.4 C 2.15 g/m*3 4.4 C 0 km/h
329 19-02-2009 17:42:02 4 C 2.29 g/m*3 4 C 0 km/h
330 19-02-2009 17:54:02 3.7 C 2.43 g/m*3 3.7 C 0 km/h
331 19-02-2009 18:06:02 3.5 C 2.46 g/m*3 3.5 C 0 km/h
332 19-02-2009 18:18:02 3.4 C 2.5 g/m*3 3.4 C 0 km/h
333 19-02-2009 18:30:02 3.3 C 2.43 g/m*3 3.3 C 0 km/h
334 19-02-2009 18:42:01 3.2 C 2.47 g/m*3 3.2 C 0 km/h
335 19-02-2009 18:54:01 3.1 C 2.45 g/m*3 3.1 C 0 km/h
336 19-02-2009 19:06:01 2.9 C 2.48 g/m*3 2.9 C 0 km/h
337 19-02-2009 19:18:01 2.9 C 2.6 g/m*3 2.9 C 0 km/h
338 19-02-2009 19:30:01 3 C 2.5 g/m*3 3 C 0 km/h
339 19-02-2009 19:42:01 2.9 C 2.6 g/m*3 2.9 C 0 km/h
340 19-02-2009 19:54:00 2.8 C 2.64 g/m*3 2.8 C 0 km/h
341 19-02-2009 20:06:01 2.7 C 2.68 g/m*3 2.7 C 0 km/h
342 19-02-2009 20:18:01 2.9 C 2.66 g/m*3 2.9 C 0 km/h
343 19-02-2009 20:30:01 2.5 C 2.99 g/m*3 2.5 C 0 km/h
344 19-02-2009 20:42:00 2 C 3.39 g/m*3 2 C 0 km/h
345 19-02-2009 20:54:01 1.9 C 3.59 g/m*3 1.9 C 0 km/h
346 19-02-2009 21:06:00 1.8 C 3.73 g/m*3 1.8 C 0 km/h
347 19-02-2009 21:18:00 1.7 C 3.81 g/m*3 1.7 C 0 km/h
348 19-02-2009 21:30:00 1.6 C 3.89 g/m*3 1.6 C 0 km/h
349 19-02-2009 21:42:00 1.5 C 3.97 g/m*3 1.5 C 0 km/h
350 19-02-2009 21:54:00 1.3 C 3.97 g/m*3 1.3 C 0 km/h
Sensor: Nr:Datum:Temp:Abs-Feuchte:Windchill:Wind:
Aussen-T/F 351 19-02-2009 22:06:59 1.3 C 4.03 g/m*3 1.3 C 0 km/h
352 19-02-2009 22:29:59 1.3 C 4.08 g/m*3 1.3 C 0 km/h
353 19-02-2009 22:30:59 1.3 C 4.13 g/m*3 1.3 C 0 km/h
354 19-02-2009 22:42:59 1.3 C 4.13 g/m*3 1.3 C 0 km/h
355 19-02-2009 22:54:59 1.3 C 4.13 g/m*3 1.3 C 0 km/h
356 19-02-2009 23:06:58 1.2 C 4.1 g/m*3 1.2 C 0 km/h
357 19-02-2009 23:18:59 1.3 C 4.13 g/m*3 1.3 C 0 km/h
358 19-02-2009 23:30:59 1.3 C 4.13 g/m*3 1.3 C 0 km/h
359 19-02-2009 23:42:59 1.3 C 4.08 g/m*3 1.3 C 0 km/h
360 19-02-2009 23:54:58 1.4 C 4.05 g/m*3 1.4 C 0 km/h
361 20-02-2009 00:06:59 1.6 C 4.11 g/m*3 1.6 C 0 km/h
362 20-02-2009 00:18:59 1.6 C 4 g/m*3 1.6 C 0 km/h
363 20-02-2009 00:30:58 1.6 C 4 g/m*3 1.6 C 0 km/h
364 20-02-2009 00:42:58 1.6 C 4 g/m*3 1.6 C 0 km/h
365 20-02-2009 00:54:58 1.7 C 4.03 g/m*3 1.7 C 0 km/h
366 20-02-2009 01:06:58 1.7 C 4.03 g/m*3 1.7 C 0 km/h
367 20-02-2009 01:18:58 1.7 C 4.03 g/m*3 1.7 C 0 km/h
368 20-02-2009 01:30:57 1.7 C 4.03 g/m*3 1.7 C 0 km/h
369 20-02-2009 01:42:57 1.6 C 4.11 g/m*3 1.6 C 0 km/h
370 20-02-2009 01:54:57 1.5 C 4.14 g/m*3 1.5 C 0 km/h
371 20-02-2009 02:06:57 1.5 C 4.19 g/m*3 1.5 C 0 km/h
372 20-02-2009 02:18:57 1.5 C 4.24 g/m*3 1.5 C 0 km/h
373 20-02-2009 02:30:57 1.5 C 4.35 g/m*3 1.5 C 0 km/h
374 20-02-2009 02:42:57 1.5 C 4.3 g/m*3 1.5 C 0 km/h
375 20-02-2009 02:55:01 1.6 C 4.27 g/m*3 1.6 C 0 km/h
Sensor: Nr:Datum:Temp:Abs-Feuchte:Windchill:Wind:
Aussen-T/F 376 20-02-2009 03:07:01 1.7 C 4.25 g/m*3 1.7 C 0 km/h
377 20-02-2009 03:19:01 1.8 C 4.28 g/m*3 1.8 C 0 km/h
378 20-02-2009 03:31:01 1.7 C 4.19 g/m*3 1.7 C 0 km/h
379 20-02-2009 03:43:01 1.7 C 4.19 g/m*3 1.7 C 0 km/h
380 20-02-2009 03:55:02 1.8 C 4.28 g/m*3 1.8 C 0 km/h
381 20-02-2009 04:07:01 1.7 C 4.25 g/m*3 1.7 C 0 km/h
382 20-02-2009 04:19:01 1.7 C 4.25 g/m*3 1.7 C 0 km/h
383 20-02-2009 04:31:02 1.8 C 4.28 g/m*3 1.8 C 0 km/h
384 20-02-2009 04:43:02 1.9 C 4.3 g/m*3 1.9 C 0 km/h
385 20-02-2009 04:55:02 1.9 C 4.25 g/m*3 1.9 C 0 km/h
386 20-02-2009 05:07:01 1.9 C 4.25 g/m*3 1.9 C 0 km/h
387 20-02-2009 05:19:01 1.9 C 4.19 g/m*3 1.9 C 0 km/h
388 20-02-2009 05:31:02 2 C 4.17 g/m*3 2 C 0 km/h
389 20-02-2009 05:43:02 2 C 4.17 g/m*3 2 C 0 km/h
390 20-02-2009 05:55:01 2.1 C 4.2 g/m*3 2.1 C 0 km/h
391 20-02-2009 06:07:01 2.1 C 4.2 g/m*3 2.1 C 0 km/h
392 20-02-2009 06:19:02 2.1 C 4.25 g/m*3 2.1 C 0 km/h
393 20-02-2009 06:31:01 2.1 C 4.25 g/m*3 2.1 C 0 km/h
394 20-02-2009 06:43:01 2 C 4.28 g/m*3 2 C 0 km/h
395 20-02-2009 06:55:02 1.8 C 4.49 g/m*3 1.8 C 0 km/h
396 20-02-2009 07:07:01 1.8 C 4.6 g/m*3 1.8 C 0 km/h
397 20-02-2009 07:19:02 1.8 C 4.66 g/m*3 1.8 C 0 km/h
398 20-02-2009 07:31:01 1.8 C 4.71 g/m*3 1.8 C 0 km/h
399 20-02-2009 07:43:01 1.8 C 4.71 g/m*3 1.8 C 0 km/h
400 20-02-2009 07:55:02 1.9 C 4.75 g/m*3 1.9 C 0 km/h
Sensor: Nr:Datum:Temp:Abs-Feuchte:Windchill:Wind:
Aussen-T/F 401 20-02-2009 08:07:01 1.9 C 4.75 g/m*3 1.9 C 0 km/h
402 20-02-2009 08:19:01 2 C 4.67 g/m*3 2 C 0 km/h
403 20-02-2009 08:31:02 2.3 C 4.71 g/m*3 2.3 C 0 km/h
404 20-02-2009 08:43:02 2.4 C 4.68 g/m*3 2.4 C 0 km/h
405 20-02-2009 08:55:01 2.4 C 4.68 g/m*3 2.4 C 0 km/h
406 20-02-2009 09:07:02 2.3 C 4.71 g/m*3 2.3 C 0 km/h
407 20-02-2009 09:19:01 2.3 C 4.76 g/m*3 2.3 C 0 km/h
408 20-02-2009 09:31:02 2.4 C 4.85 g/m*3 2.4 C 0 km/h
409 20-02-2009 09:43:02 2.5 C 4.94 g/m*3 2.5 C 0 km/h
410 20-02-2009 09:55:01 2.8 C 4.99 g/m*3 2.8 C 0 km/h
411 20-02-2009 10:07:02 2.8 C 4.93 g/m*3 2.8 C 0 km/h
412 20-02-2009 10:19:01 3 C 4.93 g/m*3 3 C 0 km/h
413 20-02-2009 10:31:01 3.2 C 4.94 g/m*3 3.2 C 0 km/h
414 20-02-2009 10:43:01 3.2 C 4.88 g/m*3 3.2 C 0 km/h
415 20-02-2009 10:55:01 3.3 C 4.91 g/m*3 3.3 C 0 km/h
416 20-02-2009 11:07:01 3.4 C 4.89 g/m*3 3.4 C 0 km/h
417 20-02-2009 11:19:02 3.5 C 4.92 g/m*3 3.5 C 0 km/h
418 20-02-2009 11:31:01 3.5 C 4.98 g/m*3 3.5 C 0 km/h
419 20-02-2009 11:43:01 3.4 C 5.01 g/m*3 3.4 C 0 km/h
420 20-02-2009 11:55:02 3.4 C 5.07 g/m*3 3.4 C 0 km/h
421 20-02-2009 12:07:01 3.3 C 5.04 g/m*3 3.3 C 0 km/h
422 20-02-2009 12:19:02 3.3 C 5.1 g/m*3 3.3 C 0 km/h
423 20-02-2009 12:31:01 3.5 C 5.29 g/m*3 3.5 C 0 km/h
424 20-02-2009 12:43:01 3.7 C 5.36 g/m*3 3.7 C 0 km/h
425 20-02-2009 12:55:02 3.8 C 5.4 g/m*3 3.8 C 0 km/h
Sensor: Nr:Datum:Temp:Abs-Feuchte:Windchill:Wind:
Aussen-T/F 426 20-02-2009 13:07:01 4.1 C 5.44 g/m*3 4.1 C 0 km/h
427 20-02-2009 13:19:01 4.4 C 5.48 g/m*3 4.4 C 0 km/h
428 20-02-2009 13:31:02 4.5 C 5.46 g/m*3 4.5 C 0 km/h
429 20-02-2009 13:43:02 4.7 C 5.53 g/m*3 4.7 C 0 km/h
430 20-02-2009 13:55:01 4.9 C 5.54 g/m*3 4.9 C 0 km/h
431 20-02-2009 14:07:02 5.2 C 5.51 g/m*3 5.2 C 0 km/h
432 20-02-2009 14:19:01 5.4 C 5.37 g/m*3 5.4 C 0 km/h
433 20-02-2009 14:31:02 5.5 C 5.34 g/m*3 5.5 C 0 km/h
434 20-02-2009 14:43:02 5.7 C 5.27 g/m*3 5.7 C 0 km/h
435 20-02-2009 14:55:01 5.7 C 5.19 g/m*3 5.7 C 0 km/h
436 20-02-2009 15:07:02 5.8 C 5.23 g/m*3 5.8 C 0 km/h
437 20-02-2009 15:19:01 5.7 C 5.12 g/m*3 5.7 C 0 km/h
438 20-02-2009 15:31:01 5.5 C 4.99 g/m*3 5.5 C 0 km/h
439 20-02-2009 15:43:01 5.4 C 5.09 g/m*3 5.4 C 0 km/h
440 20-02-2009 15:55:01 5.5 C 5.13 g/m*3 5.5 C 0 km/h
441 20-02-2009 16:07:01 5.6 C 5.3 g/m*3 5.6 C 0 km/h
442 20-02-2009 16:19:01 5.6 C 5.3 g/m*3 5.6 C 0 km/h
443 20-02-2009 16:31:01 5.4 C 5.23 g/m*3 5.4 C 0 km/h
444 20-02-2009 16:43:01 5.3 C 5.34 g/m*3 5.3 C 0 km/h
445 20-02-2009 16:55:01 5.1 C 5.4 g/m*3 5.1 C 0 km/h
446 20-02-2009 17:07:01 5 C 5.5 g/m*3 5 C 0 km/h
447 20-02-2009 17:19:01 4.9 C 5.67 g/m*3 4.9 C 0 km/h
448 20-02-2009 17:31:01 4.8 C 5.77 g/m*3 4.8 C 0 km/h
449 20-02-2009 17:43:01 4.7 C 5.8 g/m*3 4.7 C 0 km/h
450 20-02-2009 17:55:01 4.7 C 5.86 g/m*3 4.7 C 0 km/h
Sensor: Nr:Datum:Temp:Abs-Feuchte:Windchill:Wind:
Aussen-T/F 451 20-02-2009 18:07:01 4.6 C 5.76 g/m*3 4.6 C 0 km/h
452 20-02-2009 18:19:02 4.6 C 5.76 g/m*3 4.6 C 0 km/h
453 20-02-2009 18:31:01 4.6 C 5.76 g/m*3 4.6 C 0 km/h
454 20-02-2009 18:43:01 4.7 C 5.8 g/m*3 4.7 C 0 km/h
455 20-02-2009 18:55:02 4.6 C 5.82 g/m*3 4.6 C 0 km/h
456 20-02-2009 19:07:01 4.6 C 5.82 g/m*3 4.6 C 0 km/h
457 20-02-2009 19:19:02 4.5 C 5.85 g/m*3 4.5 C 0 km/h
458 20-02-2009 19:31:01 4.5 C 5.85 g/m*3 4.5 C 0 km/h
459 20-02-2009 19:43:01 4.6 C 5.96 g/m*3 4.6 C 0 km/h
460 20-02-2009 19:54:01 4.5 C 5.92 g/m*3 4.5 C 0 km/h
461 20-02-2009 20:06:02 4.5 C 5.92 g/m*3 4.5 C 0 km/h
462 20-02-2009 20:18:01 4.6 C 6.02 g/m*3 4.6 C 0 km/h
463 20-02-2009 20:30:01 4.6 C 6.02 g/m*3 4.6 C 0 km/h
464 20-02-2009 20:42:02 4.6 C 6.02 g/m*3 4.6 C 0 km/h
465 20-02-2009 20:54:01 4.6 C 6.02 g/m*3 4.6 C 0 km/h
466 20-02-2009 21:06:01 4.7 C 6.06 g/m*3 4.7 C 0 km/h
467 20-02-2009 21:18:01 4.8 C 6.04 g/m*3 4.8 C 0 km/h
468 20-02-2009 21:30:01 4.8 C 6.04 g/m*3 4.8 C 0 km/h
469 20-02-2009 21:42:01 4.8 C 5.97 g/m*3 4.8 C 0 km/h
470 20-02-2009 21:54:01 4.7 C 5.86 g/m*3 4.7 C 0 km/h
471 20-02-2009 22:06:01 4.6 C 5.82 g/m*3 4.6 C 0 km/h
472 20-02-2009 22:19:03 4.6 C 5.82 g/m*3 4.6 C 0 km/h
473 20-02-2009 22:31:03 4.5 C 5.78 g/m*3 4.5 C 0 km/h
474 20-02-2009 22:43:03 4.5 C 5.78 g/m*3 4.5 C 0 km/h
475 20-02-2009 22:55:03 4.5 C 5.78 g/m*3 4.5 C 0 km/h
Sensor: Nr:Datum:Temp:Abs-Feuchte:Windchill:Wind:
Aussen-T/F 476 20-02-2009 23:07:03 4.4 C 5.75 g/m*3 4.4 C 0 km/h
477 20-02-2009 23:19:03 4.4 C 5.75 g/m*3 4.4 C 0 km/h
478 20-02-2009 23:31:03 4.3 C 5.71 g/m*3 4.3 C 0 km/h
479 20-02-2009 23:43:03 4.3 C 5.71 g/m*3 4.3 C 0 km/h
480 20-02-2009 23:55:03 4.3 C 5.71 g/m*3 4.3 C 0 km/h
481 21-02-2009 00:07:03 4.2 C 5.67 g/m*3 4.2 C 0 km/h
482 21-02-2009 00:19:03 4.2 C 5.61 g/m*3 4.2 C 0 km/h
483 21-02-2009 00:31:03 4.1 C 5.57 g/m*3 4.1 C 0 km/h
484 21-02-2009 00:43:03 4.1 C 5.5 g/m*3 4.1 C 0 km/h
485 21-02-2009 00:55:03 4.1 C 5.44 g/m*3 4.1 C 0 km/h
486 21-02-2009 01:07:03 4 C 5.4 g/m*3 4 C 0 km/h
487 21-02-2009 01:19:03 4 C 5.4 g/m*3 4 C 0 km/h
488 21-02-2009 01:31:03 4 C 5.34 g/m*3 4 C 0 km/h
489 21-02-2009 01:43:04 4 C 5.34 g/m*3 4 C 0 km/h
490 21-02-2009 01:55:04 4 C 5.34 g/m*3 4 C 0 km/h
491 21-02-2009 02:07:04 4 C 5.28 g/m*3 4 C 0 km/h
492 21-02-2009 02:19:04 4 C 5.28 g/m*3 4 C 0 km/h
493 21-02-2009 02:31:04 4 C 5.28 g/m*3 4 C 0 km/h
494 21-02-2009 02:43:04 3.9 C 5.31 g/m*3 3.9 C 0 km/h
495 21-02-2009 02:55:04 3.9 C 5.31 g/m*3 3.9 C 0 km/h
496 21-02-2009 03:07:04 3.9 C 5.31 g/m*3 3.9 C 0 km/h
497 21-02-2009 03:19:04 3.8 C 5.27 g/m*3 3.8 C 0 km/h
498 21-02-2009 03:31:04 3.8 C 5.27 g/m*3 3.8 C 0 km/h
499 21-02-2009 03:43:04 3.8 C 5.27 g/m*3 3.8 C 0 km/h
500 21-02-2009 03:55:04 3.8 C 5.27 g/m*3 3.8 C 0 km/h
Sensor: Nr:Datum:Temp:Abs-Feuchte:Windchill:Wind:
Aussen-T/F 501 21-02-2009 04:07:04 3.8 C 5.27 g/m*3 3.8 C 0 km/h
502 21-02-2009 04:19:04 3.8 C 5.27 g/m*3 3.8 C 0 km/h
503 21-02-2009 04:31:04 3.7 C 5.23 g/m*3 3.7 C 0 km/h
504 21-02-2009 04:43:04 3.7 C 5.23 g/m*3 3.7 C 0 km/h
505 21-02-2009 04:55:04 3.7 C 5.3 g/m*3 3.7 C 0 km/h
506 21-02-2009 05:07:04 3.6 C 5.26 g/m*3 3.6 C 0 km/h
507 21-02-2009 05:19:04 3.6 C 5.26 g/m*3 3.6 C 0 km/h
508 21-02-2009 05:31:04 3.7 C 5.36 g/m*3 3.7 C 0 km/h
509 21-02-2009 05:43:05 3.8 C 5.4 g/m*3 3.8 C 0 km/h
510 21-02-2009 05:55:05 3.7 C 5.36 g/m*3 3.7 C 0 km/h
511 21-02-2009 06:07:05 3.7 C 5.36 g/m*3 3.7 C 0 km/h
512 21-02-2009 06:19:05 3.7 C 5.42 g/m*3 3.7 C 0 km/h
513 21-02-2009 06:31:05 3.8 C 5.46 g/m*3 3.8 C 0 km/h
514 21-02-2009 06:43:05 3.8 C 5.46 g/m*3 3.8 C 0 km/h
515 21-02-2009 06:55:05 3.8 C 5.46 g/m*3 3.8 C 0 km/h
516 21-02-2009 07:07:05 3.8 C 5.52 g/m*3 3.8 C 0 km/h
517 21-02-2009 07:19:05 3.7 C 5.48 g/m*3 3.7 C 0 km/h
518 21-02-2009 07:31:05 3.7 C 5.48 g/m*3 3.7 C 0 km/h
519 21-02-2009 07:43:05 3.7 C 5.48 g/m*3 3.7 C 0 km/h
520 21-02-2009 07:55:05 3.6 C 5.45 g/m*3 3.6 C 0 km/h
521 21-02-2009 08:07:03 3.6 C 5.45 g/m*3 3.6 C 0 km/h
522 21-02-2009 08:19:03 3.6 C 5.45 g/m*3 3.6 C 0 km/h
523 21-02-2009 08:31:02 3.6 C 5.45 g/m*3 3.6 C 0 km/h
524 21-02-2009 08:43:02 3.8 C 5.52 g/m*3 3.8 C 0 km/h
525 21-02-2009 08:55:03 3.9 C 5.56 g/m*3 3.9 C 0 km/h
Sensor: Nr:Datum:Temp:Abs-Feuchte:Windchill:Wind:
Aussen-T/F 526 21-02-2009 09:07:02 4 C 5.59 g/m*3 4 C 0 km/h
527 21-02-2009 09:19:02 4 C 5.53 g/m*3 4 C 0 km/h
528 21-02-2009 09:31:02 4.1 C 5.57 g/m*3 4.1 C 0 km/h
529 21-02-2009 09:43:02 4.4 C 5.68 g/m*3 4.4 C 0 km/h
530 21-02-2009 09:55:02 4.4 C 5.62 g/m*3 4.4 C 0 km/h
531 21-02-2009 10:07:01 4.5 C 5.52 g/m*3 4.5 C 0 km/h
532 21-02-2009 10:19:02 4.7 C 5.46 g/m*3 4.7 C 0 km/h
533 21-02-2009 10:31:02 5.1 C 5.47 g/m*3 5.1 C 0 km/h
534 21-02-2009 10:43:02 5.3 C 5.41 g/m*3 5.3 C 0 km/h
535 21-02-2009 10:55:01 5.5 C 5.2 g/m*3 5.5 C 0 km/h
536 21-02-2009 11:07:02 5.5 C 5.13 g/m*3 5.5 C 0 km/h
537 21-02-2009 11:19:01 5.7 C 5.12 g/m*3 5.7 C 0 km/h
538 21-02-2009 11:31:01 6 C 5.01 g/m*3 6 C 0 km/h
539 21-02-2009 11:43:01 6 C 4.94 g/m*3 6 C 0 km/h
540 21-02-2009 11:55:01 6.4 C 4.92 g/m*3 6.4 C 0 km/h
541 21-02-2009 12:07:01 6.7 C 4.86 g/m*3 6.7 C 0 km/h
542 21-02-2009 12:19:00 6.2 C 4.49 g/m*3 6.2 C 0 km/h
543 21-02-2009 12:31:00 6.4 C 4.62 g/m*3 6.4 C 0 km/h
544 21-02-2009 12:43:00 6.4 C 4.62 g/m*3 6.4 C 0 km/h
545 21-02-2009 12:55:00 6.4 C 4.55 g/m*3 6.4 C 0 km/h
546 21-02-2009 13:07:00 6.5 C 4.42 g/m*3 6.5 C 0 km/h
547 21-02-2009 13:19:00 6.6 C 4.23 g/m*3 6.6 C 0 km/h
548 21-02-2009 13:31:00 6.8 C 4.28 g/m*3 6.8 C 0 km/h
549 21-02-2009 13:43:00 6.7 C 4.1 g/m*3 6.7 C 0 km/h
550 21-02-2009 13:55:59 6.5 C 4.05 g/m*3 6.5 C 0 km/h
Sensor: Nr:Datum:Temp:Abs-Feuchte:Windchill:Wind:
Aussen-T/F 551 21-02-2009 14:07:00 6.5 C 4.05 g/m*3 6.5 C 0 km/h
552 21-02-2009 14:19:00 6.5 C 4.05 g/m*3 6.5 C 0 km/h
553 21-02-2009 14:31:59 6.8 C 4.05 g/m*3 6.8 C 0 km/h
554 21-02-2009 14:43:59 6.7 C 4.03 g/m*3 6.7 C 0 km/h
555 21-02-2009 14:54:59 6.5 C 3.97 g/m*3 6.5 C 0 km/h
556 21-02-2009 15:07:59 6.5 C 3.97 g/m*3 6.5 C 0 km/h
557 21-02-2009 15:19:59 6.4 C 3.87 g/m*3 6.4 C 0 km/h
558 21-02-2009 15:31:59 6.3 C 3.78 g/m*3 6.3 C 0 km/h
559 21-02-2009 15:43:59 6.2 C 3.75 g/m*3 6.2 C 0 km/h
560 21-02-2009 15:55:59 6.2 C 3.9 g/m*3 6.2 C 0 km/h
561 21-02-2009 16:07:59 6.1 C 4.02 g/m*3 6.1 C 0 km/h
562 21-02-2009 16:19:58 6 C 4.06 g/m*3 6 C 0 km/h
563 21-02-2009 16:31:58 5.8 C 4.15 g/m*3 5.8 C 0 km/h
564 21-02-2009 16:43:58 5.8 C 4.15 g/m*3 5.8 C 0 km/h
565 21-02-2009 16:55:58 5.7 C 4.2 g/m*3 5.7 C 0 km/h
566 21-02-2009 17:07:58 5.7 C 4.2 g/m*3 5.7 C 0 km/h
567 21-02-2009 17:19:57 5.7 C 4.13 g/m*3 5.7 C 0 km/h
568 21-02-2009 17:31:58 5.6 C 4.24 g/m*3 5.6 C 0 km/h
569 21-02-2009 17:43:58 5.4 C 4.26 g/m*3 5.4 C 0 km/h
570 21-02-2009 17:55:57 5.3 C 4.23 g/m*3 5.3 C 0 km/h
571 21-02-2009 18:07:57 5.1 C 4.24 g/m*3 5.1 C 0 km/h
572 21-02-2009 18:19:58 4.9 C 4.39 g/m*3 4.9 C 0 km/h
573 21-02-2009 18:31:57 4.7 C 4.46 g/m*3 4.7 C 0 km/h
574 21-02-2009 18:43:57 4.6 C 4.43 g/m*3 4.6 C 0 km/h
575 21-02-2009 18:55:57 4.5 C 4.4 g/m*3 4.5 C 0 km/h
Sensor: Nr:Datum:Temp:Abs-Feuchte:Windchill:Wind:
Aussen-T/F 576 21-02-2009 19:07:57 4.4 C 4.44 g/m*3 4.4 C 0 km/h
577 21-02-2009 19:19:57 4.2 C 4.32 g/m*3 4.2 C 0 km/h
578 21-02-2009 19:31:56 4.1 C 4.29 g/m*3 4.1 C 0 km/h
579 21-02-2009 19:43:56 4.2 C 4.32 g/m*3 4.2 C 0 km/h
580 21-02-2009 19:55:57 4.3 C 4.35 g/m*3 4.3 C 0 km/h
581 21-02-2009 20:07:56 4.3 C 4.41 g/m*3 4.3 C 0 km/h
582 21-02-2009 20:19:56 4.3 C 4.41 g/m*3 4.3 C 0 km/h
583 21-02-2009 20:31:56 4.3 C 4.41 g/m*3 4.3 C 0 km/h
584 21-02-2009 20:43:56 4.3 C 4.41 g/m*3 4.3 C 0 km/h
585 21-02-2009 20:55:56 4.2 C 4.38 g/m*3 4.2 C 0 km/h
586 21-02-2009 21:07:55 4.2 C 4.45 g/m*3 4.2 C 0 km/h
587 21-02-2009 21:19:56 4.2 C 4.45 g/m*3 4.2 C 0 km/h
588 21-02-2009 21:31:56 4.3 C 4.48 g/m*3 4.3 C 0 km/h
589 21-02-2009 21:43:56 4.3 C 4.48 g/m*3 4.3 C 0 km/h
590 21-02-2009 21:55:55 4.3 C 4.48 g/m*3 4.3 C 0 km/h
591 21-02-2009 22:07:56 4.3 C 4.48 g/m*3 4.3 C 0 km/h
592 21-02-2009 22:19:55 4.2 C 4.45 g/m*3 4.2 C 0 km/h
593 21-02-2009 22:31:55 4.2 C 4.45 g/m*3 4.2 C 0 km/h
594 21-02-2009 22:43:56 4.2 C 4.45 g/m*3 4.2 C 0 km/h
595 21-02-2009 22:56:57 4.2 C 4.45 g/m*3 4.2 C 0 km/h
596 21-02-2009 23:08:57 4.4 C 4.37 g/m*3 4.4 C 0 km/h
597 21-02-2009 23:20:57 4.5 C 4.4 g/m*3 4.5 C 0 km/h
598 21-02-2009 23:32:57 4.6 C 4.37 g/m*3 4.6 C 0 km/h
599 21-02-2009 23:44:57 4.6 C 4.37 g/m*3 4.6 C 0 km/h
600 21-02-2009 23:56:57 4.6 C 4.37 g/m*3 4.6 C 0 km/h
Sensor: Nr:Datum:Temp:Abs-Feuchte:Windchill:Wind:
Aussen-T/F 601 22-02-2009 00:08:57 4.4 C 4.44 g/m*3 4.4 C 0 km/h
602 22-02-2009 00:20:57 4.2 C 4.45 g/m*3 4.2 C 0 km/h
603 22-02-2009 00:32:57 4 C 4.58 g/m*3 4 C 0 km/h
604 22-02-2009 00:44:57 3.7 C 4.74 g/m*3 3.7 C 0 km/h
605 22-02-2009 00:56:57 3.7 C 4.86 g/m*3 3.7 C 0 km/h
606 22-02-2009 01:08:57 3.7 C 4.86 g/m*3 3.7 C 0 km/h
607 22-02-2009 01:20:57 3.7 C 4.86 g/m*3 3.7 C 0 km/h
608 22-02-2009 01:32:57 3.8 C 4.96 g/m*3 3.8 C 0 km/h
609 22-02-2009 01:44:58 3.6 C 4.95 g/m*3 3.6 C 0 km/h
610 22-02-2009 01:56:58 3.6 C 4.95 g/m*3 3.6 C 0 km/h
611 22-02-2009 02:08:58 3.5 C 5.04 g/m*3 3.5 C 0 km/h
612 22-02-2009 02:20:58 3.4 C 5.01 g/m*3 3.4 C 0 km/h
613 22-02-2009 02:32:58 3.4 C 5.07 g/m*3 3.4 C 0 km/h
614 22-02-2009 02:44:58 3.5 C 5.16 g/m*3 3.5 C 0 km/h
615 22-02-2009 02:56:58 3.5 C 5.16 g/m*3 3.5 C 0 km/h
616 22-02-2009 03:08:58 3.5 C 5.16 g/m*3 3.5 C 0 km/h
617 22-02-2009 03:20:58 3.4 C 5.13 g/m*3 3.4 C 0 km/h
618 22-02-2009 03:32:58 3.3 C 5.16 g/m*3 3.3 C 0 km/h
619 22-02-2009 03:44:58 3.3 C 5.22 g/m*3 3.3 C 0 km/h
620 22-02-2009 03:56:58 3.3 C 5.28 g/m*3 3.3 C 0 km/h
621 22-02-2009 04:08:58 3.2 C 5.24 g/m*3 3.2 C 0 km/h
622 22-02-2009 04:20:58 3.2 C 5.3 g/m*3 3.2 C 0 km/h
623 22-02-2009 04:32:58 3.3 C 5.4 g/m*3 3.3 C 0 km/h
624 22-02-2009 04:44:58 3.3 C 5.4 g/m*3 3.3 C 0 km/h
625 22-02-2009 04:56:58 3.3 C 5.4 g/m*3 3.3 C 0 km/h
Sensor: Nr:Datum:Temp:Abs-Feuchte:Windchill:Wind:
Aussen-T/F 626 22-02-2009 05:08:58 3.3 C 5.4 g/m*3 3.3 C 0 km/h
627 22-02-2009 05:20:58 3.4 C 5.44 g/m*3 3.4 C 0 km/h
628 22-02-2009 05:32:59 3.5 C 5.53 g/m*3 3.5 C 0 km/h
629 22-02-2009 05:44:59 3.5 C 5.47 g/m*3 3.5 C 0 km/h
630 22-02-2009 05:56:59 3.6 C 5.51 g/m*3 3.6 C 0 km/h
631 22-02-2009 06:08:59 3.7 C 5.55 g/m*3 3.7 C 0 km/h
632 22-02-2009 06:20:59 3.7 C 5.55 g/m*3 3.7 C 0 km/h
633 22-02-2009 06:32:59 3.8 C 5.58 g/m*3 3.8 C 0 km/h
634 22-02-2009 06:44:59 3.8 C 5.58 g/m*3 3.8 C 0 km/h
635 22-02-2009 06:56:59 3.8 C 5.58 g/m*3 3.8 C 0 km/h
636 22-02-2009 07:08:56 3.9 C 5.56 g/m*3 3.9 C 0 km/h
637 22-02-2009 07:20:56 4 C 5.59 g/m*3 4 C 0 km/h
638 22-02-2009 07:32:56 4 C 5.59 g/m*3 4 C 0 km/h
639 22-02-2009 07:44:56 4 C 5.59 g/m*3 4 C 0 km/h
640 22-02-2009 07:56:56 4.1 C 5.63 g/m*3 4.1 C 0 km/h
641 22-02-2009 08:08:56 4.1 C 5.63 g/m*3 4.1 C 0 km/h
642 22-02-2009 08:20:55 4.2 C 5.67 g/m*3 4.2 C 0 km/h
643 22-02-2009 08:32:55 4.3 C 5.71 g/m*3 4.3 C 0 km/h
644 22-02-2009 08:44:55 4.3 C 5.64 g/m*3 4.3 C 0 km/h
645 22-02-2009 08:56:55 4.3 C 5.64 g/m*3 4.3 C 0 km/h
646 22-02-2009 09:08:55 4.5 C 5.72 g/m*3 4.5 C 0 km/h
647 22-02-2009 09:20:55 4.5 C 5.72 g/m*3 4.5 C 0 km/h
648 22-02-2009 09:32:55 4.6 C 5.76 g/m*3 4.6 C 0 km/h
649 22-02-2009 09:44:55 4.6 C 5.69 g/m*3 4.6 C 0 km/h
650 22-02-2009 09:56:55 4.6 C 5.76 g/m*3 4.6 C 0 km/h
Sensor: Nr:Datum:Temp:Abs-Feuchte:Windchill:Wind:
Aussen-T/F 651 22-02-2009 10:08:54 4.7 C 5.8 g/m*3 4.7 C 0 km/h
652 22-02-2009 10:20:55 4.8 C 5.83 g/m*3 4.8 C 0 km/h
653 22-02-2009 10:32:54 4.9 C 5.87 g/m*3 4.9 C 0 km/h
654 22-02-2009 10:44:55 5 C 5.84 g/m*3 5 C 0 km/h
655 22-02-2009 10:56:55 5.1 C 5.81 g/m*3 5.1 C 0 km/h
656 22-02-2009 11:08:54 5.2 C 5.85 g/m*3 5.2 C 0 km/h
657 22-02-2009 11:20:55 5.4 C 6 g/m*3 5.4 C 0 km/h
658 22-02-2009 11:32:54 5.4 C 6 g/m*3 5.4 C 0 km/h
659 22-02-2009 11:44:54 5.8 C 6.09 g/m*3 5.8 C 0 km/h
660 22-02-2009 11:56:54 6.1 C 6.14 g/m*3 6.1 C 0 km/h
661 22-02-2009 12:08:54 6.2 C 6.18 g/m*3 6.2 C 0 km/h
662 22-02-2009 12:20:54 6.2 C 6.18 g/m*3 6.2 C 0 km/h
663 22-02-2009 12:32:54 6.3 C 6.22 g/m*3 6.3 C 0 km/h
664 22-02-2009 12:44:54 6.5 C 6.22 g/m*3 6.5 C 0 km/h
665 22-02-2009 12:56:54 6.9 C 6.16 g/m*3 6.9 C 0 km/h
666 22-02-2009 13:08:54 7.1 C 5.93 g/m*3 7.1 C 0 km/h
667 22-02-2009 13:20:53 7.1 C 5.85 g/m*3 7.1 C 0 km/h
668 22-02-2009 13:32:53 7.2 C 5.73 g/m*3 7.2 C 0 km/h
669 22-02-2009 13:44:53 7.2 C 5.73 g/m*3 7.2 C 0 km/h
670 22-02-2009 13:56:53 7.3 C 5.69 g/m*3 7.3 C 0 km/h
671 22-02-2009 14:08:53 7.5 C 5.68 g/m*3 7.5 C 0 km/h
672 22-02-2009 14:20:52 7.6 C 5.64 g/m*3 7.6 C 0 km/h
673 22-02-2009 14:32:53 7.5 C 5.52 g/m*3 7.5 C 0 km/h
674 22-02-2009 14:44:52 7.5 C 5.6 g/m*3 7.5 C 0 km/h
675 22-02-2009 14:56:52 7.4 C 5.65 g/m*3 7.4 C 0 km/h
Sensor: Nr:Datum:Temp:Abs-Feuchte:Windchill:Wind:
Aussen-T/F 676 22-02-2009 15:08:52 7.3 C 5.77 g/m*3 7.3 C 0 km/h
677 22-02-2009 15:20:53 7.1 C 6.01 g/m*3 7.1 C 0 km/h
678 22-02-2009 15:32:52 7 C 6.28 g/m*3 7 C 0 km/h
679 22-02-2009 15:44:52 7 C 6.43 g/m*3 7 C 0 km/h
680 22-02-2009 15:56:52 6.9 C 6.54 g/m*3 6.9 C 0 km/h
681 22-02-2009 16:08:52 6.9 C 6.7 g/m*3 6.9 C 0 km/h
682 22-02-2009 16:20:52 6.8 C 6.65 g/m*3 6.8 C 0 km/h
683 22-02-2009 16:32:52 6.8 C 6.73 g/m*3 6.8 C 0 km/h
684 22-02-2009 16:44:51 6.8 C 6.73 g/m*3 6.8 C 0 km/h
685 22-02-2009 16:56:51 6.7 C 6.69 g/m*3 6.7 C 0 km/h
686 22-02-2009 17:08:51 6.7 C 6.76 g/m*3 6.7 C 0 km/h
687 22-02-2009 17:20:51 6.7 C 6.76 g/m*3 6.7 C 0 km/h
688 22-02-2009 17:32:51 6.6 C 6.64 g/m*3 6.6 C 0 km/h
689 22-02-2009 17:44:51 6.6 C 6.57 g/m*3 6.6 C 0 km/h
690 22-02-2009 17:56:51 6.6 C 6.49 g/m*3 6.6 C 0 km/h
691 22-02-2009 18:08:51 6.6 C 6.49 g/m*3 6.6 C 0 km/h
692 22-02-2009 18:20:50 6.6 C 6.42 g/m*3 6.6 C 0 km/h
693 22-02-2009 18:32:51 6.5 C 6.3 g/m*3 6.5 C 0 km/h
694 22-02-2009 18:44:50 6.6 C 6.27 g/m*3 6.6 C 0 km/h
695 22-02-2009 18:56:50 6.4 C 6.18 g/m*3 6.4 C 0 km/h
696 22-02-2009 19:08:50 6.3 C 6.22 g/m*3 6.3 C 0 km/h
697 22-02-2009 19:20:50 6.2 C 6.32 g/m*3 6.2 C 0 km/h
698 22-02-2009 19:32:50 6.1 C 6.28 g/m*3 6.1 C 0 km/h
699 22-02-2009 19:44:49 6 C 6.24 g/m*3 6 C 0 km/h
700 22-02-2009 19:56:49 5.9 C 6.2 g/m*3 5.9 C 0 km/h
Sensor: Nr:Datum:Temp:Abs-Feuchte:Windchill:Wind:
Aussen-T/F 701 22-02-2009 20:08:50 5.9 C 6.13 g/m*3 5.9 C 0 km/h
702 22-02-2009 20:20:50 5.9 C 6.06 g/m*3 5.9 C 0 km/h
703 22-02-2009 20:32:49 5.9 C 6.06 g/m*3 5.9 C 0 km/h
704 22-02-2009 20:44:50 6 C 5.95 g/m*3 6 C 0 km/h
705 22-02-2009 20:56:50 6.2 C 5.88 g/m*3 6.2 C 0 km/h
706 22-02-2009 21:08:49 6.1 C 5.77 g/m*3 6.1 C 0 km/h
707 22-02-2009 21:20:49 6 C 5.81 g/m*3 6 C 0 km/h
708 22-02-2009 21:32:49 5.9 C 5.84 g/m*3 5.9 C 0 km/h
709 22-02-2009 21:44:49 5.9 C 5.91 g/m*3 5.9 C 0 km/h
710 22-02-2009 21:56:49 5.9 C 5.91 g/m*3 5.9 C 0 km/h
711 22-02-2009 22:08:48 5.9 C 5.98 g/m*3 5.9 C 0 km/h
712 22-02-2009 22:20:49 5.9 C 5.98 g/m*3 5.9 C 0 km/h
713 22-02-2009 22:33:49 5.8 C 6.02 g/m*3 5.8 C 0 km/h
714 22-02-2009 22:45:49 5.7 C 6.05 g/m*3 5.7 C 0 km/h
715 22-02-2009 22:57:49 5.7 C 6.05 g/m*3 5.7 C 0 km/h
716 22-02-2009 23:09:49 5.6 C 6.01 g/m*3 5.6 C 0 km/h
717 22-02-2009 23:21:49 5.6 C 5.94 g/m*3 5.6 C 0 km/h
718 22-02-2009 23:33:50 5.7 C 5.84 g/m*3 5.7 C 0 km/h
719 22-02-2009 23:45:50 5.7 C 5.76 g/m*3 5.7 C 0 km/h
720 22-02-2009 23:57:50 5.8 C 5.73 g/m*3 5.8 C 0 km/h
721 23-02-2009 00:09:50 5.8 C 5.59 g/m*3 5.8 C 0 km/h
722 23-02-2009 00:21:50 5.9 C 5.48 g/m*3 5.9 C 0 km/h
723 23-02-2009 00:33:50 5.8 C 5.37 g/m*3 5.8 C 0 km/h
724 23-02-2009 00:45:50 5.8 C 5.3 g/m*3 5.8 C 0 km/h
725 23-02-2009 00:57:50 5.6 C 5.09 g/m*3 5.6 C 0 km/h
Sensor: Nr:Datum:Temp:Abs-Feuchte:Windchill:Wind:
Aussen-T/F 726 23-02-2009 01:09:50 5.2 C 4.96 g/m*3 5.2 C 0 km/h
727 23-02-2009 01:21:50 5 C 4.89 g/m*3 5 C 0 km/h
728 23-02-2009 01:33:50 5.1 C 4.79 g/m*3 5.1 C 0 km/h
729 23-02-2009 01:45:50 5.2 C 4.68 g/m*3 5.2 C 0 km/h
730 23-02-2009 01:57:50 5.2 C 4.61 g/m*3 5.2 C 0 km/h
731 23-02-2009 02:09:50 5.2 C 4.54 g/m*3 5.2 C 0 km/h
732 23-02-2009 02:21:50 5.2 C 4.48 g/m*3 5.2 C 0 km/h
733 23-02-2009 02:33:50 5.3 C 4.44 g/m*3 5.3 C 0 km/h
734 23-02-2009 02:45:50 5.3 C 4.37 g/m*3 5.3 C 0 km/h
735 23-02-2009 02:57:50 5.3 C 4.3 g/m*3 5.3 C 0 km/h
736 23-02-2009 03:09:50 5.4 C 4.26 g/m*3 5.4 C 0 km/h
737 23-02-2009 03:21:51 5.6 C 4.03 g/m*3 5.6 C 0 km/h
738 23-02-2009 03:33:51 5.4 C 3.98 g/m*3 5.4 C 0 km/h
739 23-02-2009 03:45:51 5.3 C 4.02 g/m*3 5.3 C 0 km/h
740 23-02-2009 03:57:51 5.3 C 4.02 g/m*3 5.3 C 0 km/h
741 23-02-2009 04:09:51 5.3 C 3.95 g/m*3 5.3 C 0 km/h
742 23-02-2009 04:21:51 5.2 C 3.86 g/m*3 5.2 C 0 km/h
743 23-02-2009 04:33:51 5.2 C 3.86 g/m*3 5.2 C 0 km/h
744 23-02-2009 04:45:51 5.2 C 3.92 g/m*3 5.2 C 0 km/h
745 23-02-2009 04:57:51 5.3 C 3.88 g/m*3 5.3 C 0 km/h
746 23-02-2009 05:09:51 5.4 C 4.05 g/m*3 5.4 C 0 km/h
747 23-02-2009 05:21:51 5.4 C 4.12 g/m*3 5.4 C 0 km/h
748 23-02-2009 05:33:51 5.4 C 4.12 g/m*3 5.4 C 0 km/h
749 23-02-2009 05:45:51 5.3 C 4.09 g/m*3 5.3 C 0 km/h
750 23-02-2009 05:57:51 5 C 4.21 g/m*3 5 C 0 km/h
Sensor: Nr:Datum:Temp:Abs-Feuchte:Windchill:Wind:
Aussen-T/F 751 23-02-2009 06:09:51 4.2 C 4.64 g/m*3 4.2 C 0 km/h
752 23-02-2009 06:21:51 4.2 C 4.9 g/m*3 4.2 C 0 km/h
753 23-02-2009 06:33:51 4 C 5.02 g/m*3 4 C 0 km/h
754 23-02-2009 06:45:51 3.9 C 5.18 g/m*3 3.9 C 0 km/h
755 23-02-2009 06:57:51 3.8 C 5.21 g/m*3 3.8 C 0 km/h
756 23-02-2009 07:09:52 3.9 C 5.31 g/m*3 3.9 C 0 km/h
757 23-02-2009 07:21:52 4 C 5.28 g/m*3 4 C 0 km/h
758 23-02-2009 07:33:52 4 C 5.28 g/m*3 4 C 0 km/h
759 23-02-2009 07:45:52 4.3 C 5.25 g/m*3 4.3 C 0 km/h
760 23-02-2009 07:57:52 4.7 C 5.13 g/m*3 4.7 C 0 km/h
761 23-02-2009 08:09:52 4.8 C 4.96 g/m*3 4.8 C 0 km/h
762 23-02-2009 08:21:52 4.9 C 4.93 g/m*3 4.9 C 0 km/h
763 23-02-2009 08:33:52 5 C 4.82 g/m*3 5 C 0 km/h
764 23-02-2009 08:45:52 5.1 C 4.79 g/m*3 5.1 C 0 km/h
765 23-02-2009 08:57:52 5.2 C 4.75 g/m*3 5.2 C 0 km/h
766 23-02-2009 09:09:52 5 C 4.89 g/m*3 5 C 0 km/h
767 23-02-2009 09:21:52 4.9 C 5.06 g/m*3 4.9 C 0 km/h
768 23-02-2009 09:33:49 5 C 5.03 g/m*3 5 C 0 km/h
769 23-02-2009 09:45:48 5.2 C 4.89 g/m*3 5.2 C 0 km/h
770 23-02-2009 09:57:48 5.2 C 4.89 g/m*3 5.2 C 0 km/h
771 23-02-2009 10:09:49 5.3 C 4.85 g/m*3 5.3 C 0 km/h
772 23-02-2009 10:21:49 5.6 C 4.81 g/m*3 5.6 C 0 km/h
773 23-02-2009 10:33:48 5.8 C 4.87 g/m*3 5.8 C 0 km/h
774 23-02-2009 10:45:48 6 C 4.79 g/m*3 6 C 0 km/h
775 23-02-2009 10:57:48 6.3 C 4.81 g/m*3 6.3 C 0 km/h
Sensor: Nr:Datum:Temp:Abs-Feuchte:Windchill:Wind:
Aussen-T/F 776 23-02-2009 11:09:48 6.7 C 4.79 g/m*3 6.7 C 0 km/h
777 23-02-2009 11:21:48 6.6 C 4.68 g/m*3 6.6 C 0 km/h
778 23-02-2009 11:33:48 6.6 C 4.68 g/m*3 6.6 C 0 km/h
779 23-02-2009 11:45:47 6.6 C 4.68 g/m*3 6.6 C 0 km/h
780 23-02-2009 11:57:47 6.7 C 4.64 g/m*3 6.7 C 0 km/h
781 23-02-2009 12:09:48 6.7 C 4.71 g/m*3 6.7 C 0 km/h
782 23-02-2009 12:21:47 6.8 C 4.67 g/m*3 6.8 C 0 km/h
783 23-02-2009 12:33:47 6.9 C 4.62 g/m*3 6.9 C 0 km/h
784 23-02-2009 12:45:47 7 C 4.57 g/m*3 7 C 0 km/h
785 23-02-2009 12:57:47 7.3 C 4.58 g/m*3 7.3 C 0 km/h
786 23-02-2009 13:09:47 7.3 C 4.66 g/m*3 7.3 C 0 km/h
787 23-02-2009 13:21:47 6.4 C 4.92 g/m*3 6.4 C 0 km/h
788 23-02-2009 13:33:47 5.9 C 5.34 g/m*3 5.9 C 0 km/h
789 23-02-2009 13:45:47 5.9 C 5.41 g/m*3 5.9 C 0 km/h
790 23-02-2009 13:57:47 6.1 C 5.48 g/m*3 6.1 C 0 km/h
791 23-02-2009 14:09:46 6.2 C 5.37 g/m*3 6.2 C 0 km/h
792 23-02-2009 14:21:47 6.4 C 5.44 g/m*3 6.4 C 0 km/h
793 23-02-2009 14:33:46 6.3 C 5.18 g/m*3 6.3 C 0 km/h
794 23-02-2009 14:45:46 5.9 C 5.26 g/m*3 5.9 C 0 km/h
795 23-02-2009 14:57:46 5.7 C 5.48 g/m*3 5.7 C 0 km/h
796 23-02-2009 15:09:46 5.8 C 5.59 g/m*3 5.8 C 0 km/h
797 23-02-2009 15:21:46 6 C 5.59 g/m*3 6 C 0 km/h
798 23-02-2009 15:33:46 6.5 C 5.47 g/m*3 6.5 C 0 km/h
799 23-02-2009 15:45:45 6.9 C 5.47 g/m*3 6.9 C 0 km/h
800 23-02-2009 15:57:45 6.8 C 4.89 g/m*3 6.8 C 0 km/h
Sensor: Nr:Datum:Temp:Abs-Feuchte:Windchill:Wind:
Aussen-T/F 801 23-02-2009 16:09:46 6.3 C 4.96 g/m*3 6.3 C 0 km/h
802 23-02-2009 16:21:45 6 C 5.08 g/m*3 6 C 0 km/h
803 23-02-2009 16:33:45 5.8 C 5.16 g/m*3 5.8 C 0 km/h
804 23-02-2009 16:45:45 5.9 C 5.19 g/m*3 5.9 C 0 km/h
805 23-02-2009 16:57:45 5.9 C 5.05 g/m*3 5.9 C 0 km/h
806 23-02-2009 17:09:45 5.9 C 5.05 g/m*3 5.9 C 0 km/h
807 23-02-2009 17:21:44 5.7 C 5.05 g/m*3 5.7 C 0 km/h
808 23-02-2009 17:33:45 5.7 C 4.98 g/m*3 5.7 C 0 km/h
809 23-02-2009 17:45:44 5.7 C 4.91 g/m*3 5.7 C 0 km/h
810 23-02-2009 17:57:44 5.7 C 4.91 g/m*3 5.7 C 0 km/h
811 23-02-2009 18:09:03 5.7 C 4.84 g/m*3 5.7 C 0 km/h
812 23-02-2009 18:21:02 5.6 C 4.88 g/m*3 5.6 C 0 km/h
813 23-02-2009 18:33:02 5.4 C 4.81 g/m*3 5.4 C 0 km/h
814 23-02-2009 18:45:02 5.3 C 4.85 g/m*3 5.3 C 0 km/h
815 23-02-2009 18:57:02 5.3 C 4.85 g/m*3 5.3 C 0 km/h
816 23-02-2009 19:09:02 5.4 C 4.88 g/m*3 5.4 C 0 km/h
817 23-02-2009 19:21:01 5.4 C 4.88 g/m*3 5.4 C 0 km/h
818 23-02-2009 19:33:02 5.4 C 4.6 g/m*3 5.4 C 0 km/h
819 23-02-2009 19:45:01 5.6 C 4.45 g/m*3 5.6 C 0 km/h
820 23-02-2009 19:57:01 5.6 C 4.31 g/m*3 5.6 C 0 km/h
821 23-02-2009 20:09:01 5.6 C 4.31 g/m*3 5.6 C 0 km/h
822 23-02-2009 20:21:01 5.6 C 4.17 g/m*3 5.6 C 0 km/h
823 23-02-2009 20:33:01 5.6 C 4.1 g/m*3 5.6 C 0 km/h
824 23-02-2009 20:45:00 5.6 C 4.1 g/m*3 5.6 C 0 km/h
825 23-02-2009 20:57:00 5.6 C 4.03 g/m*3 5.6 C 0 km/h
Sensor: Nr:Datum:Temp:Abs-Feuchte:Windchill:Wind:
Aussen-T/F 826 23-02-2009 21:09:01 5.6 C 4.03 g/m*3 5.6 C 0 km/h
827 23-02-2009 21:21:00 5.7 C 3.99 g/m*3 5.7 C 0 km/h
828 23-02-2009 21:34:01 5.5 C 4 g/m*3 5.5 C 0 km/h
829 23-02-2009 21:46:01 5.6 C 4.03 g/m*3 5.6 C 0 km/h
830 23-02-2009 21:58:01 5.5 C 4 g/m*3 5.5 C 0 km/h
831 23-02-2009 22:10:01 5.3 C 4.09 g/m*3 5.3 C 0 km/h
832 23-02-2009 22:22:01 5.1 C 4.17 g/m*3 5.1 C 0 km/h
833 23-02-2009 22:34:01 5 C 4.28 g/m*3 5 C 0 km/h
834 23-02-2009 22:46:01 4.9 C 4.39 g/m*3 4.9 C 0 km/h
835 23-02-2009 22:58:01 4.6 C 4.5 g/m*3 4.6 C 0 km/h
836 23-02-2009 23:10:01 4.6 C 4.57 g/m*3 4.6 C 0 km/h
837 23-02-2009 23:22:01 4.6 C 4.57 g/m*3 4.6 C 0 km/h
838 23-02-2009 23:34:01 4.6 C 4.57 g/m*3 4.6 C 0 km/h
839 23-02-2009 23:46:01 4.6 C 4.5 g/m*3 4.6 C 0 km/h
840 23-02-2009 23:58:01 4.7 C 4.53 g/m*3 4.7 C 0 km/h
841 24-02-2009 00:10:01 4.7 C 4.53 g/m*3 4.7 C 0 km/h
842 24-02-2009 00:22:01 4.7 C 4.46 g/m*3 4.7 C 0 km/h
843 24-02-2009 00:34:01 4.7 C 4.53 g/m*3 4.7 C 0 km/h
844 24-02-2009 00:46:01 4.7 C 4.46 g/m*3 4.7 C 0 km/h
845 24-02-2009 00:58:01 4.7 C 4.46 g/m*3 4.7 C 0 km/h
846 24-02-2009 01:10:02 4.6 C 4.43 g/m*3 4.6 C 0 km/h
847 24-02-2009 01:22:02 4.6 C 4.43 g/m*3 4.6 C 0 km/h
848 24-02-2009 01:34:02 4.5 C 4.47 g/m*3 4.5 C 0 km/h
849 24-02-2009 01:46:02 4.5 C 4.47 g/m*3 4.5 C 0 km/h
850 24-02-2009 01:58:02 4.5 C 4.47 g/m*3 4.5 C 0 km/h
Sensor: Nr:Datum:Temp:Abs-Feuchte:Windchill:Wind:
Aussen-T/F 851 24-02-2009 02:10:02 4.4 C 4.51 g/m*3 4.4 C 0 km/h
852 24-02-2009 02:22:02 4.3 C 4.61 g/m*3 4.3 C 0 km/h
853 24-02-2009 02:34:02 4.2 C 4.64 g/m*3 4.2 C 0 km/h
854 24-02-2009 02:46:02 4.3 C 4.67 g/m*3 4.3 C 0 km/h
855 24-02-2009 02:58:02 4.3 C 4.61 g/m*3 4.3 C 0 km/h
856 24-02-2009 03:10:02 4.2 C 4.57 g/m*3 4.2 C 0 km/h
857 24-02-2009 03:22:02 4.2 C 4.57 g/m*3 4.2 C 0 km/h
858 24-02-2009 03:34:02 4.2 C 4.57 g/m*3 4.2 C 0 km/h
859 24-02-2009 03:46:02 4.1 C 4.54 g/m*3 4.1 C 0 km/h
860 24-02-2009 03:58:02 4.1 C 4.54 g/m*3 4.1 C 0 km/h
861 24-02-2009 04:10:02 4.2 C 4.51 g/m*3 4.2 C 0 km/h
862 24-02-2009 04:22:02 4.1 C 4.48 g/m*3 4.1 C 0 km/h
863 24-02-2009 04:34:02 4.1 C 4.42 g/m*3 4.1 C 0 km/h
864 24-02-2009 04:46:02 4.1 C 4.42 g/m*3 4.1 C 0 km/h
865 24-02-2009 04:58:02 4.1 C 4.35 g/m*3 4.1 C 0 km/h
866 24-02-2009 05:10:03 4.1 C 4.35 g/m*3 4.1 C 0 km/h
867 24-02-2009 05:22:03 4.1 C 4.35 g/m*3 4.1 C 0 km/h
868 24-02-2009 05:34:03 4 C 4.32 g/m*3 4 C 0 km/h
869 24-02-2009 05:46:03 4 C 4.32 g/m*3 4 C 0 km/h
870 24-02-2009 05:58:03 4.1 C 4.35 g/m*3 4.1 C 0 km/h
871 24-02-2009 06:10:03 4.1 C 4.35 g/m*3 4.1 C 0 km/h
872 24-02-2009 06:22:03 4.1 C 4.35 g/m*3 4.1 C 0 km/h
873 24-02-2009 06:34:03 4 C 4.32 g/m*3 4 C 0 km/h
874 24-02-2009 06:46:03 4.1 C 4.29 g/m*3 4.1 C 0 km/h
875 24-02-2009 06:58:03 4 C 4.32 g/m*3 4 C 0 km/h
Sensor: Nr:Datum:Temp:Abs-Feuchte:Windchill:Wind:
Aussen-T/F 876 24-02-2009 07:10:01 4 C 4.32 g/m*3 4 C 0 km/h
877 24-02-2009 07:22:01 4 C 4.32 g/m*3 4 C 0 km/h
878 24-02-2009 07:34:01 4 C 4.32 g/m*3 4 C 0 km/h
879 24-02-2009 07:46:01 4 C 4.32 g/m*3 4 C 0 km/h
880 24-02-2009 07:58:01 4 C 4.26 g/m*3 4 C 0 km/h
881 24-02-2009 08:10:00 4.1 C 4.29 g/m*3 4.1 C 0 km/h
882 24-02-2009 08:22:01 4.1 C 4.29 g/m*3 4.1 C 0 km/h
883 24-02-2009 08:34:00 4.1 C 4.29 g/m*3 4.1 C 0 km/h
884 24-02-2009 08:46:00 4.2 C 4.32 g/m*3 4.2 C 0 km/h
885 24-02-2009 08:58:01 4.2 C 4.32 g/m*3 4.2 C 0 km/h
886 24-02-2009 09:09:59 4.3 C 4.35 g/m*3 4.3 C 0 km/h
887 24-02-2009 09:22:00 4.4 C 4.31 g/m*3 4.4 C 0 km/h
888 24-02-2009 09:34:59 4.6 C 4.3 g/m*3 4.6 C 0 km/h
889 24-02-2009 09:46:00 4.8 C 4.36 g/m*3 4.8 C 0 km/h
890 24-02-2009 09:58:00 4.7 C 4.26 g/m*3 4.7 C 0 km/h
891 24-02-2009 10:10:59 4.9 C 4.25 g/m*3 4.9 C 0 km/h
892 24-02-2009 10:22:59 5 C 4.21 g/m*3 5 C 0 km/h
893 24-02-2009 10:34:59 5.1 C 4.24 g/m*3 5.1 C 0 km/h
894 24-02-2009 10:46:59 5.3 C 4.3 g/m*3 5.3 C 0 km/h
895 24-02-2009 10:59:00 5.1 C 4.24 g/m*3 5.1 C 0 km/h
896 24-02-2009 11:10:58 5.1 C 4.24 g/m*3 5.1 C 0 km/h
897 24-02-2009 11:22:59 5.4 C 4.4 g/m*3 5.4 C 0 km/h
898 24-02-2009 11:34:59 5.4 C 4.26 g/m*3 5.4 C 0 km/h
899 24-02-2009 11:46:58 5.7 C 4.34 g/m*3 5.7 C 0 km/h
900 24-02-2009 11:58:58 5.9 C 3.97 g/m*3 5.9 C 0 km/h
Sensor: Nr:Datum:Temp:Abs-Feuchte:Windchill:Wind:
Aussen-T/F 901 24-02-2009 12:10:59 6.1 C 3.8 g/m*3 6.1 C 0 km/h
902 24-02-2009 12:22:58 6 C 3.7 g/m*3 6 C 0 km/h
903 24-02-2009 12:34:58 6.1 C 3.8 g/m*3 6.1 C 0 km/h
904 24-02-2009 12:46:58 6.3 C 4 g/m*3 6.3 C 0 km/h
905 24-02-2009 12:58:58 6 C 3.85 g/m*3 6 C 0 km/h
906 24-02-2009 13:10:58 6.2 C 3.82 g/m*3 6.2 C 0 km/h
907 24-02-2009 13:22:57 6.3 C 3.78 g/m*3 6.3 C 0 km/h
908 24-02-2009 13:34:57 6.4 C 3.8 g/m*3 6.4 C 0 km/h
909 24-02-2009 13:46:57 6.7 C 3.8 g/m*3 6.7 C 0 km/h
910 24-02-2009 13:58:57 6.8 C 3.67 g/m*3 6.8 C 0 km/h
911 24-02-2009 14:10:57 6.9 C 3.54 g/m*3 6.9 C 0 km/h
912 24-02-2009 14:22:57 6.4 C 3.65 g/m*3 6.4 C 0 km/h
913 24-02-2009 14:34:57 6.7 C 3.72 g/m*3 6.7 C 0 km/h
914 24-02-2009 14:46:56 6.9 C 3.77 g/m*3 6.9 C 0 km/h
915 24-02-2009 14:58:56 7.1 C 3.59 g/m*3 7.1 C 0 km/h
916 24-02-2009 15:10:56 7 C 3.41 g/m*3 7 C 0 km/h
917 24-02-2009 15:22:57 6.9 C 3.39 g/m*3 6.9 C 0 km/h
918 24-02-2009 15:34:56 6.9 C 3.31 g/m*3 6.9 C 0 km/h
919 24-02-2009 15:46:56 7.5 C 3.44 g/m*3 7.5 C 0 km/h
920 24-02-2009 15:58:56 7.6 C 3.3 g/m*3 7.6 C 0 km/h
921 24-02-2009 16:10:56 8.1 C 3.25 g/m*3 8.1 C 0 km/h
922 24-02-2009 16:22:56 8.1 C 3 g/m*3 8.1 C 0 km/h
923 24-02-2009 16:34:55 7.9 C 3.04 g/m*3 7.9 C 0 km/h
924 24-02-2009 16:46:56 8.4 C 3.05 g/m*3 8.4 C 0 km/h
925 24-02-2009 16:58:57 7.8 C 3.1 g/m*3 7.8 C 0 km/h
Sensor: Nr:Datum:Temp:Abs-Feuchte:Windchill:Wind:
Aussen-T/F 926 24-02-2009 17:10:55 7.2 C 3.14 g/m*3 7.2 C 0 km/h
927 24-02-2009 17:22:55 6.6 C 3.17 g/m*3 6.6 C 0 km/h
928 24-02-2009 17:34:55 6.5 C 3.15 g/m*3 6.5 C 0 km/h
929 24-02-2009 17:46:55 6.5 C 3.37 g/m*3 6.5 C 0 km/h
930 24-02-2009 17:58:55 6.3 C 3.41 g/m*3 6.3 C 0 km/h
931 24-02-2009 18:10:55 6.2 C 3.24 g/m*3 6.2 C 0 km/h
932 24-02-2009 18:22:54 6.1 C 3.29 g/m*3 6.1 C 0 km/h
933 24-02-2009 18:34:55 5.9 C 3.53 g/m*3 5.9 C 0 km/h
934 24-02-2009 18:46:54 5.8 C 3.58 g/m*3 5.8 C 0 km/h
935 24-02-2009 18:58:54 5.6 C 3.68 g/m*3 5.6 C 0 km/h
936 24-02-2009 19:10:54 5.4 C 3.77 g/m*3 5.4 C 0 km/h
937 24-02-2009 19:22:54 5 C 3.67 g/m*3 5 C 0 km/h
938 24-02-2009 19:34:54 4.4 C 3.72 g/m*3 4.4 C 0 km/h
939 24-02-2009 19:46:53 3.9 C 3.6 g/m*3 3.9 C 0 km/h
940 24-02-2009 19:58:53 3.5 C 3.63 g/m*3 3.5 C 0 km/h
941 24-02-2009 20:10:54 3.4 C 3.6 g/m*3 3.4 C 0 km/h
942 24-02-2009 20:22:54 3.4 C 3.73 g/m*3 3.4 C 0 km/h
943 24-02-2009 20:34:53 3.5 C 3.94 g/m*3 3.5 C 0 km/h
944 24-02-2009 20:46:54 3.4 C 4.09 g/m*3 3.4 C 0 km/h
945 24-02-2009 20:58:54 3.3 C 4.13 g/m*3 3.3 C 0 km/h
946 24-02-2009 21:10:53 3.1 C 4.13 g/m*3 3.1 C 0 km/h
947 24-02-2009 21:22:53 2.8 C 4.16 g/m*3 2.8 C 0 km/h
948 24-02-2009 21:34:52 2.7 C 4.2 g/m*3 2.7 C 0 km/h
949 24-02-2009 21:46:53 2.8 C 4.28 g/m*3 2.8 C 0 km/h
950 24-02-2009 21:58:53 2.7 C 4.2 g/m*3 2.7 C 0 km/h
Sensor: Nr:Datum:Temp:Abs-Feuchte:Windchill:Wind:
Aussen-T/F 951 24-02-2009 22:10:52 3 C 4.34 g/m*3 3 C 0 km/h
952 24-02-2009 22:22:52 2.8 C 4.22 g/m*3 2.8 C 0 km/h
953 24-02-2009 22:34:53 2.6 C 4.22 g/m*3 2.6 C 0 km/h
954 24-02-2009 22:46:53 2.6 C 4.22 g/m*3 2.6 C 0 km/h
955 24-02-2009 22:58:53 2.6 C 4.28 g/m*3 2.6 C 0 km/h
956 24-02-2009 23:10:53 2.6 C 4.22 g/m*3 2.6 C 0 km/h
957 24-02-2009 23:22:53 2.4 C 4.23 g/m*3 2.4 C 0 km/h
958 24-02-2009 23:34:53 2.3 C 4.2 g/m*3 2.3 C 0 km/h
959 24-02-2009 23:46:53 2 C 4.17 g/m*3 2 C 0 km/h
960 24-02-2009 23:58:53 1.8 C 4.17 g/m*3 1.8 C 0 km/h
961 25-02-2009 00:10:53 1.7 C 4.19 g/m*3 1.7 C 0 km/h
962 25-02-2009 00:22:52 1.7 C 4.19 g/m*3 1.7 C 0 km/h
963 25-02-2009 00:34:52 1.5 C 4.19 g/m*3 1.5 C 0 km/h
964 25-02-2009 00:46:51 1.3 C 4.19 g/m*3 1.3 C 0 km/h
965 25-02-2009 00:58:51 1.1 C 4.13 g/m*3 1.1 C 0 km/h
966 25-02-2009 01:10:52 1.1 C 4.18 g/m*3 1.1 C 0 km/h
967 25-02-2009 01:22:52 0.9 C 4.18 g/m*3 0.9 C 0 km/h
968 25-02-2009 01:34:51 0.7 C 4.17 g/m*3 0.7 C 0 km/h
969 25-02-2009 01:46:51 0.7 C 4.17 g/m*3 0.7 C 0 km/h
970 25-02-2009 01:58:51 0.6 C 4.19 g/m*3 0.6 C 0 km/h
971 25-02-2009 02:10:51 0.5 C 4.16 g/m*3 0.5 C 0 km/h
972 25-02-2009 02:22:51 0.2 C 4.08 g/m*3 0.2 C 0 km/h
973 25-02-2009 02:34:50 0 C 4.02 g/m*3 0 C 0 km/h
974 25-02-2009 02:47:53 -0.3 C 3.94 g/m*3 -0.3 C 0 km/h
975 25-02-2009 02:59:53 -0.3 C 3.94 g/m*3 -0.3 C 0 km/h
Sensor: Nr:Datum:Temp:Abs-Feuchte:Windchill:Wind:
Aussen-T/F 976 25-02-2009 03:11:52 -0.4 C 3.96 g/m*3 -0.4 C 0 km/h
977 25-02-2009 03:23:52 -0.5 C 3.93 g/m*3 -0.5 C 0 km/h
978 25-02-2009 03:35:52 -0.4 C 3.96 g/m*3 -0.4 C 0 km/h
979 25-02-2009 03:47:52 -0.7 C 3.88 g/m*3 -0.7 C 0 km/h
980 25-02-2009 03:59:52 -0.7 C 3.88 g/m*3 -0.7 C 0 km/h
981 25-02-2009 04:11:52 -0.8 C 3.85 g/m*3 -0.8 C 0 km/h
982 25-02-2009 04:23:52 -0.8 C 3.85 g/m*3 -0.8 C 0 km/h
983 25-02-2009 04:35:51 -0.8 C 3.9 g/m*3 -0.8 C 0 km/h
984 25-02-2009 04:47:51 -0.9 C 3.91 g/m*3 -0.9 C 0 km/h
985 25-02-2009 04:59:51 -0.7 C 4.02 g/m*3 -0.7 C 0 km/h
986 25-02-2009 05:11:51 -0.7 C 4.02 g/m*3 -0.7 C 0 km/h
987 25-02-2009 05:23:52 -0.6 C 4.09 g/m*3 -0.6 C 0 km/h
988 25-02-2009 05:35:51 -0.7 C 4.11 g/m*3 -0.7 C 0 km/h
989 25-02-2009 05:47:51 -0.6 C 4.14 g/m*3 -0.6 C 0 km/h
990 25-02-2009 05:59:51 -0.6 C 4.14 g/m*3 -0.6 C 0 km/h
991 25-02-2009 06:11:51 -0.7 C 4.11 g/m*3 -0.7 C 0 km/h
992 25-02-2009 06:23:50 -0.9 C 4.05 g/m*3 -0.9 C 0 km/h
993 25-02-2009 06:35:51 -0.8 C 4.13 g/m*3 -0.8 C 0 km/h
994 25-02-2009 06:47:50 -0.9 C 4.1 g/m*3 -0.9 C 0 km/h
995 25-02-2009 06:59:50 -0.8 C 4.13 g/m*3 -0.8 C 0 km/h
996 25-02-2009 07:11:50 -0.7 C 4.15 g/m*3 -0.7 C 0 km/h
997 25-02-2009 07:23:50 -0.7 C 4.15 g/m*3 -0.7 C 0 km/h
998 25-02-2009 07:35:50 -0.6 C 4.18 g/m*3 -0.6 C 0 km/h
999 25-02-2009 07:47:49 -0.7 C 4.15 g/m*3 -0.7 C 0 km/h
1000 25-02-2009 07:59:49 -0.8 C 4.13 g/m*3 -0.8 C 0 km/h
Sensor: Nr:Datum:Temp:Abs-Feuchte:Windchill:Wind:
Aussen-T/F 1001 25-02-2009 08:11:50 -0.8 C 4.13 g/m*3 -0.8 C 0 km/h
1002 25-02-2009 08:23:50 -0.9 C 4.05 g/m*3 -0.9 C 0 km/h
1003 25-02-2009 08:35:49 -0.9 C 4.05 g/m*3 -0.9 C 0 km/h
1004 25-02-2009 08:47:49 -0.8 C 4.08 g/m*3 -0.8 C 0 km/h
1005 25-02-2009 08:59:49 -0.3 C 4.22 g/m*3 -0.3 C 0 km/h
1006 25-02-2009 09:11:49 -0.1 C 4.28 g/m*3 -0.1 C 0 km/h
1007 25-02-2009 09:23:49 -0.2 C 4.21 g/m*3 -0.2 C 0 km/h
1008 25-02-2009 09:35:48 -0.2 C 4.16 g/m*3 -0.2 C 0 km/h
1009 25-02-2009 09:47:49 -0.2 C 4.16 g/m*3 -0.2 C 0 km/h
1010 25-02-2009 09:59:49 -0.1 C 4.19 g/m*3 -0.1 C 0 km/h
1011 25-02-2009 10:11:48 0.1 C 4.24 g/m*3 0.1 C 0 km/h
1012 25-02-2009 10:23:48 0.3 C 4.3 g/m*3 0.3 C 0 km/h
1013 25-02-2009 10:35:49 1 C 4.46 g/m*3 1 C 0 km/h
1014 25-02-2009 10:47:48 1.1 C 4.34 g/m*3 1.1 C 0 km/h
1015 25-02-2009 10:59:48 1.4 C 4.37 g/m*3 1.4 C 0 km/h
1016 25-02-2009 11:11:48 2 C 4.45 g/m*3 2 C 0 km/h
1017 25-02-2009 11:23:48 1.7 C 4.25 g/m*3 1.7 C 0 km/h
1018 25-02-2009 11:35:48 2.3 C 4.37 g/m*3 2.3 C 0 km/h
1019 25-02-2009 11:47:47 3.2 C 4.46 g/m*3 3.2 C 0 km/h
1020 25-02-2009 11:59:47 3.5 C 4.49 g/m*3 3.5 C 0 km/h
1021 25-02-2009 12:11:48 3.9 C 4.55 g/m*3 3.9 C 0 km/h
1022 25-02-2009 12:23:47 4.8 C 4.69 g/m*3 4.8 C 0 km/h
1023 25-02-2009 12:35:47 5.8 C 4.51 g/m*3 5.8 C 0 km/h
1024 25-02-2009 12:47:47 6.4 C 3.95 g/m*3 6.4 C 0 km/h
1025 25-02-2009 12:59:47 6.9 C 3.46 g/m*3 6.9 C 0 km/h
Sensor: Nr:Datum:Temp:Abs-Feuchte:Windchill:Wind:
Aussen-T/F 1026 25-02-2009 13:11:47 7.4 C 3.18 g/m*3 7.4 C 0 km/h
1027 25-02-2009 13:23:46 7.5 C 3.2 g/m*3 7.5 C 0 km/h
1028 25-02-2009 13:35:46 7.6 C 3.22 g/m*3 7.6 C 0 km/h
1029 25-02-2009 13:47:47 7.8 C 3.1 g/m*3 7.8 C 0 km/h
1030 25-02-2009 13:59:47 7.9 C 3.12 g/m*3 7.9 C 0 km/h
1031 25-02-2009 14:11:46 8 C 3.14 g/m*3 8 C 0 km/h
1032 25-02-2009 14:23:46 8.1 C 3.16 g/m*3 8.1 C 0 km/h
1033 25-02-2009 14:35:46 8.4 C 3.14 g/m*3 8.4 C 0 km/h
1034 25-02-2009 14:47:46 8.7 C 3.11 g/m*3 8.7 C 0 km/h
1035 25-02-2009 14:59:46 8.6 C 3.01 g/m*3 8.6 C 0 km/h
1036 25-02-2009 15:11:45 8.6 C 3.09 g/m*3 8.6 C 0 km/h
1037 25-02-2009 15:23:46 8.7 C 3.11 g/m*3 8.7 C 0 km/h
1038 25-02-2009 15:35:46 8.9 C 3.07 g/m*3 8.9 C 0 km/h
1039 25-02-2009 15:47:45 8.6 C 3.09 g/m*3 8.6 C 0 km/h
1040 25-02-2009 15:59:45 8.4 C 3.14 g/m*3 8.4 C 0 km/h
1041 25-02-2009 16:11:46 8.5 C 3.24 g/m*3 8.5 C 0 km/h
1042 25-02-2009 16:23:45 8.6 C 3.35 g/m*3 8.6 C 0 km/h
1043 25-02-2009 16:35:45 8.6 C 3.27 g/m*3 8.6 C 0 km/h
1044 25-02-2009 16:47:44 8.4 C 3.39 g/m*3 8.4 C 0 km/h
1045 25-02-2009 16:59:44 8.1 C 3.33 g/m*3 8.1 C 0 km/h
1046 25-02-2009 17:11:45 7.8 C 3.43 g/m*3 7.8 C 0 km/h
1047 25-02-2009 17:23:44 7.5 C 3.6 g/m*3 7.5 C 0 km/h
1048 25-02-2009 17:35:44 7.2 C 3.53 g/m*3 7.2 C 0 km/h
1049 25-02-2009 17:47:44 6.9 C 3.62 g/m*3 6.9 C 0 km/h
1050 25-02-2009 17:59:44 6.6 C 3.55 g/m*3 6.6 C 0 km/h
Sensor: Nr:Datum:Temp:Abs-Feuchte:Windchill:Wind:
Aussen-T/F 1051 25-02-2009 18:11:44 6.4 C 3.5 g/m*3 6.4 C 0 km/h
1052 25-02-2009 18:23:44 6.2 C 3.6 g/m*3 6.2 C 0 km/h
1053 25-02-2009 18:35:43 6.2 C 3.68 g/m*3 6.2 C 0 km/h
1054 25-02-2009 18:47:44 6 C 3.63 g/m*3 6 C 0 km/h
1055 25-02-2009 18:59:44 5.8 C 3.65 g/m*3 5.8 C 0 km/h
1056 25-02-2009 19:11:43 5.6 C 3.61 g/m*3 5.6 C 0 km/h
1057 25-02-2009 19:23:43 5.4 C 3.56 g/m*3 5.4 C 0 km/h
1058 25-02-2009 19:35:43 5.4 C 3.56 g/m*3 5.4 C 0 km/h
1059 25-02-2009 19:47:43 5.4 C 3.56 g/m*3 5.4 C 0 km/h
1060 25-02-2009 19:59:43 5.3 C 3.53 g/m*3 5.3 C 0 km/h
1061 25-02-2009 20:11:42 5.1 C 3.56 g/m*3 5.1 C 0 km/h
1062 25-02-2009 20:23:43 5 C 3.53 g/m*3 5 C 0 km/h
1063 25-02-2009 20:35:43 5.2 C 3.58 g/m*3 5.2 C 0 km/h
1064 25-02-2009 20:47:42 5.3 C 3.53 g/m*3 5.3 C 0 km/h
1065 25-02-2009 20:59:42 5.3 C 3.6 g/m*3 5.3 C 0 km/h
1066 25-02-2009 21:11:42 5.5 C 3.51 g/m*3 5.5 C 0 km/h
1067 25-02-2009 21:23:42 5.6 C 3.53 g/m*3 5.6 C 0 km/h
1068 25-02-2009 21:35:42 5.5 C 3.51 g/m*3 5.5 C 0 km/h
1069 25-02-2009 21:47:42 5.5 C 3.51 g/m*3 5.5 C 0 km/h
1070 25-02-2009 21:59:42 5.6 C 3.53 g/m*3 5.6 C 0 km/h
1071 25-02-2009 22:11:41 5.7 C 3.49 g/m*3 5.7 C 0 km/h
1072 25-02-2009 22:23:42 5.7 C 3.49 g/m*3 5.7 C 0 km/h
1073 25-02-2009 22:36:43 5.7 C 3.49 g/m*3 5.7 C 0 km/h
1074 25-02-2009 22:48:43 5.7 C 3.49 g/m*3 5.7 C 0 km/h
1075 25-02-2009 23:00:43 5.7 C 3.49 g/m*3 5.7 C 0 km/h
Sensor: Nr:Datum:Temp:Abs-Feuchte:Windchill:Wind:
Aussen-T/F 1076 25-02-2009 23:12:43 5.7 C 3.49 g/m*3 5.7 C 0 km/h
1077 25-02-2009 23:24:43 5.8 C 3.51 g/m*3 5.8 C 0 km/h
1078 25-02-2009 23:36:43 5.7 C 3.49 g/m*3 5.7 C 0 km/h
1079 25-02-2009 23:48:43 5.6 C 3.53 g/m*3 5.6 C 0 km/h
1080 26-02-2009 00:00:43 5.6 C 3.53 g/m*3 5.6 C 0 km/h
1081 26-02-2009 00:12:43 5.5 C 3.58 g/m*3 5.5 C 0 km/h
1082 26-02-2009 00:24:43 5.6 C 3.61 g/m*3 5.6 C 0 km/h
1083 26-02-2009 00:36:43 5.6 C 3.68 g/m*3 5.6 C 0 km/h
1084 26-02-2009 00:48:43 5.6 C 3.68 g/m*3 5.6 C 0 km/h
1085 26-02-2009 01:00:43 5.6 C 3.68 g/m*3 5.6 C 0 km/h
1086 26-02-2009 01:12:43 5.4 C 3.7 g/m*3 5.4 C 0 km/h
1087 26-02-2009 01:24:43 5.3 C 3.67 g/m*3 5.3 C 0 km/h
1088 26-02-2009 01:36:43 5.3 C 3.67 g/m*3 5.3 C 0 km/h
1089 26-02-2009 01:48:44 5.2 C 3.72 g/m*3 5.2 C 0 km/h
1090 26-02-2009 02:00:44 5.2 C 3.79 g/m*3 5.2 C 0 km/h
1091 26-02-2009 02:12:44 5.2 C 3.79 g/m*3 5.2 C 0 km/h
1092 26-02-2009 02:24:44 5.2 C 3.86 g/m*3 5.2 C 0 km/h
1093 26-02-2009 02:36:44 5.2 C 3.86 g/m*3 5.2 C 0 km/h
1094 26-02-2009 02:48:44 5.1 C 3.83 g/m*3 5.1 C 0 km/h
1095 26-02-2009 03:00:44 5.1 C 3.9 g/m*3 5.1 C 0 km/h
1096 26-02-2009 03:12:44 5 C 3.87 g/m*3 5 C 0 km/h
1097 26-02-2009 03:24:44 5 C 3.94 g/m*3 5 C 0 km/h
1098 26-02-2009 03:36:44 5.1 C 3.97 g/m*3 5.1 C 0 km/h
1099 26-02-2009 03:48:44 5 C 3.94 g/m*3 5 C 0 km/h
1100 26-02-2009 04:00:44 5 C 3.94 g/m*3 5 C 0 km/h
Sensor: Nr:Datum:Temp:Abs-Feuchte:Windchill:Wind:
Aussen-T/F 1101 26-02-2009 04:12:44 5 C 3.94 g/m*3 5 C 0 km/h
1102 26-02-2009 04:24:44 5.2 C 4.13 g/m*3 5.2 C 0 km/h
1103 26-02-2009 04:36:44 5.3 C 4.3 g/m*3 5.3 C 0 km/h
1104 26-02-2009 04:48:44 5.4 C 4.33 g/m*3 5.4 C 0 km/h
1105 26-02-2009 05:00:44 5.5 C 4.35 g/m*3 5.5 C 0 km/h
1106 26-02-2009 05:12:44 5.5 C 4.35 g/m*3 5.5 C 0 km/h
1107 26-02-2009 05:24:44 5.4 C 4.33 g/m*3 5.4 C 0 km/h
1108 26-02-2009 05:36:44 5.4 C 4.33 g/m*3 5.4 C 0 km/h
1109 26-02-2009 05:48:45 5.4 C 4.33 g/m*3 5.4 C 0 km/h
1110 26-02-2009 06:00:45 5.4 C 4.33 g/m*3 5.4 C 0 km/h
1111 26-02-2009 06:12:45 5.4 C 4.33 g/m*3 5.4 C 0 km/h
1112 26-02-2009 06:24:45 5.3 C 4.3 g/m*3 5.3 C 0 km/h
1113 26-02-2009 06:36:45 5.2 C 4.34 g/m*3 5.2 C 0 km/h
1114 26-02-2009 06:48:45 5.2 C 4.41 g/m*3 5.2 C 0 km/h
1115 26-02-2009 07:00:42 5.2 C 4.41 g/m*3 5.2 C 0 km/h
1116 26-02-2009 07:12:42 5.2 C 4.48 g/m*3 5.2 C 0 km/h
1117 26-02-2009 07:24:42 5.2 C 4.48 g/m*3 5.2 C 0 km/h
1118 26-02-2009 07:36:42 5.3 C 4.51 g/m*3 5.3 C 0 km/h
1119 26-02-2009 07:48:41 5.3 C 4.51 g/m*3 5.3 C 0 km/h
1120 26-02-2009 08:00:42 5.3 C 4.57 g/m*3 5.3 C 0 km/h
1121 26-02-2009 08:12:42 5.3 C 4.57 g/m*3 5.3 C 0 km/h
1122 26-02-2009 08:24:41 5.3 C 4.64 g/m*3 5.3 C 0 km/h
1123 26-02-2009 08:36:41 5.4 C 4.67 g/m*3 5.4 C 0 km/h
1124 26-02-2009 08:48:41 5.4 C 4.67 g/m*3 5.4 C 0 km/h
1125 26-02-2009 09:00:41 5.5 C 4.71 g/m*3 5.5 C 0 km/h
Sensor: Nr:Datum:Temp:Abs-Feuchte:Windchill:Wind:
Aussen-T/F 1126 26-02-2009 09:12:41 5.6 C 4.81 g/m*3 5.6 C 0 km/h
1127 26-02-2009 09:24:41 5.6 C 4.88 g/m*3 5.6 C 0 km/h
1128 26-02-2009 09:36:41 5.5 C 5.06 g/m*3 5.5 C 0 km/h
1129 26-02-2009 09:48:41 5.4 C 5.16 g/m*3 5.4 C 0 km/h
1130 26-02-2009 10:00:40 5.3 C 5.27 g/m*3 5.3 C 0 km/h
1131 26-02-2009 10:12:40 5.4 C 5.37 g/m*3 5.4 C 0 km/h
1132 26-02-2009 10:24:40 5.4 C 5.3 g/m*3 5.4 C 0 km/h
1133 26-02-2009 10:36:40 5.5 C 5.34 g/m*3 5.5 C 0 km/h
1134 26-02-2009 10:48:40 5.6 C 5.3 g/m*3 5.6 C 0 km/h
1135 26-02-2009 11:00:39 5.7 C 5.34 g/m*3 5.7 C 0 km/h
1136 26-02-2009 11:12:39 5.9 C 5.34 g/m*3 5.9 C 0 km/h
1137 26-02-2009 11:24:40 6.3 C 5.33 g/m*3 6.3 C 0 km/h
1138 26-02-2009 11:36:40 6.8 C 5.2 g/m*3 6.8 C 0 km/h
1139 26-02-2009 11:48:39 7.1 C 5.07 g/m*3 7.1 C 0 km/h
1140 26-02-2009 12:00:40 7.3 C 5.06 g/m*3 7.3 C 0 km/h
1141 26-02-2009 12:12:40 7.8 C 5.06 g/m*3 7.8 C 0 km/h
1142 26-02-2009 12:24:39 7.8 C 4.9 g/m*3 7.8 C 0 km/h
1143 26-02-2009 12:36:39 8 C 4.8 g/m*3 8 C 0 km/h
1144 26-02-2009 12:48:39 8 C 4.8 g/m*3 8 C 0 km/h
1145 26-02-2009 13:00:39 7.9 C 4.85 g/m*3 7.9 C 0 km/h
1146 26-02-2009 13:12:40 7.9 C 4.93 g/m*3 7.9 C 0 km/h
1147 26-02-2009 13:24:38 8 C 4.88 g/m*3 8 C 0 km/h
1148 26-02-2009 13:36:38 8.2 C 4.86 g/m*3 8.2 C 0 km/h
1149 26-02-2009 13:48:38 8.3 C 4.89 g/m*3 8.3 C 0 km/h
1150 26-02-2009 14:00:38 8.6 C 4.9 g/m*3 8.6 C 0 km/h
Sensor: Nr:Datum:Temp:Abs-Feuchte:Windchill:Wind:
Aussen-T/F 1151 26-02-2009 14:12:38 8.9 C 4.73 g/m*3 8.9 C 0 km/h
1152 26-02-2009 14:24:38 8.8 C 4.53 g/m*3 8.8 C 0 km/h
1153 26-02-2009 14:36:38 9.2 C 3.93 g/m*3 9.2 C 0 km/h
1154 26-02-2009 14:48:38 9.6 C 3.66 g/m*3 9.6 C 0 km/h
1155 26-02-2009 15:00:37 9.5 C 3.64 g/m*3 9.5 C 0 km/h
1156 26-02-2009 15:12:37 9.5 C 3.64 g/m*3 9.5 C 0 km/h
1157 26-02-2009 15:24:38 9.6 C 3.57 g/m*3 9.6 C 0 km/h
1158 26-02-2009 15:36:37 9.4 C 3.44 g/m*3 9.4 C 0 km/h
1159 26-02-2009 15:48:37 9.4 C 3.62 g/m*3 9.4 C 0 km/h
1160 26-02-2009 16:00:37 9.3 C 3.5 g/m*3 9.3 C 0 km/h
1161 26-02-2009 16:12:37 9.4 C 3.71 g/m*3 9.4 C 0 km/h
1162 26-02-2009 16:24:37 9.2 C 3.66 g/m*3 9.2 C 0 km/h
1163 26-02-2009 16:36:37 9 C 3.61 g/m*3 9 C 0 km/h
1164 26-02-2009 16:48:37 9 C 3.61 g/m*3 9 C 0 km/h
1165 26-02-2009 17:00:37 8.8 C 3.57 g/m*3 8.8 C 0 km/h
1166 26-02-2009 17:12:37 8.6 C 3.61 g/m*3 8.6 C 0 km/h
1167 26-02-2009 17:24:36 8.6 C 3.69 g/m*3 8.6 C 0 km/h
1168 26-02-2009 17:36:36 8.3 C 3.71 g/m*3 8.3 C 0 km/h
1169 26-02-2009 17:48:36 8.2 C 3.77 g/m*3 8.2 C 0 km/h
1170 26-02-2009 18:00:36 8.1 C 3.74 g/m*3 8.1 C 0 km/h
1171 26-02-2009 18:12:36 8 C 3.8 g/m*3 8 C 0 km/h
1172 26-02-2009 18:24:35 7.9 C 3.78 g/m*3 7.9 C 0 km/h
1173 26-02-2009 18:36:02 7.8 C 3.84 g/m*3 7.8 C 0 km/h
1174 26-02-2009 18:48:01 7.8 C 3.84 g/m*3 7.8 C 0 km/h
1175 26-02-2009 19:00:01 7.7 C 3.89 g/m*3 7.7 C 0 km/h
Sensor: Nr:Datum:Temp:Abs-Feuchte:Windchill:Wind:
Aussen-T/F 1176 26-02-2009 19:12:01 7.6 C 3.87 g/m*3 7.6 C 0 km/h
1177 26-02-2009 19:24:01 7.6 C 3.95 g/m*3 7.6 C 0 km/h
1178 26-02-2009 19:36:01 7.5 C 4.08 g/m*3 7.5 C 0 km/h
1179 26-02-2009 19:48:00 7.5 C 4.24 g/m*3 7.5 C 0 km/h
1180 26-02-2009 20:00:00 7.4 C 4.29 g/m*3 7.4 C 0 km/h
1181 26-02-2009 20:12:01 7.4 C 4.37 g/m*3 7.4 C 0 km/h
1182 26-02-2009 20:24:00 7.5 C 4.24 g/m*3 7.5 C 0 km/h
1183 26-02-2009 20:36:00 7.5 C 4.24 g/m*3 7.5 C 0 km/h
1184 26-02-2009 20:48:00 7.4 C 4.29 g/m*3 7.4 C 0 km/h
1185 26-02-2009 21:00:00 7.3 C 4.35 g/m*3 7.3 C 0 km/h
1186 26-02-2009 21:12:00 7.2 C 4.32 g/m*3 7.2 C 0 km/h
1187 26-02-2009 21:24:00 7.2 C 4.32 g/m*3 7.2 C 0 km/h
1188 26-02-2009 21:36:00 7.2 C 4.32 g/m*3 7.2 C 0 km/h
1189 26-02-2009 22:00:00 7.2 C 4.24 g/m*3 7.2 C 0 km/h
1190 26-02-2009 22:00:00 7.2 C 4.32 g/m*3 7.2 C 0 km/h
1191 26-02-2009 22:00:00 7.2 C 4.24 g/m*3 7.2 C 0 km/h
1192 26-02-2009 22:00:00 7.2 C 4.32 g/m*3 7.2 C 0 km/h
1193 26-02-2009 22:12:00 7.2 C 4.32 g/m*3 7.2 C 0 km/h
1194 26-02-2009 22:25:00 7.2 C 4.32 g/m*3 7.2 C 0 km/h
1195 26-02-2009 22:37:00 7.1 C 4.21 g/m*3 7.1 C 0 km/h
1196 26-02-2009 22:49:00 7.1 C 4.21 g/m*3 7.1 C 0 km/h
1197 26-02-2009 23:01:00 7.2 C 4.24 g/m*3 7.2 C 0 km/h
1198 26-02-2009 23:13:00 7.2 C 4.16 g/m*3 7.2 C 0 km/h
1199 26-02-2009 23:25:00 7.2 C 4.24 g/m*3 7.2 C 0 km/h
1200 26-02-2009 23:37:01 7.1 C 4.21 g/m*3 7.1 C 0 km/h
Sensor: Nr:Datum:Temp:Abs-Feuchte:Windchill:Wind:
Aussen-T/F 1201 26-02-2009 23:49:01 7.3 C 4.11 g/m*3 7.3 C 0 km/h
1202 27-02-2009 00:01:01 7.2 C 4.08 g/m*3 7.2 C 0 km/h
1203 27-02-2009 00:13:01 7.2 C 4.16 g/m*3 7.2 C 0 km/h
1204 27-02-2009 00:25:01 7.2 C 4.08 g/m*3 7.2 C 0 km/h
1205 27-02-2009 00:37:01 7.2 C 4.16 g/m*3 7.2 C 0 km/h
1206 27-02-2009 00:49:01 7.2 C 4.16 g/m*3 7.2 C 0 km/h
1207 27-02-2009 01:01:01 7.2 C 4.24 g/m*3 7.2 C 0 km/h
1208 27-02-2009 01:13:01 7.2 C 4.24 g/m*3 7.2 C 0 km/h
1209 27-02-2009 01:25:01 7.3 C 4.27 g/m*3 7.3 C 0 km/h
1210 27-02-2009 01:37:01 7.2 C 4.32 g/m*3 7.2 C 0 km/h
1211 27-02-2009 01:49:01 7.2 C 4.32 g/m*3 7.2 C 0 km/h
1212 27-02-2009 02:01:01 7.2 C 4.32 g/m*3 7.2 C 0 km/h
1213 27-02-2009 02:13:01 7.1 C 4.52 g/m*3 7.1 C 0 km/h
1214 27-02-2009 02:25:01 7 C 4.57 g/m*3 7 C 0 km/h
1215 27-02-2009 02:37:01 7 C 4.65 g/m*3 7 C 0 km/h
1216 27-02-2009 02:49:01 7 C 4.65 g/m*3 7 C 0 km/h
1217 27-02-2009 03:01:01 7 C 4.65 g/m*3 7 C 0 km/h
1218 27-02-2009 03:13:02 7 C 4.65 g/m*3 7 C 0 km/h
1219 27-02-2009 03:25:02 6.9 C 4.85 g/m*3 6.9 C 0 km/h
1220 27-02-2009 03:37:02 6.4 C 5.22 g/m*3 6.4 C 0 km/h
1221 27-02-2009 03:49:02 6 C 5.37 g/m*3 6 C 0 km/h
1222 27-02-2009 04:01:02 5.9 C 5.62 g/m*3 5.9 C 0 km/h
1223 27-02-2009 04:13:02 6.1 C 5.63 g/m*3 6.1 C 0 km/h
1224 27-02-2009 04:25:02 5.9 C 5.7 g/m*3 5.9 C 0 km/h
1225 27-02-2009 04:37:02 5.9 C 5.77 g/m*3 5.9 C 0 km/h
Sensor: Nr:Datum:Temp:Abs-Feuchte:Windchill:Wind:
Aussen-T/F 1226 27-02-2009 04:49:02 5.9 C 5.84 g/m*3 5.9 C 0 km/h
1227 27-02-2009 05:01:02 5.7 C 5.84 g/m*3 5.7 C 0 km/h
1228 27-02-2009 05:13:02 5.6 C 5.94 g/m*3 5.6 C 0 km/h
1229 27-02-2009 05:25:02 5.6 C 6.01 g/m*3 5.6 C 0 km/h
1230 27-02-2009 05:37:02 5.6 C 6.08 g/m*3 5.6 C 0 km/h
1231 27-02-2009 05:49:02 5.6 C 6.08 g/m*3 5.6 C 0 km/h
1232 27-02-2009 06:01:02 5.6 C 6.08 g/m*3 5.6 C 0 km/h
1233 27-02-2009 06:13:02 5.6 C 6.01 g/m*3 5.6 C 0 km/h
1234 27-02-2009 06:25:02 5.6 C 6.01 g/m*3 5.6 C 0 km/h
1235 27-02-2009 06:37:02 5.6 C 5.94 g/m*3 5.6 C 0 km/h
1236 27-02-2009 06:49:02 5.6 C 5.94 g/m*3 5.6 C 0 km/h
1237 27-02-2009 07:01:00 5.6 C 5.87 g/m*3 5.6 C 0 km/h
1238 27-02-2009 07:13:00 5.7 C 5.84 g/m*3 5.7 C 0 km/h
1239 27-02-2009 07:25:00 5.9 C 5.77 g/m*3 5.9 C 0 km/h
1240 27-02-2009 07:37:00 6.1 C 5.63 g/m*3 6.1 C 0 km/h
1241 27-02-2009 07:49:00 6.1 C 5.48 g/m*3 6.1 C 0 km/h
1242 27-02-2009 08:01:59 6.2 C 5.37 g/m*3 6.2 C 0 km/h
1243 27-02-2009 08:13:59 6.4 C 5.29 g/m*3 6.4 C 0 km/h
1244 27-02-2009 08:25:00 6.5 C 5.17 g/m*3 6.5 C 0 km/h
1245 27-02-2009 08:37:00 6.6 C 5.13 g/m*3 6.6 C 0 km/h
1246 27-02-2009 08:49:59 6.7 C 5.09 g/m*3 6.7 C 0 km/h
1247 27-02-2009 09:00:59 6.8 C 5.05 g/m*3 6.8 C 0 km/h
1248 27-02-2009 09:12:59 6.9 C 5.08 g/m*3 6.9 C 0 km/h
1249 27-02-2009 09:25:59 7 C 4.96 g/m*3 7 C 0 km/h
1250 27-02-2009 09:37:59 7.2 C 4.95 g/m*3 7.2 C 0 km/h
Sensor: Nr:Datum:Temp:Abs-Feuchte:Windchill:Wind:
Aussen-T/F 1251 27-02-2009 09:49:58 7.7 C 4.95 g/m*3 7.7 C 0 km/h
1252 27-02-2009 10:01:59 7.9 C 4.85 g/m*3 7.9 C 0 km/h
1253 27-02-2009 10:13:59 8 C 4.71 g/m*3 8 C 0 km/h
1254 27-02-2009 10:25:58 8.1 C 4.66 g/m*3 8.1 C 0 km/h
1255 27-02-2009 10:37:58 8.6 C 4.81 g/m*3 8.6 C 0 km/h
1256 27-02-2009 10:49:58 8.6 C 4.55 g/m*3 8.6 C 0 km/h
1257 27-02-2009 11:01:58 8.7 C 4.58 g/m*3 8.7 C 0 km/h
1258 27-02-2009 11:13:58 8.7 C 4.5 g/m*3 8.7 C 0 km/h
1259 27-02-2009 11:25:57 8.7 C 4.67 g/m*3 8.7 C 0 km/h
1260 27-02-2009 11:37:58 8.5 C 4.7 g/m*3 8.5 C 0 km/h
1261 27-02-2009 11:49:58 8.3 C 4.97 g/m*3 8.3 C 0 km/h
1262 27-02-2009 12:01:57 8 C 5.13 g/m*3 8 C 0 km/h
1263 27-02-2009 12:13:57 7.7 C 5.43 g/m*3 7.7 C 0 km/h
1264 27-02-2009 12:25:58 7.4 C 5.57 g/m*3 7.4 C 0 km/h
1265 27-02-2009 12:37:57 7.2 C 5.73 g/m*3 7.2 C 0 km/h
1266 27-02-2009 12:49:57 7 C 5.97 g/m*3 7 C 0 km/h
1267 27-02-2009 13:01:56 6.8 C 6.12 g/m*3 6.8 C 0 km/h
1268 27-02-2009 13:13:56 6.8 C 6.27 g/m*3 6.8 C 0 km/h
1269 27-02-2009 13:25:57 7 C 6.35 g/m*3 7 C 0 km/h
1270 27-02-2009 13:37:56 7.1 C 6.4 g/m*3 7.1 C 0 km/h
1271 27-02-2009 13:49:56 7.1 C 6.24 g/m*3 7.1 C 0 km/h
1272 27-02-2009 14:01:57 7.1 C 6.16 g/m*3 7.1 C 0 km/h
1273 27-02-2009 14:13:57 7.3 C 6.16 g/m*3 7.3 C 0 km/h
1274 27-02-2009 14:25:56 7.5 C 6.24 g/m*3 7.5 C 0 km/h
1275 27-02-2009 14:37:56 7.5 C 6.24 g/m*3 7.5 C 0 km/h
Sensor: Nr:Datum:Temp:Abs-Feuchte:Windchill:Wind:
Aussen-T/F 1276 27-02-2009 14:49:56 7.7 C 6.24 g/m*3 7.7 C 0 km/h
1277 27-02-2009 15:01:56 7.5 C 5.92 g/m*3 7.5 C 0 km/h
1278 27-02-2009 15:13:56 7.6 C 5.88 g/m*3 7.6 C 0 km/h
1279 27-02-2009 15:25:56 7.5 C 5.76 g/m*3 7.5 C 0 km/h
1280 27-02-2009 15:37:55 7.7 C 5.76 g/m*3 7.7 C 0 km/h
1281 27-02-2009 15:49:56 7.9 C 5.75 g/m*3 7.9 C 0 km/h
1282 27-02-2009 16:01:55 8 C 5.54 g/m*3 8 C 0 km/h
1283 27-02-2009 16:13:55 8 C 5.46 g/m*3 8 C 0 km/h
1284 27-02-2009 16:25:55 8 C 5.46 g/m*3 8 C 0 km/h
1285 27-02-2009 16:37:55 8 C 5.29 g/m*3 8 C 0 km/h
1286 27-02-2009 16:49:54 7.9 C 5.42 g/m*3 7.9 C 0 km/h
1287 27-02-2009 17:01:54 7.9 C 5.42 g/m*3 7.9 C 0 km/h
1288 27-02-2009 17:13:54 7.9 C 5.42 g/m*3 7.9 C 0 km/h
1289 27-02-2009 17:25:55 7.8 C 5.55 g/m*3 7.8 C 0 km/h
1290 27-02-2009 17:37:54 7.6 C 5.64 g/m*3 7.6 C 0 km/h
1291 27-02-2009 17:49:54 7.5 C 5.68 g/m*3 7.5 C 0 km/h
1292 27-02-2009 18:01:54 7.5 C 5.68 g/m*3 7.5 C 0 km/h
1293 27-02-2009 18:13:54 7.6 C 5.72 g/m*3 7.6 C 0 km/h
1294 27-02-2009 18:25:54 7.6 C 5.64 g/m*3 7.6 C 0 km/h
1295 27-02-2009 18:37:53 7.6 C 5.64 g/m*3 7.6 C 0 km/h
1296 27-02-2009 18:49:54 7.6 C 5.64 g/m*3 7.6 C 0 km/h
1297 27-02-2009 19:01:53 7.6 C 5.56 g/m*3 7.6 C 0 km/h
1298 27-02-2009 19:13:53 7.7 C 5.59 g/m*3 7.7 C 0 km/h
1299 27-02-2009 19:25:53 7.8 C 5.63 g/m*3 7.8 C 0 km/h
1300 27-02-2009 19:37:54 7.8 C 5.55 g/m*3 7.8 C 0 km/h
Sensor: Nr:Datum:Temp:Abs-Feuchte:Windchill:Wind:
Aussen-T/F 1301 27-02-2009 19:49:53 7.9 C 5.59 g/m*3 7.9 C 0 km/h
1302 27-02-2009 20:01:53 7.8 C 5.55 g/m*3 7.8 C 0 km/h
1303 27-02-2009 20:13:53 7.8 C 5.55 g/m*3 7.8 C 0 km/h
1304 27-02-2009 20:25:53 7.7 C 5.68 g/m*3 7.7 C 0 km/h
1305 27-02-2009 20:37:53 7.7 C 5.68 g/m*3 7.7 C 0 km/h
1306 27-02-2009 20:49:52 7.5 C 5.76 g/m*3 7.5 C 0 km/h
1307 27-02-2009 21:01:53 7.2 C 5.89 g/m*3 7.2 C 0 km/h
1308 27-02-2009 21:13:54 7 C 6.04 g/m*3 7 C 0 km/h
1309 27-02-2009 21:25:52 7 C 6.2 g/m*3 7 C 0 km/h
1310 27-02-2009 21:37:52 6.9 C 6.31 g/m*3 6.9 C 0 km/h
1311 27-02-2009 21:49:52 6.8 C 6.42 g/m*3 6.8 C 0 km/h
1312 27-02-2009 22:01:52 6.7 C 6.38 g/m*3 6.7 C 0 km/h
1313 27-02-2009 22:13:52 6.7 C 6.46 g/m*3 6.7 C 0 km/h
1314 27-02-2009 22:25:52 6.8 C 6.42 g/m*3 6.8 C 0 km/h
1315 27-02-2009 22:37:51 6.9 C 6.47 g/m*3 6.9 C 0 km/h
1316 27-02-2009 22:49:52 6.9 C 6.39 g/m*3 6.9 C 0 km/h
1317 27-02-2009 23:01:51 6.9 C 6.31 g/m*3 6.9 C 0 km/h
1318 27-02-2009 23:13:51 6.9 C 6.24 g/m*3 6.9 C 0 km/h
1319 27-02-2009 23:25:51 6.9 C 6.31 g/m*3 6.9 C 0 km/h
1320 27-02-2009 23:37:51 6.8 C 6.27 g/m*3 6.8 C 0 km/h
1321 27-02-2009 23:50:52 6.9 C 6.31 g/m*3 6.9 C 0 km/h
1322 28-02-2009 00:02:52 6.9 C 6.31 g/m*3 6.9 C 0 km/h
1323 28-02-2009 00:14:52 6.9 C 6.24 g/m*3 6.9 C 0 km/h
1324 28-02-2009 00:26:53 6.9 C 6.24 g/m*3 6.9 C 0 km/h
1325 28-02-2009 00:38:53 6.9 C 6.16 g/m*3 6.9 C 0 km/h
Sensor: Nr:Datum:Temp:Abs-Feuchte:Windchill:Wind:
Aussen-T/F 1326 28-02-2009 00:50:53 6.9 C 6.16 g/m*3 6.9 C 0 km/h
1327 28-02-2009 01:02:53 6.9 C 6.08 g/m*3 6.9 C 0 km/h
1328 28-02-2009 01:14:53 6.9 C 6.08 g/m*3 6.9 C 0 km/h
1329 28-02-2009 01:26:53 6.9 C 6.08 g/m*3 6.9 C 0 km/h
1330 28-02-2009 01:38:53 7 C 5.97 g/m*3 7 C 0 km/h
1331 28-02-2009 01:50:53 7 C 5.97 g/m*3 7 C 0 km/h
1332 28-02-2009 02:02:53 7.1 C 5.93 g/m*3 7.1 C 0 km/h
1333 28-02-2009 02:14:53 7.1 C 5.93 g/m*3 7.1 C 0 km/h
1334 28-02-2009 02:26:53 7.3 C 5.93 g/m*3 7.3 C 0 km/h
1335 28-02-2009 02:38:53 7.4 C 5.88 g/m*3 7.4 C 0 km/h
1336 28-02-2009 02:50:53 7.5 C 5.84 g/m*3 7.5 C 0 km/h
1337 28-02-2009 03:02:53 7.5 C 5.84 g/m*3 7.5 C 0 km/h
1338 28-02-2009 03:14:53 7.5 C 5.84 g/m*3 7.5 C 0 km/h
1339 28-02-2009 03:26:53 7.5 C 5.84 g/m*3 7.5 C 0 km/h
1340 28-02-2009 03:38:53 7.5 C 5.84 g/m*3 7.5 C 0 km/h
1341 28-02-2009 03:50:53 7.5 C 5.84 g/m*3 7.5 C 0 km/h
1342 28-02-2009 04:02:54 7.6 C 5.88 g/m*3 7.6 C 0 km/h
1343 28-02-2009 04:14:54 7.6 C 5.88 g/m*3 7.6 C 0 km/h
1344 28-02-2009 04:26:54 7.6 C 5.8 g/m*3 7.6 C 0 km/h
1345 28-02-2009 04:38:54 7.6 C 5.8 g/m*3 7.6 C 0 km/h
1346 28-02-2009 04:50:54 7.7 C 5.84 g/m*3 7.7 C 0 km/h
1347 28-02-2009 05:02:54 7.7 C 5.84 g/m*3 7.7 C 0 km/h
1348 28-02-2009 05:14:54 7.8 C 5.79 g/m*3 7.8 C 0 km/h
1349 28-02-2009 05:26:54 7.8 C 5.79 g/m*3 7.8 C 0 km/h
1350 28-02-2009 05:38:54 7.8 C 5.79 g/m*3 7.8 C 0 km/h
Sensor: Nr:Datum:Temp:Abs-Feuchte:Windchill:Wind:
Aussen-T/F 1351 28-02-2009 05:50:54 7.7 C 5.76 g/m*3 7.7 C 0 km/h
1352 28-02-2009 06:02:54 7.6 C 5.8 g/m*3 7.6 C 0 km/h
1353 28-02-2009 06:14:54 7.6 C 5.8 g/m*3 7.6 C 0 km/h
1354 28-02-2009 06:26:54 7.5 C 5.76 g/m*3 7.5 C 0 km/h
1355 28-02-2009 06:38:54 7.5 C 5.84 g/m*3 7.5 C 0 km/h
1356 28-02-2009 06:50:54 7.4 C 5.81 g/m*3 7.4 C 0 km/h
1357 28-02-2009 07:02:54 7.4 C 5.81 g/m*3 7.4 C 0 km/h
1358 28-02-2009 07:14:54 7.4 C 5.88 g/m*3 7.4 C 0 km/h
1359 28-02-2009 07:26:54 7.3 C 5.85 g/m*3 7.3 C 0 km/h
1360 28-02-2009 07:38:54 7.3 C 5.93 g/m*3 7.3 C 0 km/h
1361 28-02-2009 07:50:55 7.4 C 5.96 g/m*3 7.4 C 0 km/h
1362 28-02-2009 08:02:51 7.5 C 5.92 g/m*3 7.5 C 0 km/h
1363 28-02-2009 08:14:51 7.6 C 5.96 g/m*3 7.6 C 0 km/h
1364 28-02-2009 08:26:51 7.6 C 5.88 g/m*3 7.6 C 0 km/h
1365 28-02-2009 08:38:51 7.9 C 6 g/m*3 7.9 C 0 km/h
1366 28-02-2009 08:50:51 8 C 5.95 g/m*3 8 C 0 km/h
1367 28-02-2009 09:02:51 8.1 C 5.91 g/m*3 8.1 C 0 km/h
1368 28-02-2009 09:14:51 8.2 C 5.95 g/m*3 8.2 C 0 km/h
1369 28-02-2009 09:26:51 9 C 5.91 g/m*3 9 C 0 km/h
1370 28-02-2009 09:38:51 9.5 C 5.83 g/m*3 9.5 C 0 km/h
1371 28-02-2009 09:50:51 9.3 C 5.75 g/m*3 9.3 C 0 km/h
1372 28-02-2009 10:02:51 9.3 C 5.75 g/m*3 9.3 C 0 km/h
1373 28-02-2009 10:14:50 9.7 C 5.81 g/m*3 9.7 C 0 km/h
1374 28-02-2009 10:26:50 9.8 C 5.75 g/m*3 9.8 C 0 km/h
1375 28-02-2009 10:38:50 9.7 C 5.81 g/m*3 9.7 C 0 km/h
Sensor: Nr:Datum:Temp:Abs-Feuchte:Windchill:Wind:
Aussen-T/F 1376 28-02-2009 10:50:50 9.8 C 5.75 g/m*3 9.8 C 0 km/h
1377 28-02-2009 11:02:50 9.9 C 5.79 g/m*3 9.9 C 0 km/h
1378 28-02-2009 11:14:49 10.1 C 5.77 g/m*3 10.1 C 0 km/h
1379 28-02-2009 11:26:49 10.8 C 5.83 g/m*3 10.8 C 0 km/h
1380 28-02-2009 11:38:50 11.2 C 5.78 g/m*3 11.2 C 0 km/h
1381 28-02-2009 11:50:49 10.7 C 5.8 g/m*3 10.7 C 0 km/h
1382 28-02-2009 12:02:49 10.3 C 5.75 g/m*3 10.3 C 0 km/h
1383 28-02-2009 12:14:50 10.3 C 5.84 g/m*3 10.3 C 0 km/h
1384 28-02-2009 12:26:50 11 C 5.81 g/m*3 11 C 0 km/h
1385 28-02-2009 12:38:49 11.4 C 5.75 g/m*3 11.4 C 0 km/h
1386 28-02-2009 12:50:49 12 C 5.75 g/m*3 12 C 0 km/h
1387 28-02-2009 13:02:49 12.2 C 5.61 g/m*3 12.2 C 0 km/h
1388 28-02-2009 13:14:49 12.4 C 5.46 g/m*3 12.4 C 0 km/h
1389 28-02-2009 13:26:49 12.7 C 5.57 g/m*3 12.7 C 0 km/h
1390 28-02-2009 13:38:49 13.5 C 5.5 g/m*3 13.5 C 0 km/h
1391 28-02-2009 13:50:49 13.9 C 5.39 g/m*3 13.9 C 0 km/h
1392 28-02-2009 14:02:48 14.2 C 5.13 g/m*3 14.2 C 0 km/h
1393 28-02-2009 14:14:48 14.3 C 5.16 g/m*3 14.3 C 0 km/h
1394 28-02-2009 14:26:49 14 C 5.19 g/m*3 14 C 0 km/h
1395 28-02-2009 14:38:47 14.2 C 5.01 g/m*3 14.2 C 0 km/h
1396 28-02-2009 14:50:48 14.9 C 4.84 g/m*3 14.9 C 0 km/h
1397 28-02-2009 15:02:47 15.3 C 4.7 g/m*3 15.3 C 0 km/h
1398 28-02-2009 15:14:47 16.1 C 4.8 g/m*3 16.1 C 0 km/h
1399 28-02-2009 15:26:47 16.8 C 4.86 g/m*3 16.8 C 0 km/h
1400 28-02-2009 15:38:48 18 C 4.76 g/m*3 18 C 0 km/h
Sensor: Nr:Datum:Temp:Abs-Feuchte:Windchill:Wind:
Aussen-T/F 1401 28-02-2009 15:50:47 18.1 C 4.79 g/m*3 18.1 C 0 km/h
1402 28-02-2009 16:02:47 17.6 C 4.95 g/m*3 17.6 C 0 km/h
1403 28-02-2009 16:14:47 16.8 C 5.15 g/m*3 16.8 C 0 km/h
1404 28-02-2009 16:26:47 16.6 C 5.23 g/m*3 16.6 C 0 km/h
1405 28-02-2009 16:38:47 16.1 C 5.21 g/m*3 16.1 C 0 km/h
1406 28-02-2009 16:50:47 15.6 C 5.32 g/m*3 15.6 C 0 km/h
1407 28-02-2009 17:02:48 15.2 C 5.32 g/m*3 15.2 C 0 km/h
1408 28-02-2009 17:14:46 15 C 5.39 g/m*3 15 C 0 km/h
1409 28-02-2009 17:26:46 14.7 C 5.79 g/m*3 14.7 C 0 km/h
1410 28-02-2009 17:38:47 14.3 C 5.77 g/m*3 14.3 C 0 km/h
1411 28-02-2009 17:50:46 13.8 C 5.84 g/m*3 13.8 C 0 km/h
1412 28-02-2009 18:02:46 13.4 C 5.81 g/m*3 13.4 C 0 km/h
1413 28-02-2009 18:14:46 12.9 C 5.86 g/m*3 12.9 C 0 km/h
1414 28-02-2009 18:26:46 12.2 C 5.83 g/m*3 12.2 C 0 km/h
1415 28-02-2009 18:38:46 12 C 5.86 g/m*3 12 C 0 km/h
1416 28-02-2009 18:50:45 11.7 C 5.86 g/m*3 11.7 C 0 km/h
1417 28-02-2009 19:02:45 11.6 C 5.82 g/m*3 11.6 C 0 km/h
1418 28-02-2009 19:14:46 11.4 C 5.75 g/m*3 11.4 C 0 km/h
1419 28-02-2009 19:26:46 11.2 C 5.78 g/m*3 11.2 C 0 km/h
1420 28-02-2009 19:38:45 11.1 C 5.74 g/m*3 11.1 C 0 km/h
1421 28-02-2009 19:50:44 11 C 5.71 g/m*3 11 C 0 km/h
1422 28-02-2009 20:02:45 10.7 C 5.8 g/m*3 10.7 C 0 km/h
1423 28-02-2009 20:14:45 10.2 C 5.71 g/m*3 10.2 C 0 km/h
1424 28-02-2009 20:26:45 10 C 5.73 g/m*3 10 C 0 km/h
1425 28-02-2009 20:38:44 9.7 C 5.81 g/m*3 9.7 C 0 km/h
Sensor: Nr:Datum:Temp:Abs-Feuchte:Windchill:Wind:
Aussen-T/F 1426 28-02-2009 20:50:45 9.6 C 5.77 g/m*3 9.6 C 0 km/h
1427 28-02-2009 21:02:44 9.5 C 5.83 g/m*3 9.5 C 0 km/h
1428 28-02-2009 21:14:45 9.4 C 5.88 g/m*3 9.4 C 0 km/h
1429 28-02-2009 21:26:45 9.2 C 5.8 g/m*3 9.2 C 0 km/h
1430 28-02-2009 21:38:44 9.1 C 5.86 g/m*3 9.1 C 0 km/h
1431 28-02-2009 21:50:44 8.8 C 5.83 g/m*3 8.8 C 0 km/h
1432 28-02-2009 22:02:44 8.7 C 5.88 g/m*3 8.7 C 0 km/h
1433 28-02-2009 22:14:44 8.7 C 5.97 g/m*3 8.7 C 0 km/h
1434 28-02-2009 22:26:44 8.7 C 5.97 g/m*3 8.7 C 0 km/h
1435 28-02-2009 22:38:43 8.4 C 5.85 g/m*3 8.4 C 0 km/h
1436 28-02-2009 22:51:44 8.2 C 5.86 g/m*3 8.2 C 0 km/h
1437 28-02-2009 23:03:44 7.9 C 5.91 g/m*3 7.9 C 0 km/h
1438 28-02-2009 23:15:44 7.7 C 5.84 g/m*3 7.7 C 0 km/h
1439 28-02-2009 23:27:44 7.5 C 5.84 g/m*3 7.5 C 0 km/h
1440 28-02-2009 23:39:44 7.4 C 5.88 g/m*3 7.4 C 0 km/h
1441 28-02-2009 23:51:45 7.2 C 5.81 g/m*3 7.2 C 0 km/h
1442 01-03-2009 00:03:45 7.1 C 5.85 g/m*3 7.1 C 0 km/h
1443 01-03-2009 00:15:45 7 C 5.81 g/m*3 7 C 0 km/h
1444 01-03-2009 00:27:45 7.4 C 6.12 g/m*3 7.4 C 0 km/h
1445 01-03-2009 00:39:45 7.7 C 6.16 g/m*3 7.7 C 0 km/h
1446 01-03-2009 00:51:45 7.7 C 6.08 g/m*3 7.7 C 0 km/h
1447 01-03-2009 01:03:45 7.5 C 5.92 g/m*3 7.5 C 0 km/h
1448 01-03-2009 01:15:45 7.6 C 5.96 g/m*3 7.6 C 0 km/h
1449 01-03-2009 01:27:45 7.7 C 6 g/m*3 7.7 C 0 km/h
1450 01-03-2009 01:39:45 7.8 C 6.04 g/m*3 7.8 C 0 km/h
Sensor: Nr:Datum:Temp:Abs-Feuchte:Windchill:Wind:
Aussen-T/F 1451 01-03-2009 01:51:45 7.9 C 6.08 g/m*3 7.9 C 0 km/h
1452 01-03-2009 02:03:45 7.8 C 5.96 g/m*3 7.8 C 0 km/h
1453 01-03-2009 02:15:45 7.8 C 5.96 g/m*3 7.8 C 0 km/h
1454 01-03-2009 02:27:45 7.9 C 6 g/m*3 7.9 C 0 km/h
1455 01-03-2009 02:39:45 7.7 C 5.92 g/m*3 7.7 C 0 km/h
1456 01-03-2009 02:51:45 7.6 C 5.88 g/m*3 7.6 C 0 km/h
1457 01-03-2009 03:03:45 7.5 C 5.84 g/m*3 7.5 C 0 km/h
1458 01-03-2009 03:15:45 7.2 C 5.81 g/m*3 7.2 C 0 km/h
1459 01-03-2009 03:27:45 6.8 C 5.74 g/m*3 6.8 C 0 km/h
1460 01-03-2009 03:39:46 6.7 C 5.85 g/m*3 6.7 C 0 km/h
1461 01-03-2009 03:51:46 6.5 C 5.85 g/m*3 6.5 C 0 km/h
1462 01-03-2009 04:03:46 6.5 C 5.85 g/m*3 6.5 C 0 km/h
1463 01-03-2009 04:15:46 6.3 C 5.77 g/m*3 6.3 C 0 km/h
1464 01-03-2009 04:27:46 6.2 C 5.74 g/m*3 6.2 C 0 km/h
1465 01-03-2009 04:39:46 6.2 C 5.81 g/m*3 6.2 C 0 km/h
1466 01-03-2009 04:51:46 6 C 5.66 g/m*3 6 C 0 km/h
1467 01-03-2009 05:03:46 6 C 5.73 g/m*3 6 C 0 km/h
1468 01-03-2009 05:15:46 6.4 C 5.96 g/m*3 6.4 C 0 km/h
1469 01-03-2009 05:27:46 6.4 C 5.96 g/m*3 6.4 C 0 km/h
1470 01-03-2009 05:39:46 6.4 C 5.89 g/m*3 6.4 C 0 km/h
1471 01-03-2009 05:51:46 6.3 C 5.77 g/m*3 6.3 C 0 km/h
1472 01-03-2009 06:03:46 6.3 C 5.85 g/m*3 6.3 C 0 km/h
1473 01-03-2009 06:15:46 6.5 C 5.92 g/m*3 6.5 C 0 km/h
1474 01-03-2009 06:27:46 6.6 C 5.96 g/m*3 6.6 C 0 km/h
1475 01-03-2009 06:39:46 6.7 C 6 g/m*3 6.7 C 0 km/h
Sensor: Nr:Datum:Temp:Abs-Feuchte:Windchill:Wind:
Aussen-T/F 1476 01-03-2009 06:51:46 6.8 C 6.04 g/m*3 6.8 C 0 km/h
1477 01-03-2009 07:03:46 6.8 C 6.04 g/m*3 6.8 C 0 km/h
1478 01-03-2009 07:15:46 6.9 C 6 g/m*3 6.9 C 0 km/h
1479 01-03-2009 07:27:47 6.8 C 5.97 g/m*3 6.8 C 0 km/h
1480 01-03-2009 07:39:47 6.9 C 6 g/m*3 6.9 C 0 km/h
1481 01-03-2009 07:51:47 7 C 5.97 g/m*3 7 C 0 km/h
1482 01-03-2009 08:03:47 7.2 C 6.04 g/m*3 7.2 C 0 km/h
1483 01-03-2009 08:15:47 7.4 C 6.04 g/m*3 7.4 C 0 km/h
1484 01-03-2009 08:27:47 7.6 C 6.04 g/m*3 7.6 C 0 km/h
1485 01-03-2009 08:39:47 7.8 C 6.12 g/m*3 7.8 C 0 km/h
1486 01-03-2009 08:51:47 7.9 C 6 g/m*3 7.9 C 0 km/h
1487 01-03-2009 09:03:43 8 C 5.87 g/m*3 8 C 0 km/h
1488 01-03-2009 09:15:44 8.1 C 5.74 g/m*3 8.1 C 0 km/h
1489 01-03-2009 09:27:44 8.4 C 5.85 g/m*3 8.4 C 0 km/h
1490 01-03-2009 09:39:44 8.6 C 5.76 g/m*3 8.6 C 0 km/h
1491 01-03-2009 09:51:43 8.7 C 5.62 g/m*3 8.7 C 0 km/h
1492 01-03-2009 10:03:43 9.1 C 5.68 g/m*3 9.1 C 0 km/h
1493 01-03-2009 10:15:43 9.3 C 5.66 g/m*3 9.3 C 0 km/h
1494 01-03-2009 10:27:43 9.6 C 5.59 g/m*3 9.6 C 0 km/h
1495 01-03-2009 10:39:43 10 C 5.45 g/m*3 10 C 0 km/h
1496 01-03-2009 10:51:43 10.1 C 5.48 g/m*3 10.1 C 0 km/h
1497 01-03-2009 11:03:43 10.7 C 5.4 g/m*3 10.7 C 0 km/h
1498 01-03-2009 11:15:42 10.5 C 5.43 g/m*3 10.5 C 0 km/h
1499 01-03-2009 11:27:42 10.6 C 5.37 g/m*3 10.6 C 0 km/h
1500 01-03-2009 11:39:42 10.9 C 5.37 g/m*3 10.9 C 0 km/h
Sensor: Nr:Datum:Temp:Abs-Feuchte:Windchill:Wind:
Aussen-T/F 1501 01-03-2009 11:51:42 11.5 C 5.47 g/m*3 11.5 C 0 km/h
1502 01-03-2009 12:03:42 11.7 C 5.33 g/m*3 11.7 C 0 km/h
1503 01-03-2009 12:15:42 11.8 C 5.26 g/m*3 11.8 C 0 km/h
1504 01-03-2009 12:27:42 11.6 C 5.2 g/m*3 11.6 C 0 km/h
1505 01-03-2009 12:39:42 12.1 C 5.15 g/m*3 12.1 C 0 km/h
1506 01-03-2009 12:51:42 12.8 C 5.15 g/m*3 12.8 C 0 km/h
1507 01-03-2009 13:03:41 13.3 C 5.08 g/m*3 13.3 C 0 km/h
1508 01-03-2009 13:15:42 13.5 C 5.03 g/m*3 13.5 C 0 km/h
1509 01-03-2009 13:27:42 13.8 C 5.12 g/m*3 13.8 C 0 km/h
1510 01-03-2009 13:39:41 13.3 C 4.97 g/m*3 13.3 C 0 km/h
1511 01-03-2009 13:51:41 13.6 C 5.06 g/m*3 13.6 C 0 km/h
1512 01-03-2009 14:03:41 13.9 C 5.15 g/m*3 13.9 C 0 km/h
1513 01-03-2009 14:15:41 13.9 C 5.04 g/m*3 13.9 C 0 km/h
1514 01-03-2009 14:27:41 13.9 C 5.04 g/m*3 13.9 C 0 km/h
1515 01-03-2009 14:39:41 13.9 C 5.04 g/m*3 13.9 C 0 km/h
1516 01-03-2009 14:51:41 14.2 C 5.01 g/m*3 14.2 C 0 km/h
1517 01-03-2009 15:03:41 14.5 C 5.1 g/m*3 14.5 C 0 km/h
1518 01-03-2009 15:15:40 14.4 C 5.07 g/m*3 14.4 C 0 km/h
1519 01-03-2009 15:27:40 15.1 C 5.03 g/m*3 15.1 C 0 km/h
1520 01-03-2009 15:39:40 15.2 C 5.06 g/m*3 15.2 C 0 km/h
1521 01-03-2009 15:51:40 14.8 C 5.07 g/m*3 14.8 C 0 km/h
1522 01-03-2009 16:03:40 14.5 C 4.97 g/m*3 14.5 C 0 km/h
1523 01-03-2009 16:15:39 14.1 C 4.85 g/m*3 14.1 C 0 km/h
1524 01-03-2009 16:27:39 13.7 C 4.86 g/m*3 13.7 C 0 km/h
1525 01-03-2009 16:39:40 13.5 C 4.91 g/m*3 13.5 C 0 km/h
Sensor: Nr:Datum:Temp:Abs-Feuchte:Windchill:Wind:
Aussen-T/F 1526 01-03-2009 16:51:39 13.3 C 4.97 g/m*3 13.3 C 0 km/h
1527 01-03-2009 17:03:39 13.2 C 5.05 g/m*3 13.2 C 0 km/h
1528 01-03-2009 17:15:40 13 C 4.99 g/m*3 13 C 0 km/h
1529 01-03-2009 17:27:40 12.8 C 5.15 g/m*3 12.8 C 0 km/h
1530 01-03-2009 17:39:39 12.5 C 5.06 g/m*3 12.5 C 0 km/h
1531 01-03-2009 17:51:39 12.4 C 5.24 g/m*3 12.4 C 0 km/h
1532 01-03-2009 18:03:38 11.8 C 5.58 g/m*3 11.8 C 0 km/h
1533 01-03-2009 18:15:39 11.4 C 5.65 g/m*3 11.4 C 0 km/h
1534 01-03-2009 18:27:39 11.2 C 5.68 g/m*3 11.2 C 0 km/h
1535 01-03-2009 18:39:38 11.1 C 5.54 g/m*3 11.1 C 0 km/h
1536 01-03-2009 18:51:38 10.9 C 5.67 g/m*3 10.9 C 0 km/h
1537 01-03-2009 19:03:38 10.9 C 5.77 g/m*3 10.9 C 0 km/h
1538 01-03-2009 19:15:38 11 C 5.61 g/m*3 11 C 0 km/h
1539 01-03-2009 19:27:38 11 C 5.61 g/m*3 11 C 0 km/h
1540 01-03-2009 19:39:38 11.2 C 5.57 g/m*3 11.2 C 0 km/h
1541 01-03-2009 19:51:38 11.5 C 5.37 g/m*3 11.5 C 0 km/h
1542 01-03-2009 20:03:38 11.9 C 5.3 g/m*3 11.9 C 0 km/h
1543 01-03-2009 20:15:37 12 C 5.12 g/m*3 12 C 0 km/h
1544 01-03-2009 20:27:37 12 C 5.12 g/m*3 12 C 0 km/h
1545 01-03-2009 20:39:37 11.8 C 5.16 g/m*3 11.8 C 0 km/h
1546 01-03-2009 20:51:37 11.8 C 5.16 g/m*3 11.8 C 0 km/h
1547 01-03-2009 21:03:37 11.7 C 5.12 g/m*3 11.7 C 0 km/h
1548 01-03-2009 21:15:37 11.8 C 5.16 g/m*3 11.8 C 0 km/h
1549 01-03-2009 21:27:37 11.6 C 5.2 g/m*3 11.6 C 0 km/h
1550 01-03-2009 21:39:37 11.4 C 5.23 g/m*3 11.4 C 0 km/h
Sensor: Nr:Datum:Temp:Abs-Feuchte:Windchill:Wind:
Aussen-T/F 1551 01-03-2009 21:51:36 11.4 C 5.23 g/m*3 11.4 C 0 km/h
1552 01-03-2009 22:03:36 11.1 C 5.54 g/m*3 11.1 C 0 km/h
1553 01-03-2009 22:15:37 10.5 C 6.01 g/m*3 10.5 C 0 km/h
1554 01-03-2009 22:27:37 10.1 C 6.34 g/m*3 10.1 C 0 km/h
1555 01-03-2009 22:40:37 9.8 C 6.49 g/m*3 9.8 C 0 km/h
1556 01-03-2009 22:52:37 9.7 C 6.45 g/m*3 9.7 C 0 km/h
1557 01-03-2009 23:04:37 9.5 C 6.55 g/m*3 9.5 C 0 km/h
1558 01-03-2009 23:16:37 9.5 C 6.64 g/m*3 9.5 C 0 km/h
1559 01-03-2009 23:28:37 9.6 C 6.5 g/m*3 9.6 C 0 km/h
1560 01-03-2009 23:40:37 9.8 C 6.31 g/m*3 9.8 C 0 km/h
1561 01-03-2009 23:52:37 9.8 C 6.31 g/m*3 9.8 C 0 km/h
1562 02-03-2009 00:04:37 9.8 C 6.22 g/m*3 9.8 C 0 km/h
1563 02-03-2009 00:16:38 9.8 C 6.31 g/m*3 9.8 C 0 km/h
1564 02-03-2009 00:28:38 9.5 C 6.46 g/m*3 9.5 C 0 km/h
1565 02-03-2009 00:40:38 9.2 C 6.52 g/m*3 9.2 C 0 km/h
1566 02-03-2009 00:52:38 9.1 C 6.57 g/m*3 9.1 C 0 km/h
1567 02-03-2009 01:04:38 9.1 C 6.57 g/m*3 9.1 C 0 km/h
1568 02-03-2009 01:16:38 9.1 C 6.57 g/m*3 9.1 C 0 km/h
1569 02-03-2009 01:28:38 9.1 C 6.57 g/m*3 9.1 C 0 km/h
1570 02-03-2009 01:40:38 9.1 C 6.48 g/m*3 9.1 C 0 km/h
1571 02-03-2009 01:52:38 9 C 6.61 g/m*3 9 C 0 km/h
1572 02-03-2009 02:04:38 8.9 C 6.66 g/m*3 8.9 C 0 km/h
1573 02-03-2009 02:16:38 8.8 C 6.7 g/m*3 8.8 C 0 km/h
1574 02-03-2009 02:28:38 8.7 C 6.75 g/m*3 8.7 C 0 km/h
1575 02-03-2009 02:40:38 8.6 C 6.7 g/m*3 8.6 C 0 km/h
Sensor: Nr:Datum:Temp:Abs-Feuchte:Windchill:Wind:
Aussen-T/F 1576 02-03-2009 02:52:38 8.6 C 6.79 g/m*3 8.6 C 0 km/h
1577 02-03-2009 03:04:38 8.7 C 6.92 g/m*3 8.7 C 0 km/h
1578 02-03-2009 03:16:38 8.5 C 7 g/m*3 8.5 C 0 km/h
1579 02-03-2009 03:28:38 8.5 C 7 g/m*3 8.5 C 0 km/h
1580 02-03-2009 03:40:38 8.5 C 7.09 g/m*3 8.5 C 0 km/h
1581 02-03-2009 03:52:38 8.4 C 7.04 g/m*3 8.4 C 0 km/h
1582 02-03-2009 04:04:39 8.4 C 7.13 g/m*3 8.4 C 0 km/h
1583 02-03-2009 04:16:39 8.4 C 7.21 g/m*3 8.4 C 0 km/h
1584 02-03-2009 04:28:39 8.3 C 7.25 g/m*3 8.3 C 0 km/h
1585 02-03-2009 04:40:39 8.3 C 7.25 g/m*3 8.3 C 0 km/h
1586 02-03-2009 04:52:39 8.3 C 7.33 g/m*3 8.3 C 0 km/h
1587 02-03-2009 05:04:39 8.2 C 7.29 g/m*3 8.2 C 0 km/h
1588 02-03-2009 05:16:39 8.2 C 7.29 g/m*3 8.2 C 0 km/h
1589 02-03-2009 05:28:39 8.2 C 7.29 g/m*3 8.2 C 0 km/h
1590 02-03-2009 05:40:39 8.1 C 7.24 g/m*3 8.1 C 0 km/h
1591 02-03-2009 05:52:39 8.1 C 7.16 g/m*3 8.1 C 0 km/h
1592 02-03-2009 06:04:39 8.2 C 7.2 g/m*3 8.2 C 0 km/h
1593 02-03-2009 06:16:39 8.2 C 7.12 g/m*3 8.2 C 0 km/h
1594 02-03-2009 06:28:39 8.2 C 7.12 g/m*3 8.2 C 0 km/h
1595 02-03-2009 06:40:39 8.1 C 7.07 g/m*3 8.1 C 0 km/h
1596 02-03-2009 06:52:39 8.2 C 7.12 g/m*3 8.2 C 0 km/h
1597 02-03-2009 07:04:37 8.2 C 7.2 g/m*3 8.2 C 0 km/h
1598 02-03-2009 07:16:37 8.4 C 7.21 g/m*3 8.4 C 0 km/h
1599 02-03-2009 07:28:37 8.4 C 7.13 g/m*3 8.4 C 0 km/h
1600 02-03-2009 07:40:37 8.4 C 7.04 g/m*3 8.4 C 0 km/h
Sensor: Nr:Datum:Temp:Abs-Feuchte:Windchill:Wind:
Aussen-T/F 1601 02-03-2009 07:52:38 8.3 C 6.91 g/m*3 8.3 C 0 km/h
1602 02-03-2009 08:04:37 8.3 C 7 g/m*3 8.3 C 0 km/h
1603 02-03-2009 08:16:36 8.3 C 7 g/m*3 8.3 C 0 km/h
1604 02-03-2009 08:28:37 8.2 C 7.03 g/m*3 8.2 C 0 km/h
1605 02-03-2009 08:40:36 8.2 C 7.03 g/m*3 8.2 C 0 km/h
1606 02-03-2009 08:52:36 8.1 C 6.99 g/m*3 8.1 C 0 km/h
1607 02-03-2009 09:04:36 8.1 C 7.07 g/m*3 8.1 C 0 km/h
1608 02-03-2009 09:16:35 8.1 C 7.07 g/m*3 8.1 C 0 km/h
1609 02-03-2009 09:28:35 8.1 C 7.07 g/m*3 8.1 C 0 km/h
1610 02-03-2009 09:40:36 8.1 C 7.16 g/m*3 8.1 C 0 km/h
1611 02-03-2009 09:52:35 8.1 C 7.16 g/m*3 8.1 C 0 km/h
1612 02-03-2009 10:04:35 8.1 C 7.24 g/m*3 8.1 C 0 km/h
1613 02-03-2009 10:16:36 8.2 C 7.29 g/m*3 8.2 C 0 km/h
1614 02-03-2009 10:28:36 8 C 7.19 g/m*3 8 C 0 km/h
1615 02-03-2009 10:40:35 8.1 C 7.07 g/m*3 8.1 C 0 km/h
1616 02-03-2009 10:52:35 8.2 C 7.03 g/m*3 8.2 C 0 km/h
1617 02-03-2009 11:04:35 8.2 C 6.95 g/m*3 8.2 C 0 km/h
1618 02-03-2009 11:16:35 8.1 C 6.82 g/m*3 8.1 C 0 km/h
1619 02-03-2009 11:28:35 8 C 6.7 g/m*3 8 C 0 km/h
1620 02-03-2009 11:40:34 8 C 6.7 g/m*3 8 C 0 km/h
1621 02-03-2009 11:52:35 8.2 C 6.87 g/m*3 8.2 C 0 km/h
1622 02-03-2009 12:04:34 8.6 C 6.96 g/m*3 8.6 C 0 km/h
1623 02-03-2009 12:16:34 8.8 C 6.7 g/m*3 8.8 C 0 km/h
1624 02-03-2009 12:28:34 8.9 C 6.31 g/m*3 8.9 C 0 km/h
1625 02-03-2009 12:40:34 8.7 C 6.05 g/m*3 8.7 C 0 km/h
Sensor: Nr:Datum:Temp:Abs-Feuchte:Windchill:Wind:
Aussen-T/F 1626 02-03-2009 12:52:34 9.5 C 6.1 g/m*3 9.5 C 0 km/h
1627 02-03-2009 13:04:34 9.2 C 5.45 g/m*3 9.2 C 0 km/h
1628 02-03-2009 13:16:33 9 C 5.2 g/m*3 9 C 0 km/h
1629 02-03-2009 13:28:33 9.3 C 5.3 g/m*3 9.3 C 0 km/h
1630 02-03-2009 13:40:34 9.8 C 5.38 g/m*3 9.8 C 0 km/h
1631 02-03-2009 13:52:33 10.6 C 5.08 g/m*3 10.6 C 0 km/h
1632 02-03-2009 14:04:33 10.1 C 4.54 g/m*3 10.1 C 0 km/h
1633 02-03-2009 14:16:33 10.2 C 4.57 g/m*3 10.2 C 0 km/h
1634 02-03-2009 14:28:33 10.7 C 4.62 g/m*3 10.7 C 0 km/h
1635 02-03-2009 14:40:33 10.4 C 4.43 g/m*3 10.4 C 0 km/h
1636 02-03-2009 14:52:32 10.4 C 4.53 g/m*3 10.4 C 0 km/h
1637 02-03-2009 15:04:33 10.3 C 4.31 g/m*3 10.3 C 0 km/h
1638 02-03-2009 15:16:33 10.3 C 4.31 g/m*3 10.3 C 0 km/h
1639 02-03-2009 15:28:33 10.2 C 4.28 g/m*3 10.2 C 0 km/h
1640 02-03-2009 15:40:32 10.8 C 4.45 g/m*3 10.8 C 0 km/h
1641 02-03-2009 15:52:32 10.7 C 4.42 g/m*3 10.7 C 0 km/h
1642 02-03-2009 16:04:32 10.5 C 4.27 g/m*3 10.5 C 0 km/h
1643 02-03-2009 16:16:32 10.3 C 4.31 g/m*3 10.3 C 0 km/h
1644 02-03-2009 16:28:33 10 C 4.32 g/m*3 10 C 0 km/h
1645 02-03-2009 16:40:31 10 C 4.32 g/m*3 10 C 0 km/h
1646 02-03-2009 16:52:32 9.8 C 4.36 g/m*3 9.8 C 0 km/h
1647 02-03-2009 17:04:31 9.7 C 4.61 g/m*3 9.7 C 0 km/h
1648 02-03-2009 17:16:31 9.5 C 4.55 g/m*3 9.5 C 0 km/h
1649 02-03-2009 17:28:31 9.2 C 4.46 g/m*3 9.2 C 0 km/h
1650 02-03-2009 17:40:32 8.9 C 4.56 g/m*3 8.9 C 0 km/h
Sensor: Nr:Datum:Temp:Abs-Feuchte:Windchill:Wind:
Aussen-T/F 1651 02-03-2009 17:52:31 8.5 C 4.53 g/m*3 8.5 C 0 km/h
1652 02-03-2009 18:04:31 8.3 C 4.55 g/m*3 8.3 C 0 km/h
1653 02-03-2009 18:16:31 8.1 C 4.66 g/m*3 8.1 C 0 km/h
1654 02-03-2009 18:28:31 7.8 C 4.65 g/m*3 7.8 C 0 km/h
1655 02-03-2009 18:40:30 7.8 C 4.65 g/m*3 7.8 C 0 km/h
1656 02-03-2009 18:52:31 7.5 C 4.64 g/m*3 7.5 C 0 km/h
1657 02-03-2009 19:04:30 7.6 C 4.59 g/m*3 7.6 C 0 km/h
1658 02-03-2009 19:16:30 7.5 C 4.48 g/m*3 7.5 C 0 km/h
1659 02-03-2009 19:28:30 7.3 C 4.5 g/m*3 7.3 C 0 km/h
1660 02-03-2009 19:40:30 7.1 C 4.52 g/m*3 7.1 C 0 km/h
1661 02-03-2009 19:52:30 6.8 C 4.51 g/m*3 6.8 C 0 km/h
1662 02-03-2009 20:04:29 6.4 C 4.47 g/m*3 6.4 C 0 km/h
1663 02-03-2009 20:16:30 6 C 4.43 g/m*3 6 C 0 km/h
1664 02-03-2009 20:28:30 5.8 C 4.51 g/m*3 5.8 C 0 km/h
1665 02-03-2009 20:40:30 5.4 C 4.4 g/m*3 5.4 C 0 km/h
1666 02-03-2009 20:52:29 5.1 C 4.45 g/m*3 5.1 C 0 km/h
1667 02-03-2009 21:04:29 4.8 C 4.49 g/m*3 4.8 C 0 km/h
1668 02-03-2009 21:16:29 4.6 C 4.5 g/m*3 4.6 C 0 km/h
1669 02-03-2009 21:28:29 4.4 C 4.51 g/m*3 4.4 C 0 km/h
1670 02-03-2009 21:40:29 4.1 C 4.48 g/m*3 4.1 C 0 km/h
1671 02-03-2009 21:52:29 3.9 C 4.55 g/m*3 3.9 C 0 km/h
1672 02-03-2009 22:04:29 3.7 C 4.55 g/m*3 3.7 C 0 km/h
1673 02-03-2009 22:16:28 3.7 C 4.55 g/m*3 3.7 C 0 km/h
1674 02-03-2009 22:28:28 3.5 C 4.55 g/m*3 3.5 C 0 km/h
1675 02-03-2009 22:40:29 3.4 C 4.52 g/m*3 3.4 C 0 km/h
Sensor: Nr:Datum:Temp:Abs-Feuchte:Windchill:Wind:
Aussen-T/F 1676 02-03-2009 22:53:29 3 C 4.52 g/m*3 3 C 0 km/h
1677 02-03-2009 23:05:29 2.8 C 4.58 g/m*3 2.8 C 0 km/h
1678 02-03-2009 23:17:29 2.7 C 4.54 g/m*3 2.7 C 0 km/h
1679 02-03-2009 23:29:29 2.9 C 4.72 g/m*3 2.9 C 0 km/h
1680 02-03-2009 23:41:29 3.1 C 4.73 g/m*3 3.1 C 0 km/h
1681 02-03-2009 23:53:29 2.8 C 4.63 g/m*3 2.8 C 0 km/h
1682 03-03-2009 00:05:29 2.6 C 4.57 g/m*3 2.6 C 0 km/h
1683 03-03-2009 00:17:30 2.9 C 4.67 g/m*3 2.9 C 0 km/h
1684 03-03-2009 00:29:30 3.1 C 4.61 g/m*3 3.1 C 0 km/h
1685 03-03-2009 00:41:30 3 C 4.52 g/m*3 3 C 0 km/h
1686 03-03-2009 00:53:30 2.9 C 4.55 g/m*3 2.9 C 0 km/h
1687 03-03-2009 01:05:30 3 C 4.52 g/m*3 3 C 0 km/h
1688 03-03-2009 01:17:30 3 C 4.46 g/m*3 3 C 0 km/h
1689 03-03-2009 01:29:30 3.1 C 4.43 g/m*3 3.1 C 0 km/h
1690 03-03-2009 01:41:30 3 C 4.4 g/m*3 3 C 0 km/h
1691 03-03-2009 01:53:30 2.8 C 4.4 g/m*3 2.8 C 0 km/h
1692 03-03-2009 02:05:30 2.6 C 4.34 g/m*3 2.6 C 0 km/h
1693 03-03-2009 02:17:30 2.4 C 4.28 g/m*3 2.4 C 0 km/h
1694 03-03-2009 02:29:30 2.3 C 4.31 g/m*3 2.3 C 0 km/h
1695 03-03-2009 02:41:30 2.2 C 4.28 g/m*3 2.2 C 0 km/h
1696 03-03-2009 02:53:30 2.1 C 4.36 g/m*3 2.1 C 0 km/h
1697 03-03-2009 03:05:30 1.9 C 4.42 g/m*3 1.9 C 0 km/h
1698 03-03-2009 03:17:30 1.6 C 4.27 g/m*3 1.6 C 0 km/h
1699 03-03-2009 03:29:30 1.5 C 4.3 g/m*3 1.5 C 0 km/h
1700 03-03-2009 03:41:30 1.5 C 4.35 g/m*3 1.5 C 0 km/h
Sensor: Nr:Datum:Temp:Abs-Feuchte:Windchill:Wind:
Aussen-T/F 1701 03-03-2009 03:53:30 1.2 C 4.31 g/m*3 1.2 C 0 km/h
1702 03-03-2009 04:05:31 1.2 C 4.31 g/m*3 1.2 C 0 km/h
1703 03-03-2009 04:17:31 1.5 C 4.46 g/m*3 1.5 C 0 km/h
1704 03-03-2009 04:29:31 1.4 C 4.43 g/m*3 1.4 C 0 km/h
1705 03-03-2009 04:41:31 1.3 C 4.4 g/m*3 1.3 C 0 km/h
1706 03-03-2009 04:53:31 1 C 4.26 g/m*3 1 C 0 km/h
1707 03-03-2009 05:05:31 0.7 C 4.22 g/m*3 0.7 C 0 km/h
1708 03-03-2009 05:17:31 0.5 C 4.16 g/m*3 0.5 C 0 km/h
1709 03-03-2009 05:29:31 0.3 C 4.11 g/m*3 0.3 C 0 km/h
1710 03-03-2009 05:41:31 0.3 C 4.11 g/m*3 0.3 C 0 km/h
1711 03-03-2009 05:53:31 0.1 C 4.1 g/m*3 0.1 C 0 km/h
1712 03-03-2009 06:05:31 0 C 4.07 g/m*3 0 C 0 km/h
1713 03-03-2009 06:17:31 -0.1 C 4.04 g/m*3 -0.1 C 0 km/h
1714 03-03-2009 06:29:31 0 C 4.07 g/m*3 0 C 0 km/h
1715 03-03-2009 06:41:31 -0.1 C 4.04 g/m*3 -0.1 C 0 km/h
1716 03-03-2009 06:53:31 -0.2 C 4.01 g/m*3 -0.2 C 0 km/h
1717 03-03-2009 07:05:29 -0.3 C 3.99 g/m*3 -0.3 C 0 km/h
1718 03-03-2009 07:17:28 -0.4 C 3.96 g/m*3 -0.4 C 0 km/h
1719 03-03-2009 07:29:28 -0.4 C 3.96 g/m*3 -0.4 C 0 km/h
1720 03-03-2009 07:41:29 -0.4 C 4.01 g/m*3 -0.4 C 0 km/h
1721 03-03-2009 07:53:28 -0.4 C 4.01 g/m*3 -0.4 C 0 km/h
1722 03-03-2009 08:05:28 -0.3 C 4.03 g/m*3 -0.3 C 0 km/h
1723 03-03-2009 08:17:28 -0.2 C 4.11 g/m*3 -0.2 C 0 km/h
1724 03-03-2009 08:29:28 -0.1 C 4.14 g/m*3 -0.1 C 0 km/h
1725 03-03-2009 08:41:28 0.1 C 4.24 g/m*3 0.1 C 0 km/h
Sensor: Nr:Datum:Temp:Abs-Feuchte:Windchill:Wind:
Aussen-T/F 1726 03-03-2009 08:53:27 0.4 C 4.33 g/m*3 0.4 C 0 km/h
1727 03-03-2009 09:05:28 0.9 C 4.48 g/m*3 0.9 C 0 km/h
1728 03-03-2009 09:17:27 1.2 C 4.47 g/m*3 1.2 C 0 km/h
1729 03-03-2009 09:29:27 1.2 C 4.42 g/m*3 1.2 C 0 km/h
1730 03-03-2009 09:41:28 1.3 C 4.4 g/m*3 1.3 C 0 km/h
1731 03-03-2009 09:53:27 1.7 C 4.52 g/m*3 1.7 C 0 km/h
1732 03-03-2009 10:05:27 2.1 C 4.59 g/m*3 2.1 C 0 km/h
1733 03-03-2009 10:17:27 2.6 C 4.69 g/m*3 2.6 C 0 km/h
1734 03-03-2009 10:29:27 3.1 C 4.79 g/m*3 3.1 C 0 km/h
1735 03-03-2009 10:41:27 3.7 C 4.8 g/m*3 3.7 C 0 km/h
1736 03-03-2009 10:53:27 4.3 C 4.8 g/m*3 4.3 C 0 km/h
1737 03-03-2009 11:05:26 5 C 4.62 g/m*3 5 C 0 km/h
1738 03-03-2009 11:17:27 5.3 C 4.71 g/m*3 5.3 C 0 km/h
1739 03-03-2009 11:29:27 6.4 C 4.4 g/m*3 6.4 C 0 km/h
1740 03-03-2009 11:41:26 6.7 C 4.41 g/m*3 6.7 C 0 km/h
1741 03-03-2009 11:53:26 7.2 C 4.32 g/m*3 7.2 C 0 km/h
1742 03-03-2009 12:05:26 7.6 C 4.27 g/m*3 7.6 C 0 km/h
1743 03-03-2009 12:17:27 8 C 4.13 g/m*3 8 C 0 km/h
1744 03-03-2009 12:29:27 8.2 C 3.85 g/m*3 8.2 C 0 km/h
1745 03-03-2009 12:41:26 8.7 C 3.89 g/m*3 8.7 C 0 km/h
1746 03-03-2009 12:53:26 9 C 3.61 g/m*3 9 C 0 km/h
1747 03-03-2009 13:05:26 9.3 C 3.5 g/m*3 9.3 C 0 km/h
1748 03-03-2009 13:17:25 9.6 C 3.21 g/m*3 9.6 C 0 km/h
1749 03-03-2009 13:29:25 9.8 C 3.06 g/m*3 9.8 C 0 km/h
1750 03-03-2009 13:41:25 10.5 C 3.01 g/m*3 10.5 C 0 km/h
Sensor: Nr:Datum:Temp:Abs-Feuchte:Windchill:Wind:
Aussen-T/F 1751 03-03-2009 13:53:25 10.8 C 2.97 g/m*3 10.8 C 0 km/h
1752 03-03-2009 14:05:25 11.1 C 2.82 g/m*3 11.1 C 0 km/h
1753 03-03-2009 14:17:24 11 C 2.7 g/m*3 11 C 0 km/h
1754 03-03-2009 14:29:24 10.7 C 2.55 g/m*3 10.7 C 0 km/h
1755 03-03-2009 14:41:25 11 C 2.5 g/m*3 11 C 0 km/h
1756 03-03-2009 14:53:24 11.8 C 2.53 g/m*3 11.8 C 0 km/h
1757 03-03-2009 15:05:24 11.3 C 2.24 g/m*3 11.3 C 0 km/h
1758 03-03-2009 15:17:24 11 C 2.6 g/m*3 11 C 0 km/h
1759 03-03-2009 15:29:24 11.5 C 2.79 g/m*3 11.5 C 0 km/h
1760 03-03-2009 15:41:24 11.6 C 2.6 g/m*3 11.6 C 0 km/h
1761 03-03-2009 15:53:24 11.2 C 2.33 g/m*3 11.2 C 0 km/h
1762 03-03-2009 16:05:23 10.6 C 2.44 g/m*3 10.6 C 0 km/h
1763 03-03-2009 16:17:24 10.4 C 2.51 g/m*3 10.4 C 0 km/h
1764 03-03-2009 16:29:24 10.5 C 2.52 g/m*3 10.5 C 0 km/h
1765 03-03-2009 16:41:23 10.6 C 2.54 g/m*3 10.6 C 0 km/h
1766 03-03-2009 16:53:23 10.1 C 2.36 g/m*3 10.1 C 0 km/h
1767 03-03-2009 17:05:24 9.9 C 2.61 g/m*3 9.9 C 0 km/h
1768 03-03-2009 17:17:23 10.2 C 2.66 g/m*3 10.2 C 0 km/h
1769 03-03-2009 17:29:23 10.5 C 2.62 g/m*3 10.5 C 0 km/h
1770 03-03-2009 17:41:23 10.2 C 2.47 g/m*3 10.2 C 0 km/h
1771 03-03-2009 17:53:23 9.7 C 2.58 g/m*3 9.7 C 0 km/h
1772 03-03-2009 18:05:23 9.1 C 2.75 g/m*3 9.1 C 0 km/h
1773 03-03-2009 18:17:22 8.2 C 2.93 g/m*3 8.2 C 0 km/h
1774 03-03-2009 18:29:22 7.5 C 3.04 g/m*3 7.5 C 0 km/h
1775 03-03-2009 18:41:23 6.9 C 3.16 g/m*3 6.9 C 0 km/h
Sensor: Nr:Datum:Temp:Abs-Feuchte:Windchill:Wind:
Aussen-T/F 1776 03-03-2009 18:53:22 6.6 C 3.25 g/m*3 6.6 C 0 km/h
1777 03-03-2009 19:05:22 6.4 C 3.2 g/m*3 6.4 C 0 km/h
1778 03-03-2009 19:17:22 6.5 C 3.37 g/m*3 6.5 C 0 km/h
1779 03-03-2009 19:29:22 6.8 C 3.21 g/m*3 6.8 C 0 km/h
1780 03-03-2009 19:41:22 6.7 C 3.27 g/m*3 6.7 C 0 km/h
1781 03-03-2009 19:53:22 6.5 C 3.3 g/m*3 6.5 C 0 km/h
1782 03-03-2009 20:05:21 6.4 C 3.28 g/m*3 6.4 C 0 km/h
1783 03-03-2009 20:17:22 6.4 C 3.2 g/m*3 6.4 C 0 km/h
1784 03-03-2009 20:29:22 6.3 C 3.11 g/m*3 6.3 C 0 km/h
1785 03-03-2009 20:41:21 6.1 C 3.14 g/m*3 6.1 C 0 km/h
1786 03-03-2009 20:53:21 6.2 C 3.09 g/m*3 6.2 C 0 km/h
1787 03-03-2009 21:05:21 6.4 C 3.05 g/m*3 6.4 C 0 km/h
1788 03-03-2009 21:17:21 6 C 2.9 g/m*3 6 C 0 km/h
1789 03-03-2009 21:29:21 5.9 C 2.96 g/m*3 5.9 C 0 km/h
1790 03-03-2009 21:41:20 5.8 C 2.94 g/m*3 5.8 C 0 km/h
1791 03-03-2009 21:53:21 5.8 C 2.87 g/m*3 5.8 C 0 km/h
1792 03-03-2009 22:05:20 5.7 C 3.13 g/m*3 5.7 C 0 km/h
1793 03-03-2009 22:17:20 5.8 C 3.01 g/m*3 5.8 C 0 km/h
1794 03-03-2009 22:29:20 6 C 2.98 g/m*3 6 C 0 km/h
1795 03-03-2009 22:41:20 5.9 C 3.03 g/m*3 5.9 C 0 km/h
1796 03-03-2009 22:54:21 6 C 2.98 g/m*3 6 C 0 km/h
1797 03-03-2009 23:06:22 6.2 C 2.94 g/m*3 6.2 C 0 km/h
1798 03-03-2009 23:18:22 6.4 C 3.05 g/m*3 6.4 C 0 km/h
1799 03-03-2009 23:30:22 6.2 C 3.09 g/m*3 6.2 C 0 km/h
1800 03-03-2009 23:42:22 6.4 C 3.13 g/m*3 6.4 C 0 km/h
Sensor: Nr:Datum:Temp:Abs-Feuchte:Windchill:Wind:
Aussen-T/F 1801 03-03-2009 23:54:22 5.9 C 3.24 g/m*3 5.9 C 0 km/h
1802 04-03-2009 00:06:22 5.5 C 3.23 g/m*3 5.5 C 0 km/h
1803 04-03-2009 00:18:22 5 C 3.26 g/m*3 5 C 0 km/h
1804 04-03-2009 00:30:22 4.5 C 3.48 g/m*3 4.5 C 0 km/h
1805 04-03-2009 00:42:22 4.4 C 3.53 g/m*3 4.4 C 0 km/h
1806 04-03-2009 00:54:22 4.2 C 3.61 g/m*3 4.2 C 0 km/h
1807 04-03-2009 01:06:22 4.3 C 3.63 g/m*3 4.3 C 0 km/h
1808 04-03-2009 01:18:22 4.1 C 3.71 g/m*3 4.1 C 0 km/h
1809 04-03-2009 01:30:22 3.9 C 3.79 g/m*3 3.9 C 0 km/h
1810 04-03-2009 01:42:22 3.7 C 3.8 g/m*3 3.7 C 0 km/h
1811 04-03-2009 01:54:22 3.6 C 3.78 g/m*3 3.6 C 0 km/h
1812 04-03-2009 02:06:22 3.4 C 3.79 g/m*3 3.4 C 0 km/h
1813 04-03-2009 02:18:22 3.3 C 3.88 g/m*3 3.3 C 0 km/h
1814 04-03-2009 02:30:22 3.2 C 3.86 g/m*3 3.2 C 0 km/h
1815 04-03-2009 02:42:22 3.2 C 3.92 g/m*3 3.2 C 0 km/h
1816 04-03-2009 02:54:22 3.1 C 3.95 g/m*3 3.1 C 0 km/h
1817 04-03-2009 03:06:23 2.9 C 3.9 g/m*3 2.9 C 0 km/h
1818 04-03-2009 03:18:23 2.7 C 3.9 g/m*3 2.7 C 0 km/h
1819 04-03-2009 03:30:23 2.7 C 3.96 g/m*3 2.7 C 0 km/h
1820 04-03-2009 03:42:23 2.8 C 4.05 g/m*3 2.8 C 0 km/h
1821 04-03-2009 03:54:23 2.8 C 4.05 g/m*3 2.8 C 0 km/h
1822 04-03-2009 04:06:23 2.8 C 4.11 g/m*3 2.8 C 0 km/h
1823 04-03-2009 04:18:23 2.6 C 4.05 g/m*3 2.6 C 0 km/h
1824 04-03-2009 04:30:23 2.5 C 4.02 g/m*3 2.5 C 0 km/h
1825 04-03-2009 04:42:23 2.5 C 4.08 g/m*3 2.5 C 0 km/h
Sensor: Nr:Datum:Temp:Abs-Feuchte:Windchill:Wind:
Aussen-T/F 1826 04-03-2009 04:54:23 2.4 C 4.05 g/m*3 2.4 C 0 km/h
1827 04-03-2009 05:06:23 2.5 C 4.14 g/m*3 2.5 C 0 km/h
1828 04-03-2009 05:18:23 2.7 C 4.14 g/m*3 2.7 C 0 km/h
1829 04-03-2009 05:30:23 3 C 4.1 g/m*3 3 C 0 km/h
1830 04-03-2009 05:42:23 3.1 C 4.07 g/m*3 3.1 C 0 km/h
1831 04-03-2009 05:54:23 3.2 C 4.04 g/m*3 3.2 C 0 km/h
1832 04-03-2009 06:06:23 3.4 C 4.03 g/m*3 3.4 C 0 km/h
1833 04-03-2009 06:18:23 3.5 C 4.06 g/m*3 3.5 C 0 km/h
1834 04-03-2009 06:30:23 3.5 C 4 g/m*3 3.5 C 0 km/h
1835 04-03-2009 06:42:23 3.4 C 4.03 g/m*3 3.4 C 0 km/h
1836 04-03-2009 06:54:23 3.5 C 4 g/m*3 3.5 C 0 km/h
1837 04-03-2009 07:06:20 3.6 C 4.02 g/m*3 3.6 C 0 km/h
1838 04-03-2009 07:18:21 3.7 C 4.05 g/m*3 3.7 C 0 km/h
1839 04-03-2009 07:30:21 3.8 C 4.02 g/m*3 3.8 C 0 km/h
1840 04-03-2009 07:42:21 3.7 C 4.05 g/m*3 3.7 C 0 km/h
1841 04-03-2009 07:54:20 3.8 C 4.08 g/m*3 3.8 C 0 km/h
1842 04-03-2009 08:06:21 3.9 C 4.04 g/m*3 3.9 C 0 km/h
1843 04-03-2009 08:18:20 4 C 4.07 g/m*3 4 C 0 km/h
1844 04-03-2009 08:30:20 4.1 C 4.03 g/m*3 4.1 C 0 km/h
1845 04-03-2009 08:42:20 4.2 C 4.06 g/m*3 4.2 C 0 km/h
1846 04-03-2009 08:54:19 4.2 C 4.06 g/m*3 4.2 C 0 km/h
1847 04-03-2009 09:06:20 4.2 C 4.06 g/m*3 4.2 C 0 km/h
1848 04-03-2009 09:18:19 4 C 3.94 g/m*3 4 C 0 km/h
1849 04-03-2009 09:30:20 4.1 C 3.97 g/m*3 4.1 C 0 km/h
1850 04-03-2009 09:42:21 4.3 C 3.96 g/m*3 4.3 C 0 km/h
Sensor: Nr:Datum:Temp:Abs-Feuchte:Windchill:Wind:
Aussen-T/F 1851 04-03-2009 09:54:19 4.9 C 3.98 g/m*3 4.9 C 0 km/h
1852 04-03-2009 10:06:19 5.4 C 3.91 g/m*3 5.4 C 0 km/h
1853 04-03-2009 10:18:18 5.9 C 3.89 g/m*3 5.9 C 0 km/h
1854 04-03-2009 10:30:19 6.1 C 3.87 g/m*3 6.1 C 0 km/h
1855 04-03-2009 10:42:19 6.8 C 3.82 g/m*3 6.8 C 0 km/h
1856 04-03-2009 10:54:18 7.5 C 3.76 g/m*3 7.5 C 0 km/h
1857 04-03-2009 11:06:18 8 C 3.64 g/m*3 8 C 0 km/h
1858 04-03-2009 11:18:19 8.3 C 3.62 g/m*3 8.3 C 0 km/h
1859 04-03-2009 11:30:18 8.6 C 3.61 g/m*3 8.6 C 0 km/h
1860 04-03-2009 11:42:18 8.8 C 3.66 g/m*3 8.8 C 0 km/h
1861 04-03-2009 11:54:18 9.1 C 3.73 g/m*3 9.1 C 0 km/h
1862 04-03-2009 12:06:18 9.4 C 3.71 g/m*3 9.4 C 0 km/h
1863 04-03-2009 12:18:18 9.9 C 3.73 g/m*3 9.9 C 0 km/h
1864 04-03-2009 12:30:18 10.3 C 3.54 g/m*3 10.3 C 0 km/h
1865 04-03-2009 12:42:18 10.7 C 3.63 g/m*3 10.7 C 0 km/h
1866 04-03-2009 12:54:18 11.1 C 3.63 g/m*3 11.1 C 0 km/h
1867 04-03-2009 13:06:18 11.8 C 3.37 g/m*3 11.8 C 0 km/h
1868 04-03-2009 13:18:17 12.2 C 3.02 g/m*3 12.2 C 0 km/h
1869 04-03-2009 13:30:17 12.2 C 3.24 g/m*3 12.2 C 0 km/h
1870 04-03-2009 13:42:17 11.5 C 3.41 g/m*3 11.5 C 0 km/h
1871 04-03-2009 13:54:17 11.7 C 3.45 g/m*3 11.7 C 0 km/h
1872 04-03-2009 14:06:17 12 C 3.41 g/m*3 12 C 0 km/h
1873 04-03-2009 14:18:16 12.4 C 3.39 g/m*3 12.4 C 0 km/h
1874 04-03-2009 14:30:17 12.3 C 3.26 g/m*3 12.3 C 0 km/h
1875 04-03-2009 14:42:17 12.7 C 3.34 g/m*3 12.7 C 0 km/h
Sensor: Nr:Datum:Temp:Abs-Feuchte:Windchill:Wind:
Aussen-T/F 1876 04-03-2009 14:54:16 12.9 C 3.38 g/m*3 12.9 C 0 km/h
1877 04-03-2009 15:06:16 13 C 3.18 g/m*3 13 C 0 km/h
1878 04-03-2009 15:18:17 13.3 C 3.23 g/m*3 13.3 C 0 km/h
1879 04-03-2009 15:30:16 12.9 C 3.16 g/m*3 12.9 C 0 km/h
1880 04-03-2009 15:42:16 12.3 C 3.26 g/m*3 12.3 C 0 km/h
1881 04-03-2009 15:54:16 11.9 C 3.39 g/m*3 11.9 C 0 km/h
1882 04-03-2009 16:06:16 11.9 C 3.39 g/m*3 11.9 C 0 km/h
1883 04-03-2009 16:18:16 12.7 C 3.23 g/m*3 12.7 C 0 km/h
1884 04-03-2009 16:30:15 12.3 C 3.37 g/m*3 12.3 C 0 km/h
1885 04-03-2009 16:42:15 12.2 C 3.24 g/m*3 12.2 C 0 km/h
1886 04-03-2009 16:54:15 11.9 C 3.39 g/m*3 11.9 C 0 km/h
1887 04-03-2009 17:06:15 11.7 C 3.24 g/m*3 11.7 C 0 km/h
1888 04-03-2009 17:18:15 11.6 C 3.22 g/m*3 11.6 C 0 km/h
1889 04-03-2009 17:30:15 11.4 C 3.18 g/m*3 11.4 C 0 km/h
1890 04-03-2009 17:42:15 11.3 C 3.16 g/m*3 11.3 C 0 km/h
1891 04-03-2009 17:54:15 11.1 C 3.12 g/m*3 11.1 C 0 km/h
1892 04-03-2009 18:06:15 11 C 3.2 g/m*3 11 C 0 km/h
1893 04-03-2009 18:18:14 10.8 C 3.26 g/m*3 10.8 C 0 km/h
1894 04-03-2009 18:30:14 10.3 C 3.35 g/m*3 10.3 C 0 km/h
1895 04-03-2009 18:42:15 9.7 C 3.6 g/m*3 9.7 C 0 km/h
1896 04-03-2009 18:54:14 9 C 3.7 g/m*3 9 C 0 km/h
1897 04-03-2009 19:06:14 8.9 C 3.77 g/m*3 8.9 C 0 km/h
1898 04-03-2009 19:18:13 8.7 C 3.89 g/m*3 8.7 C 0 km/h
1899 04-03-2009 19:30:14 8.8 C 3.74 g/m*3 8.8 C 0 km/h
1900 04-03-2009 19:42:14 8.6 C 3.87 g/m*3 8.6 C 0 km/h
Sensor: Nr:Datum:Temp:Abs-Feuchte:Windchill:Wind:
Aussen-T/F 1901 04-03-2009 19:54:13 8.9 C 3.85 g/m*3 8.9 C 0 km/h
1902 04-03-2009 20:06:13 8.9 C 3.94 g/m*3 8.9 C 0 km/h
1903 04-03-2009 20:18:14 9 C 3.97 g/m*3 9 C 0 km/h
1904 04-03-2009 20:30:13 9 C 4.06 g/m*3 9 C 0 km/h
1905 04-03-2009 20:42:13 8.9 C 4.2 g/m*3 8.9 C 0 km/h
1906 04-03-2009 20:54:13 8.8 C 4.26 g/m*3 8.8 C 0 km/h
1907 04-03-2009 21:06:13 8.6 C 4.38 g/m*3 8.6 C 0 km/h
1908 04-03-2009 21:18:13 8.5 C 4.44 g/m*3 8.5 C 0 km/h
1909 04-03-2009 21:30:13 8.4 C 4.41 g/m*3 8.4 C 0 km/h
1910 04-03-2009 21:42:13 8.4 C 4.33 g/m*3 8.4 C 0 km/h
1911 04-03-2009 21:54:13 8.5 C 4.35 g/m*3 8.5 C 0 km/h
1912 04-03-2009 22:06:12 8.5 C 4.27 g/m*3 8.5 C 0 km/h
1913 04-03-2009 22:19:15 8.6 C 4.3 g/m*3 8.6 C 0 km/h
1914 04-03-2009 22:31:15 8.4 C 4.33 g/m*3 8.4 C 0 km/h
1915 04-03-2009 22:43:15 8.7 C 4.15 g/m*3 8.7 C 0 km/h
1916 04-03-2009 22:55:15 8.7 C 4.32 g/m*3 8.7 C 0 km/h
1917 04-03-2009 23:07:15 8.6 C 4.3 g/m*3 8.6 C 0 km/h
1918 04-03-2009 23:19:15 8.4 C 4.33 g/m*3 8.4 C 0 km/h
1919 04-03-2009 23:31:15 8.3 C 4.38 g/m*3 8.3 C 0 km/h
1920 04-03-2009 23:43:15 8.1 C 4.41 g/m*3 8.1 C 0 km/h
1921 04-03-2009 23:55:15 8 C 4.55 g/m*3 8 C 0 km/h
1922 05-03-2009 00:07:15 7.9 C 4.6 g/m*3 7.9 C 0 km/h
1923 05-03-2009 00:19:15 7.9 C 4.68 g/m*3 7.9 C 0 km/h
1924 05-03-2009 00:31:15 7.8 C 4.9 g/m*3 7.8 C 0 km/h
1925 05-03-2009 00:43:15 7.6 C 4.99 g/m*3 7.6 C 0 km/h
Sensor: Nr:Datum:Temp:Abs-Feuchte:Windchill:Wind:
Aussen-T/F 1926 05-03-2009 00:55:15 7.5 C 5.12 g/m*3 7.5 C 0 km/h
1927 05-03-2009 01:07:15 7.6 C 5.08 g/m*3 7.6 C 0 km/h
1928 05-03-2009 01:19:15 7.6 C 4.99 g/m*3 7.6 C 0 km/h
1929 05-03-2009 01:31:16 7.6 C 4.91 g/m*3 7.6 C 0 km/h
1930 05-03-2009 01:43:16 7.6 C 4.91 g/m*3 7.6 C 0 km/h
1931 05-03-2009 01:55:16 7.6 C 4.91 g/m*3 7.6 C 0 km/h
1932 05-03-2009 02:07:16 7.6 C 4.91 g/m*3 7.6 C 0 km/h
1933 05-03-2009 02:19:16 7.6 C 4.91 g/m*3 7.6 C 0 km/h
1934 05-03-2009 02:31:16 7.6 C 4.91 g/m*3 7.6 C 0 km/h
1935 05-03-2009 02:43:16 7.6 C 4.91 g/m*3 7.6 C 0 km/h
1936 05-03-2009 02:55:16 7.5 C 4.96 g/m*3 7.5 C 0 km/h
1937 05-03-2009 03:07:16 7.5 C 4.88 g/m*3 7.5 C 0 km/h
1938 05-03-2009 03:19:16 7.6 C 4.91 g/m*3 7.6 C 0 km/h
1939 05-03-2009 03:31:16 7.6 C 4.91 g/m*3 7.6 C 0 km/h
1940 05-03-2009 03:43:16 7.5 C 4.88 g/m*3 7.5 C 0 km/h
1941 05-03-2009 03:55:16 7.4 C 4.93 g/m*3 7.4 C 0 km/h
1942 05-03-2009 04:07:16 7.3 C 4.98 g/m*3 7.3 C 0 km/h
1943 05-03-2009 04:19:16 7.1 C 5.07 g/m*3 7.1 C 0 km/h
1944 05-03-2009 04:31:16 7.1 C 5.15 g/m*3 7.1 C 0 km/h
1945 05-03-2009 04:43:16 7 C 5.11 g/m*3 7 C 0 km/h
1946 05-03-2009 04:55:16 6.7 C 5.24 g/m*3 6.7 C 0 km/h
1947 05-03-2009 05:07:16 6.4 C 5.29 g/m*3 6.4 C 0 km/h
1948 05-03-2009 05:19:16 6.1 C 5.33 g/m*3 6.1 C 0 km/h
1949 05-03-2009 05:31:17 6 C 5.37 g/m*3 6 C 0 km/h
1950 05-03-2009 05:43:17 5.7 C 5.48 g/m*3 5.7 C 0 km/h
Sensor: Nr:Datum:Temp:Abs-Feuchte:Windchill:Wind:
Aussen-T/F 1951 05-03-2009 05:55:17 5.5 C 5.62 g/m*3 5.5 C 0 km/h
1952 05-03-2009 06:07:17 5.4 C 5.65 g/m*3 5.4 C 0 km/h
1953 05-03-2009 06:19:17 5.2 C 5.58 g/m*3 5.2 C 0 km/h
1954 05-03-2009 06:31:17 5.1 C 5.54 g/m*3 5.1 C 0 km/h
1955 05-03-2009 06:43:17 5 C 5.57 g/m*3 5 C 0 km/h
1956 05-03-2009 06:55:17 4.9 C 5.67 g/m*3 4.9 C 0 km/h
1957 05-03-2009 07:07:14 4.9 C 5.74 g/m*3 4.9 C 0 km/h
1958 05-03-2009 07:19:14 4.8 C 5.7 g/m*3 4.8 C 0 km/h
1959 05-03-2009 07:31:14 4.7 C 5.73 g/m*3 4.7 C 0 km/h
1960 05-03-2009 07:43:14 4.7 C 5.73 g/m*3 4.7 C 0 km/h
1961 05-03-2009 07:55:14 4.6 C 5.69 g/m*3 4.6 C 0 km/h
1962 05-03-2009 08:07:13 4.6 C 5.69 g/m*3 4.6 C 0 km/h
1963 05-03-2009 08:19:14 4.4 C 5.62 g/m*3 4.4 C 0 km/h
1964 05-03-2009 08:31:14 4.2 C 5.48 g/m*3 4.2 C 0 km/h
1965 05-03-2009 08:43:14 3.9 C 5.37 g/m*3 3.9 C 0 km/h
1966 05-03-2009 08:55:13 3.6 C 5.26 g/m*3 3.6 C 0 km/h
1967 05-03-2009 09:07:14 3.4 C 5.19 g/m*3 3.4 C 0 km/h
1968 05-03-2009 09:19:13 3.4 C 5.19 g/m*3 3.4 C 0 km/h
1969 05-03-2009 09:31:13 3.5 C 5.29 g/m*3 3.5 C 0 km/h
1970 05-03-2009 09:43:13 3.2 C 5.18 g/m*3 3.2 C 0 km/h
1971 05-03-2009 09:55:13 3.2 C 5.18 g/m*3 3.2 C 0 km/h
1972 05-03-2009 10:07:13 3.1 C 5.15 g/m*3 3.1 C 0 km/h
1973 05-03-2009 10:19:12 3 C 5.11 g/m*3 3 C 0 km/h
1974 05-03-2009 10:31:12 3.1 C 5.15 g/m*3 3.1 C 0 km/h
1975 05-03-2009 10:43:12 3.1 C 5.21 g/m*3 3.1 C 0 km/h
Sensor: Nr:Datum:Temp:Abs-Feuchte:Windchill:Wind:
Aussen-T/F 1976 05-03-2009 10:55:12 2.7 C 5.07 g/m*3 2.7 C 0 km/h
1977 05-03-2009 11:07:12 2.7 C 5.07 g/m*3 2.7 C 0 km/h
1978 05-03-2009 11:19:12 2.6 C 5.03 g/m*3 2.6 C 0 km/h
1979 05-03-2009 11:31:12 2.6 C 5.03 g/m*3 2.6 C 0 km/h
1980 05-03-2009 11:43:12 2.5 C 5 g/m*3 2.5 C 0 km/h
1981 05-03-2009 11:55:12 2.6 C 5.03 g/m*3 2.6 C 0 km/h
1982 05-03-2009 12:07:11 2.6 C 5.09 g/m*3 2.6 C 0 km/h
1983 05-03-2009 12:19:12 2.8 C 5.16 g/m*3 2.8 C 0 km/h
1984 05-03-2009 12:31:11 2.6 C 5.09 g/m*3 2.6 C 0 km/h
1985 05-03-2009 12:43:11 2.8 C 5.16 g/m*3 2.8 C 0 km/h
1986 05-03-2009 12:55:11 3.1 C 5.27 g/m*3 3.1 C 0 km/h
1987 05-03-2009 13:07:11 2.9 C 5.2 g/m*3 2.9 C 0 km/h
1988 05-03-2009 13:19:11 2.9 C 5.2 g/m*3 2.9 C 0 km/h
1989 05-03-2009 13:31:11 2.9 C 5.2 g/m*3 2.9 C 0 km/h
1990 05-03-2009 13:43:11 3 C 5.17 g/m*3 3 C 0 km/h
1991 05-03-2009 13:55:10 3 C 5.17 g/m*3 3 C 0 km/h
1992 05-03-2009 14:07:11 3 C 5.17 g/m*3 3 C 0 km/h
1993 05-03-2009 14:19:10 2.9 C 5.2 g/m*3 2.9 C 0 km/h
1994 05-03-2009 14:31:10 3 C 5.23 g/m*3 3 C 0 km/h
1995 05-03-2009 14:43:10 3 C 5.23 g/m*3 3 C 0 km/h
1996 05-03-2009 14:55:10 3.1 C 5.27 g/m*3 3.1 C 0 km/h
1997 05-03-2009 15:07:10 3 C 5.23 g/m*3 3 C 0 km/h
1998 05-03-2009 15:19:10 3.1 C 5.27 g/m*3 3.1 C 0 km/h
1999 05-03-2009 15:31:09 3 C 5.23 g/m*3 3 C 0 km/h
2000 05-03-2009 15:43:09 3.1 C 5.27 g/m*3 3.1 C 0 km/h
Sensor: Nr:Datum:Temp:Abs-Feuchte:Windchill:Wind:
Aussen-T/F 2001 05-03-2009 15:55:09 3.2 C 5.36 g/m*3 3.2 C 0 km/h
2002 05-03-2009 16:07:09 3.3 C 5.4 g/m*3 3.3 C 0 km/h
2003 05-03-2009 16:19:10 3.2 C 5.36 g/m*3 3.2 C 0 km/h
2004 05-03-2009 16:31:09 3.3 C 5.4 g/m*3 3.3 C 0 km/h
2005 05-03-2009 16:43:09 3.4 C 5.44 g/m*3 3.4 C 0 km/h
2006 05-03-2009 16:55:09 3.5 C 5.47 g/m*3 3.5 C 0 km/h
2007 05-03-2009 17:07:08 3.6 C 5.51 g/m*3 3.6 C 0 km/h
2008 05-03-2009 17:19:09 3.6 C 5.51 g/m*3 3.6 C 0 km/h
2009 05-03-2009 17:31:09 3.6 C 5.51 g/m*3 3.6 C 0 km/h
2010 05-03-2009 17:43:09 3.7 C 5.55 g/m*3 3.7 C 0 km/h
2011 05-03-2009 17:55:08 3.7 C 5.55 g/m*3 3.7 C 0 km/h
2012 05-03-2009 18:07:08 4 C 5.53 g/m*3 4 C 0 km/h
2013 05-03-2009 18:19:09 4 C 5.53 g/m*3 4 C 0 km/h
2014 05-03-2009 18:31:08 4 C 5.53 g/m*3 4 C 0 km/h
2015 05-03-2009 18:43:08 3.9 C 5.56 g/m*3 3.9 C 0 km/h
2016 05-03-2009 18:55:08 4 C 5.59 g/m*3 4 C 0 km/h
2017 05-03-2009 19:07:08 4 C 5.59 g/m*3 4 C 0 km/h
2018 05-03-2009 19:19:07 4 C 5.66 g/m*3 4 C 0 km/h
2019 05-03-2009 19:31:08 4 C 5.66 g/m*3 4 C 0 km/h
2020 05-03-2009 19:43:08 3.8 C 5.65 g/m*3 3.8 C 0 km/h
2021 05-03-2009 19:55:07 3.8 C 5.65 g/m*3 3.8 C 0 km/h
2022 05-03-2009 20:07:07 3.7 C 5.61 g/m*3 3.7 C 0 km/h
2023 05-03-2009 20:19:07 3.7 C 5.55 g/m*3 3.7 C 0 km/h
2024 05-03-2009 20:31:07 3.6 C 5.51 g/m*3 3.6 C 0 km/h
2025 05-03-2009 20:43:07 3.6 C 5.57 g/m*3 3.6 C 0 km/h
Sensor: Nr:Datum:Temp:Abs-Feuchte:Windchill:Wind:
Aussen-T/F 2026 05-03-2009 20:55:06 3.6 C 5.57 g/m*3 3.6 C 0 km/h
2027 05-03-2009 21:07:07 3.5 C 5.53 g/m*3 3.5 C 0 km/h
2028 05-03-2009 21:19:06 3.5 C 5.53 g/m*3 3.5 C 0 km/h
2029 05-03-2009 21:31:06 3.5 C 5.53 g/m*3 3.5 C 0 km/h
2030 05-03-2009 21:43:07 3.4 C 5.5 g/m*3 3.4 C 0 km/h
2031 05-03-2009 21:55:06 3.4 C 5.56 g/m*3 3.4 C 0 km/h
2032 05-03-2009 22:07:06 3.4 C 5.56 g/m*3 3.4 C 0 km/h
2033 05-03-2009 22:19:05 3.4 C 5.56 g/m*3 3.4 C 0 km/h
2034 05-03-2009 22:32:06 3.3 C 5.46 g/m*3 3.3 C 0 km/h
2035 05-03-2009 22:44:06 3.2 C 5.42 g/m*3 3.2 C 0 km/h
2036 05-03-2009 22:56:07 3.1 C 5.39 g/m*3 3.1 C 0 km/h
2037 05-03-2009 23:08:07 3 C 5.35 g/m*3 3 C 0 km/h
2038 05-03-2009 23:20:07 3 C 5.35 g/m*3 3 C 0 km/h
2039 05-03-2009 23:32:07 2.8 C 5.28 g/m*3 2.8 C 0 km/h
2040 05-03-2009 23:44:07 2.8 C 5.28 g/m*3 2.8 C 0 km/h
2041 05-03-2009 23:56:07 2.8 C 5.28 g/m*3 2.8 C 0 km/h
2042 06-03-2009 00:08:07 2.9 C 5.37 g/m*3 2.9 C 0 km/h
2043 06-03-2009 00:20:07 3 C 5.35 g/m*3 3 C 0 km/h
2044 06-03-2009 00:32:07 3 C 5.35 g/m*3 3 C 0 km/h
2045 06-03-2009 00:44:07 3 C 5.35 g/m*3 3 C 0 km/h
2046 06-03-2009 00:56:07 3 C 5.41 g/m*3 3 C 0 km/h
2047 06-03-2009 01:08:07 3.1 C 5.45 g/m*3 3.1 C 0 km/h
2048 06-03-2009 01:20:07 3.1 C 5.45 g/m*3 3.1 C 0 km/h
2049 06-03-2009 01:32:07 3.2 C 5.48 g/m*3 3.2 C 0 km/h
2050 06-03-2009 01:44:07 3.2 C 5.48 g/m*3 3.2 C 0 km/h
Sensor: Nr:Datum:Temp:Abs-Feuchte:Windchill:Wind:
Aussen-T/F 2051 06-03-2009 01:56:07 3.2 C 5.48 g/m*3 3.2 C 0 km/h
2052 06-03-2009 02:08:07 3.2 C 5.48 g/m*3 3.2 C 0 km/h
2053 06-03-2009 02:20:07 3.3 C 5.52 g/m*3 3.3 C 0 km/h
2054 06-03-2009 02:32:07 3.3 C 5.52 g/m*3 3.3 C 0 km/h
2055 06-03-2009 02:44:07 3.3 C 5.52 g/m*3 3.3 C 0 km/h
2056 06-03-2009 02:56:08 3.4 C 5.56 g/m*3 3.4 C 0 km/h
2057 06-03-2009 03:08:08 3.4 C 5.56 g/m*3 3.4 C 0 km/h
2058 06-03-2009 03:20:08 3.4 C 5.56 g/m*3 3.4 C 0 km/h
2059 06-03-2009 03:32:08 3.4 C 5.56 g/m*3 3.4 C 0 km/h
2060 06-03-2009 03:44:08 3.5 C 5.6 g/m*3 3.5 C 0 km/h
2061 06-03-2009 03:56:08 3.5 C 5.6 g/m*3 3.5 C 0 km/h
2062 06-03-2009 04:08:08 3.5 C 5.6 g/m*3 3.5 C 0 km/h
2063 06-03-2009 04:20:08 3.4 C 5.56 g/m*3 3.4 C 0 km/h
2064 06-03-2009 04:32:08 3.4 C 5.56 g/m*3 3.4 C 0 km/h
2065 06-03-2009 04:44:08 3.3 C 5.46 g/m*3 3.3 C 0 km/h
2066 06-03-2009 04:56:08 3.3 C 5.46 g/m*3 3.3 C 0 km/h
2067 06-03-2009 05:08:08 3.3 C 5.46 g/m*3 3.3 C 0 km/h
2068 06-03-2009 05:20:08 3.3 C 5.52 g/m*3 3.3 C 0 km/h
2069 06-03-2009 05:32:08 3.3 C 5.52 g/m*3 3.3 C 0 km/h
2070 06-03-2009 05:44:08 3.3 C 5.52 g/m*3 3.3 C 0 km/h
2071 06-03-2009 05:56:08 3.4 C 5.62 g/m*3 3.4 C 0 km/h
2072 06-03-2009 06:08:08 3.5 C 5.66 g/m*3 3.5 C 0 km/h
2073 06-03-2009 06:20:08 3.6 C 5.69 g/m*3 3.6 C 0 km/h
2074 06-03-2009 06:32:08 3.5 C 5.66 g/m*3 3.5 C 0 km/h
2075 06-03-2009 06:44:08 3.6 C 5.69 g/m*3 3.6 C 0 km/h
Sensor: Nr:Datum:Temp:Abs-Feuchte:Windchill:Wind:
Aussen-T/F 2076 06-03-2009 06:56:08 3.6 C 5.69 g/m*3 3.6 C 0 km/h
2077 06-03-2009 07:08:06 3.5 C 5.66 g/m*3 3.5 C 0 km/h
2078 06-03-2009 07:20:06 3.5 C 5.66 g/m*3 3.5 C 0 km/h
2079 06-03-2009 07:32:06 3.3 C 5.52 g/m*3 3.3 C 0 km/h
2080 06-03-2009 07:44:06 3.3 C 5.58 g/m*3 3.3 C 0 km/h
2081 06-03-2009 07:56:06 3.3 C 5.58 g/m*3 3.3 C 0 km/h
2082 06-03-2009 08:08:05 3.3 C 5.52 g/m*3 3.3 C 0 km/h
2083 06-03-2009 08:20:05 3.3 C 5.52 g/m*3 3.3 C 0 km/h
2084 06-03-2009 08:32:05 3.3 C 5.52 g/m*3 3.3 C 0 km/h
2085 06-03-2009 08:44:05 3.2 C 5.42 g/m*3 3.2 C 0 km/h
2086 06-03-2009 08:56:05 3.3 C 5.46 g/m*3 3.3 C 0 km/h
2087 06-03-2009 09:08:05 3.3 C 5.46 g/m*3 3.3 C 0 km/h
2088 06-03-2009 09:20:05 3.4 C 5.5 g/m*3 3.4 C 0 km/h
2089 06-03-2009 09:32:05 3.4 C 5.44 g/m*3 3.4 C 0 km/h
2090 06-03-2009 09:44:05 3.5 C 5.47 g/m*3 3.5 C 0 km/h
2091 06-03-2009 09:56:05 3.6 C 5.51 g/m*3 3.6 C 0 km/h
2092 06-03-2009 10:08:05 3.6 C 5.51 g/m*3 3.6 C 0 km/h
2093 06-03-2009 10:20:04 3.7 C 5.48 g/m*3 3.7 C 0 km/h
2094 06-03-2009 10:32:04 3.9 C 5.56 g/m*3 3.9 C 0 km/h
2095 06-03-2009 10:44:04 3.8 C 5.52 g/m*3 3.8 C 0 km/h
2096 06-03-2009 10:56:04 3.8 C 5.52 g/m*3 3.8 C 0 km/h
2097 06-03-2009 11:08:04 3.9 C 5.62 g/m*3 3.9 C 0 km/h
2098 06-03-2009 11:20:03 4 C 5.59 g/m*3 4 C 0 km/h
2099 06-03-2009 11:32:04 4.1 C 5.63 g/m*3 4.1 C 0 km/h
2100 06-03-2009 11:44:03 4.1 C 5.63 g/m*3 4.1 C 0 km/h
Sensor: Nr:Datum:Temp:Abs-Feuchte:Windchill:Wind:
Aussen-T/F 2101 06-03-2009 11:56:03 4.2 C 5.67 g/m*3 4.2 C 0 km/h
2102 06-03-2009 12:08:03 4.2 C 5.61 g/m*3 4.2 C 0 km/h
2103 06-03-2009 12:20:04 4.3 C 5.71 g/m*3 4.3 C 0 km/h
2104 06-03-2009 12:32:03 4.3 C 5.71 g/m*3 4.3 C 0 km/h
2105 06-03-2009 12:44:03 4.4 C 5.68 g/m*3 4.4 C 0 km/h
2106 06-03-2009 12:56:03 4.4 C 5.68 g/m*3 4.4 C 0 km/h
2107 06-03-2009 13:08:03 4.5 C 5.65 g/m*3 4.5 C 0 km/h
2108 06-03-2009 13:20:03 4.6 C 5.62 g/m*3 4.6 C 0 km/h
2109 06-03-2009 13:32:02 5 C 5.57 g/m*3 5 C 0 km/h
2110 06-03-2009 13:44:02 5 C 5.57 g/m*3 5 C 0 km/h
2111 06-03-2009 13:56:03 4.8 C 5.57 g/m*3 4.8 C 0 km/h
2112 06-03-2009 14:08:02 4.7 C 5.6 g/m*3 4.7 C 0 km/h
2113 06-03-2009 14:20:02 4.7 C 5.6 g/m*3 4.7 C 0 km/h
2114 06-03-2009 14:32:02 4.8 C 5.57 g/m*3 4.8 C 0 km/h
2115 06-03-2009 14:44:02 4.9 C 5.54 g/m*3 4.9 C 0 km/h
2116 06-03-2009 14:56:02 4.9 C 5.6 g/m*3 4.9 C 0 km/h
2117 06-03-2009 15:08:02 4.8 C 5.5 g/m*3 4.8 C 0 km/h
2118 06-03-2009 15:20:01 4.8 C 5.5 g/m*3 4.8 C 0 km/h
2119 06-03-2009 15:32:01 4.9 C 5.54 g/m*3 4.9 C 0 km/h
2120 06-03-2009 15:44:01 4.9 C 5.54 g/m*3 4.9 C 0 km/h
2121 06-03-2009 15:56:01 4.7 C 5.46 g/m*3 4.7 C 0 km/h
2122 06-03-2009 16:08:01 4.7 C 5.46 g/m*3 4.7 C 0 km/h
2123 06-03-2009 16:20:00 4.6 C 5.43 g/m*3 4.6 C 0 km/h
2124 06-03-2009 16:32:01 4.6 C 5.43 g/m*3 4.6 C 0 km/h
2125 06-03-2009 16:44:00 4.5 C 5.46 g/m*3 4.5 C 0 km/h
Sensor: Nr:Datum:Temp:Abs-Feuchte:Windchill:Wind:
Aussen-T/F 2126 06-03-2009 16:56:00 4.4 C 5.48 g/m*3 4.4 C 0 km/h
2127 06-03-2009 17:08:00 4.4 C 5.48 g/m*3 4.4 C 0 km/h
2128 06-03-2009 17:20:01 4.3 C 5.45 g/m*3 4.3 C 0 km/h
2129 06-03-2009 17:32:00 4.2 C 5.35 g/m*3 4.2 C 0 km/h
2130 06-03-2009 17:44:00 4.2 C 5.35 g/m*3 4.2 C 0 km/h
2131 06-03-2009 17:56:00 4.2 C 5.41 g/m*3 4.2 C 0 km/h
2132 06-03-2009 18:08:00 4.2 C 5.35 g/m*3 4.2 C 0 km/h
2133 06-03-2009 18:20:00 4.1 C 5.25 g/m*3 4.1 C 0 km/h
2134 06-03-2009 18:32:00 4 C 5.28 g/m*3 4 C 0 km/h
2135 06-03-2009 18:44:00 4 C 5.34 g/m*3 4 C 0 km/h
2136 06-03-2009 18:56:00 3.9 C 5.37 g/m*3 3.9 C 0 km/h
2137 06-03-2009 19:08:00 3.9 C 5.31 g/m*3 3.9 C 0 km/h
2138 06-03-2009 19:20:59 4 C 5.21 g/m*3 4 C 0 km/h
2139 06-03-2009 19:32:59 4 C 5.21 g/m*3 4 C 0 km/h
2140 06-03-2009 19:44:59 4 C 5.28 g/m*3 4 C 0 km/h
2141 06-03-2009 19:56:59 3.9 C 5.31 g/m*3 3.9 C 0 km/h
2142 06-03-2009 20:08:59 3.8 C 5.27 g/m*3 3.8 C 0 km/h
2143 06-03-2009 20:20:58 3.8 C 5.27 g/m*3 3.8 C 0 km/h
2144 06-03-2009 20:32:59 3.8 C 5.21 g/m*3 3.8 C 0 km/h
2145 06-03-2009 20:44:58 4 C 5.09 g/m*3 4 C 0 km/h
2146 06-03-2009 20:56:58 3.9 C 5.12 g/m*3 3.9 C 0 km/h
2147 06-03-2009 21:08:59 3.8 C 5.02 g/m*3 3.8 C 0 km/h
2148 06-03-2009 21:20:58 3.7 C 4.86 g/m*3 3.7 C 0 km/h
2149 06-03-2009 21:32:58 3.7 C 4.74 g/m*3 3.7 C 0 km/h
2150 06-03-2009 21:44:58 3.8 C 4.52 g/m*3 3.8 C 0 km/h
Sensor: Nr:Datum:Temp:Abs-Feuchte:Windchill:Wind:
Aussen-T/F 2151 06-03-2009 21:56:58 3.8 C 4.39 g/m*3 3.8 C 0 km/h
2152 06-03-2009 22:08:58 3.8 C 4.27 g/m*3 3.8 C 0 km/h
2153 06-03-2009 22:21:57 3.7 C 4.24 g/m*3 3.7 C 0 km/h
2154 06-03-2009 22:33:57 3.8 C 4.2 g/m*3 3.8 C 0 km/h
2155 06-03-2009 22:45:57 3.8 C 4.27 g/m*3 3.8 C 0 km/h
2156 06-03-2009 22:57:57 3.8 C 4.2 g/m*3 3.8 C 0 km/h
2157 06-03-2009 23:09:57 3.8 C 4.14 g/m*3 3.8 C 0 km/h
2158 06-03-2009 23:21:57 3.7 C 4.11 g/m*3 3.7 C 0 km/h
2159 06-03-2009 23:33:57 3.8 C 4.08 g/m*3 3.8 C 0 km/h
2160 06-03-2009 23:45:57 3.8 C 4.08 g/m*3 3.8 C 0 km/h
2161 06-03-2009 23:57:57 3.8 C 4.02 g/m*3 3.8 C 0 km/h
2162 07-03-2009 00:09:58 3.7 C 3.99 g/m*3 3.7 C 0 km/h
2163 07-03-2009 00:21:58 3.8 C 3.89 g/m*3 3.8 C 0 km/h
2164 07-03-2009 00:33:58 3.8 C 3.83 g/m*3 3.8 C 0 km/h
2165 07-03-2009 00:45:58 3.8 C 3.76 g/m*3 3.8 C 0 km/h
2166 07-03-2009 00:57:58 3.7 C 3.8 g/m*3 3.7 C 0 km/h
2167 07-03-2009 01:09:58 3.6 C 3.9 g/m*3 3.6 C 0 km/h
2168 07-03-2009 01:21:58 3.6 C 3.84 g/m*3 3.6 C 0 km/h
2169 07-03-2009 01:33:58 3.6 C 3.84 g/m*3 3.6 C 0 km/h
2170 07-03-2009 01:45:58 3.5 C 3.81 g/m*3 3.5 C 0 km/h
2171 07-03-2009 01:57:58 3.4 C 3.85 g/m*3 3.4 C 0 km/h
2172 07-03-2009 02:09:58 3.4 C 3.85 g/m*3 3.4 C 0 km/h
2173 07-03-2009 02:21:58 3.4 C 3.85 g/m*3 3.4 C 0 km/h
2174 07-03-2009 02:33:58 3.3 C 3.82 g/m*3 3.3 C 0 km/h
2175 07-03-2009 02:45:58 3.3 C 3.88 g/m*3 3.3 C 0 km/h
Sensor: Nr:Datum:Temp:Abs-Feuchte:Windchill:Wind:
Aussen-T/F 2176 07-03-2009 02:57:58 3.2 C 3.86 g/m*3 3.2 C 0 km/h
2177 07-03-2009 03:09:58 3.1 C 3.89 g/m*3 3.1 C 0 km/h
2178 07-03-2009 03:21:58 3.2 C 3.86 g/m*3 3.2 C 0 km/h
2179 07-03-2009 03:33:58 3.2 C 3.86 g/m*3 3.2 C 0 km/h
2180 07-03-2009 03:45:58 3.2 C 3.86 g/m*3 3.2 C 0 km/h
2181 07-03-2009 03:57:58 3.2 C 3.86 g/m*3 3.2 C 0 km/h
2182 07-03-2009 04:09:59 3.2 C 3.86 g/m*3 3.2 C 0 km/h
2183 07-03-2009 04:21:59 3.2 C 3.86 g/m*3 3.2 C 0 km/h
2184 07-03-2009 04:33:59 3.1 C 3.83 g/m*3 3.1 C 0 km/h
2185 07-03-2009 04:45:59 3.1 C 3.83 g/m*3 3.1 C 0 km/h
2186 07-03-2009 04:57:59 3.2 C 3.8 g/m*3 3.2 C 0 km/h
2187 07-03-2009 05:09:59 3.2 C 3.8 g/m*3 3.2 C 0 km/h
2188 07-03-2009 05:21:59 3.2 C 3.74 g/m*3 3.2 C 0 km/h
2189 07-03-2009 05:33:59 3.1 C 3.77 g/m*3 3.1 C 0 km/h
2190 07-03-2009 05:45:59 3 C 3.75 g/m*3 3 C 0 km/h
2191 07-03-2009 05:57:59 3 C 3.69 g/m*3 3 C 0 km/h
2192 07-03-2009 06:09:59 3 C 3.63 g/m*3 3 C 0 km/h
2193 07-03-2009 06:21:58 3 C 3.57 g/m*3 3 C 0 km/h
2194 07-03-2009 06:33:57 3 C 3.63 g/m*3 3 C 0 km/h
2195 07-03-2009 06:45:57 3 C 3.63 g/m*3 3 C 0 km/h
2196 07-03-2009 06:57:57 3 C 3.63 g/m*3 3 C 0 km/h
2197 07-03-2009 07:09:57 2.9 C 3.66 g/m*3 2.9 C 0 km/h
2198 07-03-2009 07:21:57 2.9 C 3.72 g/m*3 2.9 C 0 km/h
2199 07-03-2009 07:33:57 2.7 C 3.73 g/m*3 2.7 C 0 km/h
2200 07-03-2009 07:45:57 2.6 C 3.76 g/m*3 2.6 C 0 km/h
Sensor: Nr:Datum:Temp:Abs-Feuchte:Windchill:Wind:
Aussen-T/F 2201 07-03-2009 07:57:57 2.7 C 3.79 g/m*3 2.7 C 0 km/h
2202 07-03-2009 08:09:57 2.7 C 3.73 g/m*3 2.7 C 0 km/h
2203 07-03-2009 08:21:56 2.7 C 3.73 g/m*3 2.7 C 0 km/h
2204 07-03-2009 08:33:56 2.6 C 3.65 g/m*3 2.6 C 0 km/h
2205 07-03-2009 08:45:56 2.6 C 3.65 g/m*3 2.6 C 0 km/h
2206 07-03-2009 08:57:56 2.7 C 3.67 g/m*3 2.7 C 0 km/h
2207 07-03-2009 09:09:56 2.7 C 3.67 g/m*3 2.7 C 0 km/h
2208 07-03-2009 09:21:56 3 C 3.69 g/m*3 3 C 0 km/h
2209 07-03-2009 09:33:56 3.3 C 3.7 g/m*3 3.3 C 0 km/h
2210 07-03-2009 09:45:56 3.2 C 3.62 g/m*3 3.2 C 0 km/h
2211 07-03-2009 09:57:56 3.1 C 3.71 g/m*3 3.1 C 0 km/h
2212 07-03-2009 10:09:56 3.2 C 3.8 g/m*3 3.2 C 0 km/h
2213 07-03-2009 10:21:55 3.5 C 3.87 g/m*3 3.5 C 0 km/h
2214 07-03-2009 10:33:55 3.9 C 3.85 g/m*3 3.9 C 0 km/h
2215 07-03-2009 10:45:55 4.5 C 3.94 g/m*3 4.5 C 0 km/h
2216 07-03-2009 10:57:55 5 C 3.87 g/m*3 5 C 0 km/h
2217 07-03-2009 11:09:55 5.1 C 3.97 g/m*3 5.1 C 0 km/h
2218 07-03-2009 11:21:54 5.9 C 3.97 g/m*3 5.9 C 0 km/h
2219 07-03-2009 11:33:55 6.6 C 3.85 g/m*3 6.6 C 0 km/h
2220 07-03-2009 11:45:54 7.2 C 3.77 g/m*3 7.2 C 0 km/h
2221 07-03-2009 11:57:54 7.4 C 3.9 g/m*3 7.4 C 0 km/h
2222 07-03-2009 12:09:54 7.5 C 3.76 g/m*3 7.5 C 0 km/h
2223 07-03-2009 12:21:55 7.6 C 3.63 g/m*3 7.6 C 0 km/h
2224 07-03-2009 12:33:54 7.8 C 3.59 g/m*3 7.8 C 0 km/h
2225 07-03-2009 12:45:54 8.2 C 3.43 g/m*3 8.2 C 0 km/h
Sensor: Nr:Datum:Temp:Abs-Feuchte:Windchill:Wind:
Aussen-T/F 2226 07-03-2009 12:57:54 7.9 C 3.37 g/m*3 7.9 C 0 km/h
2227 07-03-2009 13:09:54 8.5 C 3.24 g/m*3 8.5 C 0 km/h
2228 07-03-2009 13:21:54 8.4 C 3.22 g/m*3 8.4 C 0 km/h
2229 07-03-2009 13:33:54 9 C 3.26 g/m*3 9 C 0 km/h
2230 07-03-2009 13:45:53 8.5 C 3.07 g/m*3 8.5 C 0 km/h
2231 07-03-2009 13:57:53 9.4 C 3.26 g/m*3 9.4 C 0 km/h
2232 07-03-2009 14:09:54 10 C 3.01 g/m*3 10 C 0 km/h
2233 07-03-2009 14:21:53 10.8 C 3.06 g/m*3 10.8 C 0 km/h
2234 07-03-2009 14:33:53 11.3 C 2.96 g/m*3 11.3 C 0 km/h
2235 07-03-2009 14:45:53 11.4 C 2.77 g/m*3 11.4 C 0 km/h
2236 07-03-2009 14:57:53 11.3 C 2.86 g/m*3 11.3 C 0 km/h
2237 07-03-2009 15:09:53 11.8 C 2.74 g/m*3 11.8 C 0 km/h
2238 07-03-2009 15:21:52 11.9 C 2.65 g/m*3 11.9 C 0 km/h
2239 07-03-2009 15:33:52 11 C 3.2 g/m*3 11 C 0 km/h
2240 07-03-2009 15:45:52 10.8 C 3.36 g/m*3 10.8 C 0 km/h
2241 07-03-2009 15:57:52 11 C 3 g/m*3 11 C 0 km/h
2242 07-03-2009 16:09:52 10.7 C 2.75 g/m*3 10.7 C 0 km/h
2243 07-03-2009 16:21:52 10.2 C 2.85 g/m*3 10.2 C 0 km/h
2244 07-03-2009 16:33:52 10.4 C 2.89 g/m*3 10.4 C 0 km/h
2245 07-03-2009 16:45:52 10.6 C 2.73 g/m*3 10.6 C 0 km/h
2246 07-03-2009 16:57:52 10.4 C 2.6 g/m*3 10.4 C 0 km/h
2247 07-03-2009 17:09:51 9.6 C 3.57 g/m*3 9.6 C 0 km/h
2248 07-03-2009 17:21:52 9.2 C 3.75 g/m*3 9.2 C 0 km/h
2249 07-03-2009 17:33:51 8.7 C 3.89 g/m*3 8.7 C 0 km/h
2250 07-03-2009 17:45:51 8.4 C 3.99 g/m*3 8.4 C 0 km/h
Sensor: Nr:Datum:Temp:Abs-Feuchte:Windchill:Wind:
Aussen-T/F 2251 07-03-2009 17:57:51 8 C 4.05 g/m*3 8 C 0 km/h
2252 07-03-2009 18:09:51 7.8 C 4.08 g/m*3 7.8 C 0 km/h
2253 07-03-2009 18:21:51 7.5 C 4.16 g/m*3 7.5 C 0 km/h
2254 07-03-2009 18:33:51 7.2 C 4.16 g/m*3 7.2 C 0 km/h
2255 07-03-2009 18:45:50 6.8 C 4.21 g/m*3 6.8 C 0 km/h
2256 07-03-2009 18:57:50 6.4 C 4.17 g/m*3 6.4 C 0 km/h
2257 07-03-2009 19:09:51 6.2 C 4.27 g/m*3 6.2 C 0 km/h
2258 07-03-2009 19:21:50 5.8 C 4.3 g/m*3 5.8 C 0 km/h
2259 07-03-2009 19:33:50 5.6 C 4.31 g/m*3 5.6 C 0 km/h
2260 07-03-2009 19:45:50 5.3 C 4.23 g/m*3 5.3 C 0 km/h
2261 07-03-2009 19:57:50 5.3 C 4.3 g/m*3 5.3 C 0 km/h
2262 07-03-2009 20:09:50 5.2 C 4.27 g/m*3 5.2 C 0 km/h
2263 07-03-2009 20:21:49 5.6 C 4.38 g/m*3 5.6 C 0 km/h
2264 07-03-2009 20:33:50 6 C 4.28 g/m*3 6 C 0 km/h
2265 07-03-2009 20:45:50 6 C 4.21 g/m*3 6 C 0 km/h
2266 07-03-2009 20:57:50 5.9 C 4.25 g/m*3 5.9 C 0 km/h
2267 07-03-2009 21:09:50 5.9 C 4.25 g/m*3 5.9 C 0 km/h
2268 07-03-2009 21:21:49 5.9 C 4.25 g/m*3 5.9 C 0 km/h
2269 07-03-2009 21:33:49 6 C 4.14 g/m*3 6 C 0 km/h
2270 07-03-2009 21:45:49 6.1 C 4.09 g/m*3 6.1 C 0 km/h
2271 07-03-2009 21:57:49 6.2 C 4.04 g/m*3 6.2 C 0 km/h
2272 07-03-2009 22:09:49 6.4 C 4.1 g/m*3 6.4 C 0 km/h
2273 07-03-2009 22:21:48 6.2 C 4.04 g/m*3 6.2 C 0 km/h
2274 07-03-2009 22:33:49 6.4 C 4.1 g/m*3 6.4 C 0 km/h
2275 07-03-2009 22:46:50 6.4 C 4.17 g/m*3 6.4 C 0 km/h
Sensor: Nr:Datum:Temp:Abs-Feuchte:Windchill:Wind:
Aussen-T/F 2276 07-03-2009 22:58:50 6.2 C 4.19 g/m*3 6.2 C 0 km/h
2277 07-03-2009 23:10:50 6.3 C 4.22 g/m*3 6.3 C 0 km/h
2278 07-03-2009 23:22:50 6.3 C 4.29 g/m*3 6.3 C 0 km/h
2279 07-03-2009 23:34:50 6.5 C 4.12 g/m*3 6.5 C 0 km/h
2280 07-03-2009 23:46:50 6.5 C 4.2 g/m*3 6.5 C 0 km/h
2281 07-03-2009 23:58:50 6.4 C 4.25 g/m*3 6.4 C 0 km/h
2282 08-03-2009 00:10:50 6.3 C 4.22 g/m*3 6.3 C 0 km/h
2283 08-03-2009 00:22:50 6.4 C 4.25 g/m*3 6.4 C 0 km/h
2284 08-03-2009 00:34:50 6.3 C 4.22 g/m*3 6.3 C 0 km/h
2285 08-03-2009 00:46:50 6.3 C 4.29 g/m*3 6.3 C 0 km/h
2286 08-03-2009 00:58:51 6.1 C 4.31 g/m*3 6.1 C 0 km/h
2287 08-03-2009 01:10:51 5.9 C 4.4 g/m*3 5.9 C 0 km/h
2288 08-03-2009 01:22:51 6.1 C 4.38 g/m*3 6.1 C 0 km/h
2289 08-03-2009 01:34:51 6.3 C 4.44 g/m*3 6.3 C 0 km/h
2290 08-03-2009 01:46:51 6.3 C 4.44 g/m*3 6.3 C 0 km/h
2291 08-03-2009 01:58:51 6.5 C 4.35 g/m*3 6.5 C 0 km/h
2292 08-03-2009 02:10:51 6.4 C 4.4 g/m*3 6.4 C 0 km/h
2293 08-03-2009 02:22:51 6.4 C 4.4 g/m*3 6.4 C 0 km/h
2294 08-03-2009 02:34:51 6.4 C 4.4 g/m*3 6.4 C 0 km/h
2295 08-03-2009 02:46:51 6.5 C 4.57 g/m*3 6.5 C 0 km/h
2296 08-03-2009 02:58:51 6.7 C 4.64 g/m*3 6.7 C 0 km/h
2297 08-03-2009 03:10:51 6.6 C 4.6 g/m*3 6.6 C 0 km/h
2298 08-03-2009 03:22:51 6.6 C 4.68 g/m*3 6.6 C 0 km/h
2299 08-03-2009 03:34:51 6.7 C 4.71 g/m*3 6.7 C 0 km/h
2300 08-03-2009 03:46:51 6.9 C 4.77 g/m*3 6.9 C 0 km/h
Sensor: Nr:Datum:Temp:Abs-Feuchte:Windchill:Wind:
Aussen-T/F 2301 08-03-2009 03:58:51 7 C 4.65 g/m*3 7 C 0 km/h
2302 08-03-2009 04:10:51 7.1 C 4.76 g/m*3 7.1 C 0 km/h
2303 08-03-2009 04:22:51 7.1 C 4.76 g/m*3 7.1 C 0 km/h
2304 08-03-2009 04:34:51 7.1 C 4.76 g/m*3 7.1 C 0 km/h
2305 08-03-2009 04:46:52 7.2 C 4.79 g/m*3 7.2 C 0 km/h
2306 08-03-2009 04:58:52 7.2 C 4.79 g/m*3 7.2 C 0 km/h
2307 08-03-2009 05:10:52 7.2 C 4.71 g/m*3 7.2 C 0 km/h
2308 08-03-2009 05:22:52 7.3 C 4.74 g/m*3 7.3 C 0 km/h
2309 08-03-2009 05:34:52 7.2 C 4.71 g/m*3 7.2 C 0 km/h
2310 08-03-2009 05:46:52 7.3 C 4.74 g/m*3 7.3 C 0 km/h
2311 08-03-2009 05:58:52 7.3 C 4.74 g/m*3 7.3 C 0 km/h
2312 08-03-2009 06:10:52 7.2 C 4.79 g/m*3 7.2 C 0 km/h
2313 08-03-2009 06:22:52 7.2 C 4.71 g/m*3 7.2 C 0 km/h
2314 08-03-2009 06:34:52 7.3 C 4.82 g/m*3 7.3 C 0 km/h
2315 08-03-2009 06:46:52 7.3 C 4.82 g/m*3 7.3 C 0 km/h
2316 08-03-2009 06:58:52 7.3 C 4.9 g/m*3 7.3 C 0 km/h
2317 08-03-2009 07:10:52 7.3 C 4.9 g/m*3 7.3 C 0 km/h
2318 08-03-2009 07:22:52 7.3 C 4.98 g/m*3 7.3 C 0 km/h
2319 08-03-2009 07:34:52 7.3 C 4.98 g/m*3 7.3 C 0 km/h
2320 08-03-2009 07:46:49 7.3 C 5.06 g/m*3 7.3 C 0 km/h
2321 08-03-2009 07:58:49 7.4 C 5.17 g/m*3 7.4 C 0 km/h
2322 08-03-2009 08:10:50 7.5 C 5.2 g/m*3 7.5 C 0 km/h
2323 08-03-2009 08:22:50 7.8 C 5.3 g/m*3 7.8 C 0 km/h
2324 08-03-2009 08:34:49 8 C 5.21 g/m*3 8 C 0 km/h
2325 08-03-2009 08:46:49 8.1 C 5.16 g/m*3 8.1 C 0 km/h
Sensor: Nr:Datum:Temp:Abs-Feuchte:Windchill:Wind:
Aussen-T/F 2326 08-03-2009 08:58:49 8 C 5.21 g/m*3 8 C 0 km/h
2327 08-03-2009 09:10:49 8 C 5.21 g/m*3 8 C 0 km/h
2328 08-03-2009 09:22:49 8.2 C 5.28 g/m*3 8.2 C 0 km/h
2329 08-03-2009 09:34:48 8.2 C 5.28 g/m*3 8.2 C 0 km/h
2330 08-03-2009 09:46:49 8.2 C 5.28 g/m*3 8.2 C 0 km/h
2331 08-03-2009 09:58:49 8.2 C 5.28 g/m*3 8.2 C 0 km/h
2332 08-03-2009 10:10:48 8.3 C 5.31 g/m*3 8.3 C 0 km/h
2333 08-03-2009 10:22:48 8.3 C 5.31 g/m*3 8.3 C 0 km/h
2334 08-03-2009 10:34:48 8.3 C 5.39 g/m*3 8.3 C 0 km/h
2335 08-03-2009 10:46:48 8.5 C 5.46 g/m*3 8.5 C 0 km/h
2336 08-03-2009 10:58:48 8.5 C 5.55 g/m*3 8.5 C 0 km/h
2337 08-03-2009 11:10:47 8.5 C 5.64 g/m*3 8.5 C 0 km/h
2338 08-03-2009 11:22:48 8.5 C 5.64 g/m*3 8.5 C 0 km/h
2339 08-03-2009 11:34:48 8.7 C 5.71 g/m*3 8.7 C 0 km/h
2340 08-03-2009 11:46:47 8.6 C 5.67 g/m*3 8.6 C 0 km/h
2341 08-03-2009 11:58:47 8.6 C 5.76 g/m*3 8.6 C 0 km/h
2342 08-03-2009 12:10:48 8.8 C 5.83 g/m*3 8.8 C 0 km/h
2343 08-03-2009 12:22:47 9.1 C 5.68 g/m*3 9.1 C 0 km/h
2344 08-03-2009 12:34:47 9.3 C 5.66 g/m*3 9.3 C 0 km/h
2345 08-03-2009 12:46:46 9.3 C 5.57 g/m*3 9.3 C 0 km/h
2346 08-03-2009 12:58:46 9.1 C 5.77 g/m*3 9.1 C 0 km/h
2347 08-03-2009 13:10:47 8.9 C 6.13 g/m*3 8.9 C 0 km/h
2348 08-03-2009 13:22:46 8.7 C 6.31 g/m*3 8.7 C 0 km/h
2349 08-03-2009 13:34:46 8.9 C 6.48 g/m*3 8.9 C 0 km/h
2350 08-03-2009 13:46:47 9.6 C 6.32 g/m*3 9.6 C 0 km/h
Sensor: Nr:Datum:Temp:Abs-Feuchte:Windchill:Wind:
Aussen-T/F 2351 08-03-2009 13:58:47 10.2 C 6.09 g/m*3 10.2 C 0 km/h
2352 08-03-2009 14:10:46 10.2 C 6 g/m*3 10.2 C 0 km/h
2353 08-03-2009 14:22:46 10.1 C 5.96 g/m*3 10.1 C 0 km/h
2354 08-03-2009 14:34:46 10.4 C 5.98 g/m*3 10.4 C 0 km/h
2355 08-03-2009 14:46:46 10.5 C 5.92 g/m*3 10.5 C 0 km/h
2356 08-03-2009 14:58:46 10.3 C 5.94 g/m*3 10.3 C 0 km/h
2357 08-03-2009 15:10:45 10.2 C 5.9 g/m*3 10.2 C 0 km/h
2358 08-03-2009 15:22:46 9.9 C 6.16 g/m*3 9.9 C 0 km/h
2359 08-03-2009 15:34:45 9.7 C 6.36 g/m*3 9.7 C 0 km/h
2360 08-03-2009 15:46:45 10.1 C 6.24 g/m*3 10.1 C 0 km/h
2361 08-03-2009 15:58:45 9.8 C 6.31 g/m*3 9.8 C 0 km/h
2362 08-03-2009 16:10:45 9.3 C 6.56 g/m*3 9.3 C 0 km/h
2363 08-03-2009 16:22:45 9 C 6.88 g/m*3 9 C 0 km/h
2364 08-03-2009 16:34:45 8.7 C 7.09 g/m*3 8.7 C 0 km/h
2365 08-03-2009 16:46:44 8.5 C 6.92 g/m*3 8.5 C 0 km/h
2366 08-03-2009 16:58:44 8.5 C 6.92 g/m*3 8.5 C 0 km/h
2367 08-03-2009 17:10:45 8.5 C 6.83 g/m*3 8.5 C 0 km/h
2368 08-03-2009 17:22:44 8.4 C 6.87 g/m*3 8.4 C 0 km/h
2369 08-03-2009 17:34:45 8.3 C 6.91 g/m*3 8.3 C 0 km/h
2370 08-03-2009 17:46:44 8.4 C 7.04 g/m*3 8.4 C 0 km/h
2371 08-03-2009 17:58:44 8.3 C 7.08 g/m*3 8.3 C 0 km/h
2372 08-03-2009 18:10:44 8.2 C 7.03 g/m*3 8.2 C 0 km/h
2373 08-03-2009 18:22:44 8.1 C 6.99 g/m*3 8.1 C 0 km/h
2374 08-03-2009 18:34:44 8.1 C 7.07 g/m*3 8.1 C 0 km/h
2375 08-03-2009 18:46:43 8.2 C 6.45 g/m*3 8.2 C 0 km/h
Sensor: Nr:Datum:Temp:Abs-Feuchte:Windchill:Wind:
Aussen-T/F 2376 08-03-2009 18:58:43 8.1 C 6.24 g/m*3 8.1 C 0 km/h
2377 08-03-2009 19:10:44 8.1 C 6.32 g/m*3 8.1 C 0 km/h
2378 08-03-2009 19:22:43 7.7 C 6.24 g/m*3 7.7 C 0 km/h
2379 08-03-2009 19:34:43 7.1 C 6.16 g/m*3 7.1 C 0 km/h
2380 08-03-2009 19:46:43 6.9 C 6.31 g/m*3 6.9 C 0 km/h
2381 08-03-2009 19:58:43 7 C 6.43 g/m*3 7 C 0 km/h
2382 08-03-2009 20:10:43 6.9 C 6.47 g/m*3 6.9 C 0 km/h
2383 08-03-2009 20:22:43 6.9 C 6.54 g/m*3 6.9 C 0 km/h
2384 08-03-2009 20:34:42 6.6 C 6.34 g/m*3 6.6 C 0 km/h
2385 08-03-2009 20:46:43 6.2 C 6.1 g/m*3 6.2 C 0 km/h
2386 08-03-2009 20:58:43 5.8 C 6.02 g/m*3 5.8 C 0 km/h
2387 08-03-2009 21:10:43 5.4 C 5.86 g/m*3 5.4 C 0 km/h
2388 08-03-2009 21:22:42 5.2 C 5.78 g/m*3 5.2 C 0 km/h
2389 08-03-2009 21:34:42 5.1 C 5.75 g/m*3 5.1 C 0 km/h
2390 08-03-2009 21:46:42 5.1 C 5.75 g/m*3 5.1 C 0 km/h
2391 08-03-2009 21:58:42 5 C 5.71 g/m*3 5 C 0 km/h
2392 08-03-2009 22:10:42 4.8 C 5.63 g/m*3 4.8 C 0 km/h
2393 08-03-2009 22:22:41 4.7 C 5.6 g/m*3 4.7 C 0 km/h
2394 08-03-2009 22:34:41 4.6 C 5.56 g/m*3 4.6 C 0 km/h
2395 08-03-2009 22:46:41 4.8 C 5.5 g/m*3 4.8 C 0 km/h
2396 08-03-2009 22:58:41 5.3 C 4.92 g/m*3 5.3 C 0 km/h
2397 08-03-2009 23:10:41 5.3 C 4.71 g/m*3 5.3 C 0 km/h
2398 08-03-2009 23:23:43 4.7 C 4.8 g/m*3 4.7 C 0 km/h
2399 08-03-2009 23:35:43 4.6 C 4.83 g/m*3 4.6 C 0 km/h
2400 08-03-2009 23:47:43 4.5 C 4.8 g/m*3 4.5 C 0 km/h
Sensor: Nr:Datum:Temp:Abs-Feuchte:Windchill:Wind:
Aussen-T/F 2401 08-03-2009 23:59:43 4.4 C 4.77 g/m*3 4.4 C 0 km/h
2402 09-03-2009 00:11:43 4.4 C 4.83 g/m*3 4.4 C 0 km/h
2403 09-03-2009 00:23:43 4.8 C 4.96 g/m*3 4.8 C 0 km/h
2404 09-03-2009 00:35:43 5.1 C 4.79 g/m*3 5.1 C 0 km/h
2405 09-03-2009 00:47:43 5 C 4.69 g/m*3 5 C 0 km/h
2406 09-03-2009 00:59:43 5 C 4.69 g/m*3 5 C 0 km/h
2407 09-03-2009 01:11:43 4.7 C 4.73 g/m*3 4.7 C 0 km/h
2408 09-03-2009 01:23:43 4.7 C 4.2 g/m*3 4.7 C 0 km/h
2409 09-03-2009 01:35:43 4.7 C 4.46 g/m*3 4.7 C 0 km/h
2410 09-03-2009 01:47:43 4.7 C 4.46 g/m*3 4.7 C 0 km/h
2411 09-03-2009 01:59:44 4.7 C 4.06 g/m*3 4.7 C 0 km/h
2412 09-03-2009 02:11:44 4.7 C 3.73 g/m*3 4.7 C 0 km/h
2413 09-03-2009 02:23:44 4.7 C 3.66 g/m*3 4.7 C 0 km/h
2414 09-03-2009 02:35:44 4.3 C 3.63 g/m*3 4.3 C 0 km/h
2415 09-03-2009 02:47:44 3.9 C 3.79 g/m*3 3.9 C 0 km/h
2416 09-03-2009 02:59:44 3.7 C 3.74 g/m*3 3.7 C 0 km/h
2417 09-03-2009 03:11:44 3.6 C 3.71 g/m*3 3.6 C 0 km/h
2418 09-03-2009 03:23:44 3.5 C 3.75 g/m*3 3.5 C 0 km/h
2419 09-03-2009 03:35:44 3.3 C 3.76 g/m*3 3.3 C 0 km/h
2420 09-03-2009 03:47:44 3.3 C 3.94 g/m*3 3.3 C 0 km/h
2421 09-03-2009 03:59:44 3.4 C 4.03 g/m*3 3.4 C 0 km/h
2422 09-03-2009 04:11:44 3.4 C 4.09 g/m*3 3.4 C 0 km/h
2423 09-03-2009 04:23:44 3.6 C 4.15 g/m*3 3.6 C 0 km/h
2424 09-03-2009 04:35:44 3.7 C 4.3 g/m*3 3.7 C 0 km/h
2425 09-03-2009 04:47:44 3.3 C 4.49 g/m*3 3.3 C 0 km/h
Sensor: Nr:Datum:Temp:Abs-Feuchte:Windchill:Wind:
Aussen-T/F 2426 09-03-2009 04:59:44 3.2 C 4.64 g/m*3 3.2 C 0 km/h
2427 09-03-2009 05:11:44 3.1 C 4.67 g/m*3 3.1 C 0 km/h
2428 09-03-2009 05:23:44 3.1 C 4.73 g/m*3 3.1 C 0 km/h
2429 09-03-2009 05:35:44 3 C 4.64 g/m*3 3 C 0 km/h
2430 09-03-2009 05:47:45 3.2 C 4.64 g/m*3 3.2 C 0 km/h
2431 09-03-2009 05:59:45 3.3 C 4.61 g/m*3 3.3 C 0 km/h
2432 09-03-2009 06:11:45 3.1 C 4.67 g/m*3 3.1 C 0 km/h
2433 09-03-2009 06:23:45 2.5 C 4.66 g/m*3 2.5 C 0 km/h
2434 09-03-2009 06:35:45 2.3 C 4.71 g/m*3 2.3 C 0 km/h
2435 09-03-2009 06:47:45 2.1 C 4.7 g/m*3 2.1 C 0 km/h
2436 09-03-2009 06:59:42 2.2 C 4.79 g/m*3 2.2 C 0 km/h
2437 09-03-2009 07:11:42 2.2 C 4.73 g/m*3 2.2 C 0 km/h
2438 09-03-2009 07:23:42 2.1 C 4.42 g/m*3 2.1 C 0 km/h
2439 09-03-2009 07:35:41 2.1 C 4.2 g/m*3 2.1 C 0 km/h
2440 09-03-2009 07:47:42 2 C 3.95 g/m*3 2 C 0 km/h
2441 09-03-2009 07:59:41 2.1 C 3.92 g/m*3 2.1 C 0 km/h
2442 09-03-2009 08:11:41 2.2 C 3.89 g/m*3 2.2 C 0 km/h
2443 09-03-2009 08:23:41 2.6 C 3.82 g/m*3 2.6 C 0 km/h
2444 09-03-2009 08:35:42 2.5 C 3.91 g/m*3 2.5 C 0 km/h
2445 09-03-2009 08:47:41 3 C 3.92 g/m*3 3 C 0 km/h
2446 09-03-2009 08:59:41 3.4 C 3.97 g/m*3 3.4 C 0 km/h
2447 09-03-2009 09:11:41 3.5 C 4 g/m*3 3.5 C 0 km/h
2448 09-03-2009 09:23:40 3.3 C 4 g/m*3 3.3 C 0 km/h
2449 09-03-2009 09:35:41 3.7 C 4.11 g/m*3 3.7 C 0 km/h
2450 09-03-2009 09:47:40 4.2 C 3.99 g/m*3 4.2 C 0 km/h
Sensor: Nr:Datum:Temp:Abs-Feuchte:Windchill:Wind:
Aussen-T/F 2451 09-03-2009 09:59:40 4.5 C 4.01 g/m*3 4.5 C 0 km/h
2452 09-03-2009 10:11:41 4.7 C 4.13 g/m*3 4.7 C 0 km/h
2453 09-03-2009 10:23:40 5.1 C 3.97 g/m*3 5.1 C 0 km/h
2454 09-03-2009 10:35:40 5.3 C 4.02 g/m*3 5.3 C 0 km/h
2455 09-03-2009 10:47:39 5.6 C 4.03 g/m*3 5.6 C 0 km/h
2456 09-03-2009 10:59:40 5.6 C 3.96 g/m*3 5.6 C 0 km/h
2457 09-03-2009 11:11:40 6 C 3.92 g/m*3 6 C 0 km/h
2458 09-03-2009 11:23:40 5.8 C 3.94 g/m*3 5.8 C 0 km/h
2459 09-03-2009 11:35:39 6.4 C 3.95 g/m*3 6.4 C 0 km/h
2460 09-03-2009 11:47:40 6.1 C 3.8 g/m*3 6.1 C 0 km/h
2461 09-03-2009 11:59:39 6.5 C 3.97 g/m*3 6.5 C 0 km/h
2462 09-03-2009 12:11:39 7.2 C 3.92 g/m*3 7.2 C 0 km/h
2463 09-03-2009 12:23:39 7 C 3.56 g/m*3 7 C 0 km/h
2464 09-03-2009 12:35:38 7 C 3.64 g/m*3 7 C 0 km/h
2465 09-03-2009 12:47:39 7.2 C 3.69 g/m*3 7.2 C 0 km/h
2466 09-03-2009 12:59:39 7.7 C 3.49 g/m*3 7.7 C 0 km/h
2467 09-03-2009 13:11:39 7.7 C 3.49 g/m*3 7.7 C 0 km/h
2468 09-03-2009 13:23:38 7.4 C 3.42 g/m*3 7.4 C 0 km/h
2469 09-03-2009 13:35:39 7.5 C 3.52 g/m*3 7.5 C 0 km/h
2470 09-03-2009 13:47:38 7.7 C 3.24 g/m*3 7.7 C 0 km/h
2471 09-03-2009 13:59:38 8 C 3.22 g/m*3 8 C 0 km/h
2472 09-03-2009 14:11:38 7.7 C 3.24 g/m*3 7.7 C 0 km/h
2473 09-03-2009 14:23:38 8.2 C 3.35 g/m*3 8.2 C 0 km/h
2474 09-03-2009 14:35:38 8.4 C 3.48 g/m*3 8.4 C 0 km/h
2475 09-03-2009 14:47:37 8.3 C 3.46 g/m*3 8.3 C 0 km/h
Sensor: Nr:Datum:Temp:Abs-Feuchte:Windchill:Wind:
Aussen-T/F 2476 09-03-2009 14:59:38 7.2 C 3.69 g/m*3 7.2 C 0 km/h
2477 09-03-2009 15:11:38 6.3 C 4 g/m*3 6.3 C 0 km/h
2478 09-03-2009 15:23:37 6.9 C 4.16 g/m*3 6.9 C 0 km/h
2479 09-03-2009 15:35:37 8.1 C 3.83 g/m*3 8.1 C 0 km/h
2480 09-03-2009 15:47:38 8.7 C 3.63 g/m*3 8.7 C 0 km/h
2481 09-03-2009 15:59:37 8.6 C 3.52 g/m*3 8.6 C 0 km/h
2482 09-03-2009 16:11:37 9.5 C 3.55 g/m*3 9.5 C 0 km/h
2483 09-03-2009 16:23:37 8.7 C 3.55 g/m*3 8.7 C 0 km/h
2484 09-03-2009 16:35:36 8.7 C 3.72 g/m*3 8.7 C 0 km/h
2485 09-03-2009 16:47:37 8.8 C 3.74 g/m*3 8.8 C 0 km/h
2486 09-03-2009 16:59:36 9.1 C 3.37 g/m*3 9.1 C 0 km/h
2487 09-03-2009 17:11:36 8.3 C 3.37 g/m*3 8.3 C 0 km/h
2488 09-03-2009 17:23:36 8 C 3.47 g/m*3 8 C 0 km/h
2489 09-03-2009 17:35:37 7.9 C 3.61 g/m*3 7.9 C 0 km/h
2490 09-03-2009 17:47:36 7.5 C 3.68 g/m*3 7.5 C 0 km/h
2491 09-03-2009 17:59:36 7.4 C 3.66 g/m*3 7.4 C 0 km/h
2492 09-03-2009 18:11:36 7.4 C 3.74 g/m*3 7.4 C 0 km/h
2493 09-03-2009 18:23:36 7.3 C 3.71 g/m*3 7.3 C 0 km/h
2494 09-03-2009 18:35:36 7 C 3.87 g/m*3 7 C 0 km/h
2495 09-03-2009 18:47:35 6.7 C 4.1 g/m*3 6.7 C 0 km/h
2496 09-03-2009 18:59:35 6.4 C 4.17 g/m*3 6.4 C 0 km/h
2497 09-03-2009 19:11:35 6.4 C 4.1 g/m*3 6.4 C 0 km/h
2498 09-03-2009 19:23:35 6.2 C 3.82 g/m*3 6.2 C 0 km/h
2499 09-03-2009 19:35:35 6 C 3.85 g/m*3 6 C 0 km/h
2500 09-03-2009 19:47:34 5.8 C 4.01 g/m*3 5.8 C 0 km/h
Sensor: Nr:Datum:Temp:Abs-Feuchte:Windchill:Wind:
Aussen-T/F 2501 09-03-2009 19:59:35 5.8 C 4.08 g/m*3 5.8 C 0 km/h
2502 09-03-2009 20:11:35 5.8 C 4.23 g/m*3 5.8 C 0 km/h
2503 09-03-2009 20:23:35 5.5 C 4.28 g/m*3 5.5 C 0 km/h
2504 09-03-2009 20:35:34 5.2 C 4.34 g/m*3 5.2 C 0 km/h
2505 09-03-2009 20:47:35 4.9 C 4.46 g/m*3 4.9 C 0 km/h
2506 09-03-2009 20:59:34 4.8 C 4.56 g/m*3 4.8 C 0 km/h
2507 09-03-2009 21:11:34 4.6 C 4.57 g/m*3 4.6 C 0 km/h
2508 09-03-2009 21:23:34 4.4 C 4.64 g/m*3 4.4 C 0 km/h
2509 09-03-2009 21:35:34 4 C 4.77 g/m*3 4 C 0 km/h
2510 09-03-2009 21:48:35 3.8 C 4.89 g/m*3 3.8 C 0 km/h
2511 09-03-2009 22:00:35 3.8 C 4.89 g/m*3 3.8 C 0 km/h
2512 09-03-2009 22:12:35 4.1 C 4.86 g/m*3 4.1 C 0 km/h
2513 09-03-2009 22:24:35 3.7 C 4.8 g/m*3 3.7 C 0 km/h
2514 09-03-2009 22:36:35 4 C 4.58 g/m*3 4 C 0 km/h
2515 09-03-2009 22:48:35 3.9 C 4.61 g/m*3 3.9 C 0 km/h
2516 09-03-2009 23:00:35 3.7 C 4.61 g/m*3 3.7 C 0 km/h
2517 09-03-2009 23:12:35 3.5 C 4.61 g/m*3 3.5 C 0 km/h
2518 09-03-2009 23:24:35 3.3 C 4.67 g/m*3 3.3 C 0 km/h
2519 09-03-2009 23:36:35 3.2 C 4.7 g/m*3 3.2 C 0 km/h
2520 09-03-2009 23:48:35 3.4 C 4.83 g/m*3 3.4 C 0 km/h
2521 10-03-2009 00:00:35 3.4 C 4.83 g/m*3 3.4 C 0 km/h
2522 10-03-2009 00:12:35 3.3 C 4.79 g/m*3 3.3 C 0 km/h
2523 10-03-2009 00:24:35 3.4 C 4.89 g/m*3 3.4 C 0 km/h
2524 10-03-2009 00:36:35 3.7 C 4.92 g/m*3 3.7 C 0 km/h
2525 10-03-2009 00:48:35 3.9 C 4.86 g/m*3 3.9 C 0 km/h
Sensor: Nr:Datum:Temp:Abs-Feuchte:Windchill:Wind:
Aussen-T/F 2526 10-03-2009 01:00:35 4.1 C 4.8 g/m*3 4.1 C 0 km/h
2527 10-03-2009 01:12:35 4.2 C 4.77 g/m*3 4.2 C 0 km/h
2528 10-03-2009 01:24:36 4.3 C 4.67 g/m*3 4.3 C 0 km/h
2529 10-03-2009 01:36:36 4.3 C 4.67 g/m*3 4.3 C 0 km/h
2530 10-03-2009 01:48:36 4.4 C 4.64 g/m*3 4.4 C 0 km/h
2531 10-03-2009 02:00:36 4.5 C 4.6 g/m*3 4.5 C 0 km/h
2532 10-03-2009 02:12:36 4.4 C 4.64 g/m*3 4.4 C 0 km/h
2533 10-03-2009 02:24:36 4.6 C 4.57 g/m*3 4.6 C 0 km/h
2534 10-03-2009 02:36:36 4.7 C 4.46 g/m*3 4.7 C 0 km/h
2535 10-03-2009 02:48:36 4.7 C 4.4 g/m*3 4.7 C 0 km/h
2536 10-03-2009 03:00:36 4.7 C 4.4 g/m*3 4.7 C 0 km/h
2537 10-03-2009 03:12:36 4.5 C 4.4 g/m*3 4.5 C 0 km/h
2538 10-03-2009 03:24:36 4.5 C 4.4 g/m*3 4.5 C 0 km/h
2539 10-03-2009 03:36:36 4.5 C 4.4 g/m*3 4.5 C 0 km/h
2540 10-03-2009 03:48:36 4.5 C 4.47 g/m*3 4.5 C 0 km/h
2541 10-03-2009 04:00:36 4.6 C 4.43 g/m*3 4.6 C 0 km/h
2542 10-03-2009 04:12:36 4.5 C 4.4 g/m*3 4.5 C 0 km/h
2543 10-03-2009 04:24:36 4.6 C 4.43 g/m*3 4.6 C 0 km/h
2544 10-03-2009 04:36:36 4.5 C 4.4 g/m*3 4.5 C 0 km/h
2545 10-03-2009 04:48:36 4.4 C 4.44 g/m*3 4.4 C 0 km/h
2546 10-03-2009 05:00:36 4.4 C 4.37 g/m*3 4.4 C 0 km/h
2547 10-03-2009 05:12:37 4.4 C 4.44 g/m*3 4.4 C 0 km/h
2548 10-03-2009 05:24:37 4.4 C 4.44 g/m*3 4.4 C 0 km/h
2549 10-03-2009 05:36:37 4.3 C 4.48 g/m*3 4.3 C 0 km/h
2550 10-03-2009 05:48:37 4.3 C 4.54 g/m*3 4.3 C 0 km/h
Sensor: Nr:Datum:Temp:Abs-Feuchte:Windchill:Wind:
Aussen-T/F 2551 10-03-2009 06:00:37 4.3 C 4.61 g/m*3 4.3 C 0 km/h
2552 10-03-2009 06:12:37 4.1 C 4.61 g/m*3 4.1 C 0 km/h
2553 10-03-2009 06:24:37 4.2 C 4.64 g/m*3 4.2 C 0 km/h
2554 10-03-2009 06:36:37 4.2 C 4.64 g/m*3 4.2 C 0 km/h
2555 10-03-2009 06:48:37 4.3 C 4.67 g/m*3 4.3 C 0 km/h
2556 10-03-2009 07:00:35 4.3 C 4.61 g/m*3 4.3 C 0 km/h
2557 10-03-2009 07:12:35 4.3 C 4.61 g/m*3 4.3 C 0 km/h
2558 10-03-2009 07:24:34 4.2 C 4.64 g/m*3 4.2 C 0 km/h
2559 10-03-2009 07:36:35 4.2 C 4.64 g/m*3 4.2 C 0 km/h
2560 10-03-2009 07:48:34 4.3 C 4.74 g/m*3 4.3 C 0 km/h
2561 10-03-2009 08:00:34 4.5 C 4.73 g/m*3 4.5 C 0 km/h
2562 10-03-2009 08:12:34 4.7 C 4.73 g/m*3 4.7 C 0 km/h
2563 10-03-2009 08:24:35 4.8 C 4.76 g/m*3 4.8 C 0 km/h
2564 10-03-2009 08:36:34 4.9 C 4.73 g/m*3 4.9 C 0 km/h
2565 10-03-2009 08:48:34 5 C 4.69 g/m*3 5 C 0 km/h
2566 10-03-2009 09:00:33 5 C 4.69 g/m*3 5 C 0 km/h
2567 10-03-2009 09:12:33 5.2 C 4.75 g/m*3 5.2 C 0 km/h
2568 10-03-2009 09:24:34 5.2 C 4.68 g/m*3 5.2 C 0 km/h
2569 10-03-2009 09:36:34 5.3 C 4.64 g/m*3 5.3 C 0 km/h
2570 10-03-2009 09:48:33 5.3 C 4.64 g/m*3 5.3 C 0 km/h
2571 10-03-2009 10:00:34 5.4 C 4.6 g/m*3 5.4 C 0 km/h
2572 10-03-2009 10:12:34 5.5 C 4.64 g/m*3 5.5 C 0 km/h
2573 10-03-2009 10:24:33 5.6 C 4.67 g/m*3 5.6 C 0 km/h
2574 10-03-2009 10:36:33 5.7 C 4.63 g/m*3 5.7 C 0 km/h
2575 10-03-2009 10:48:33 5.9 C 4.69 g/m*3 5.9 C 0 km/h
Sensor: Nr:Datum:Temp:Abs-Feuchte:Windchill:Wind:
Aussen-T/F 2576 10-03-2009 11:00:33 6.1 C 4.6 g/m*3 6.1 C 0 km/h
2577 10-03-2009 11:12:33 6.3 C 4.59 g/m*3 6.3 C 0 km/h
2578 10-03-2009 11:24:32 6.4 C 4.62 g/m*3 6.4 C 0 km/h
2579 10-03-2009 11:36:33 6.3 C 4.66 g/m*3 6.3 C 0 km/h
2580 10-03-2009 11:48:32 6.3 C 4.66 g/m*3 6.3 C 0 km/h
2581 10-03-2009 12:00:32 6.4 C 4.69 g/m*3 6.4 C 0 km/h
2582 10-03-2009 12:12:32 6.5 C 4.65 g/m*3 6.5 C 0 km/h
2583 10-03-2009 12:24:32 6.6 C 4.6 g/m*3 6.6 C 0 km/h
2584 10-03-2009 12:36:32 6.5 C 4.57 g/m*3 6.5 C 0 km/h
2585 10-03-2009 12:48:32 6.5 C 4.57 g/m*3 6.5 C 0 km/h
2586 10-03-2009 13:00:31 6.6 C 4.6 g/m*3 6.6 C 0 km/h
2587 10-03-2009 13:12:31 6.7 C 4.64 g/m*3 6.7 C 0 km/h
2588 10-03-2009 13:24:32 6.8 C 4.67 g/m*3 6.8 C 0 km/h
2589 10-03-2009 13:36:31 6.8 C 4.67 g/m*3 6.8 C 0 km/h
2590 10-03-2009 13:48:31 7 C 4.65 g/m*3 7 C 0 km/h
2591 10-03-2009 14:00:31 7.1 C 4.6 g/m*3 7.1 C 0 km/h
2592 10-03-2009 14:12:31 7.1 C 4.52 g/m*3 7.1 C 0 km/h
2593 10-03-2009 14:24:31 7.1 C 4.6 g/m*3 7.1 C 0 km/h
2594 10-03-2009 14:36:31 6.9 C 4.7 g/m*3 6.9 C 0 km/h
2595 10-03-2009 14:48:31 6.8 C 4.74 g/m*3 6.8 C 0 km/h
2596 10-03-2009 15:00:31 6.8 C 4.67 g/m*3 6.8 C 0 km/h
2597 10-03-2009 15:12:31 6.8 C 4.67 g/m*3 6.8 C 0 km/h
2598 10-03-2009 15:24:30 6.6 C 4.6 g/m*3 6.6 C 0 km/h
2599 10-03-2009 15:36:30 6.4 C 4.62 g/m*3 6.4 C 0 km/h
2600 10-03-2009 15:48:30 6.4 C 4.55 g/m*3 6.4 C 0 km/h
Sensor: Nr:Datum:Temp:Abs-Feuchte:Windchill:Wind:
Aussen-T/F 2601 10-03-2009 16:00:30 6.4 C 4.32 g/m*3 6.4 C 0 km/h
2602 10-03-2009 16:12:30 6.4 C 4.47 g/m*3 6.4 C 0 km/h
2603 10-03-2009 16:24:29 5.9 C 4.47 g/m*3 5.9 C 0 km/h
2604 10-03-2009 16:36:30 5.7 C 4.7 g/m*3 5.7 C 0 km/h
2605 10-03-2009 16:48:30 5.4 C 4.74 g/m*3 5.4 C 0 km/h
2606 10-03-2009 17:00:29 5.6 C 4.88 g/m*3 5.6 C 0 km/h
2607 10-03-2009 17:12:29 5.6 C 4.81 g/m*3 5.6 C 0 km/h
2608 10-03-2009 17:24:30 5.8 C 4.87 g/m*3 5.8 C 0 km/h
2609 10-03-2009 17:36:29 5.7 C 4.91 g/m*3 5.7 C 0 km/h
2610 10-03-2009 17:48:29 5.7 C 4.91 g/m*3 5.7 C 0 km/h
2611 10-03-2009 18:00:28 5.8 C 5.01 g/m*3 5.8 C 0 km/h
2612 10-03-2009 18:12:28 5.7 C 5.05 g/m*3 5.7 C 0 km/h
2613 10-03-2009 18:24:29 5.8 C 5.09 g/m*3 5.8 C 0 km/h
2614 10-03-2009 18:36:29 5.8 C 5.09 g/m*3 5.8 C 0 km/h
2615 10-03-2009 18:48:28 5.9 C 5.19 g/m*3 5.9 C 0 km/h
2616 10-03-2009 19:00:29 6 C 5.15 g/m*3 6 C 0 km/h
2617 10-03-2009 19:12:29 6 C 5.23 g/m*3 6 C 0 km/h
2618 10-03-2009 19:24:28 6 C 5.3 g/m*3 6 C 0 km/h
2619 10-03-2009 19:36:28 6 C 5.37 g/m*3 6 C 0 km/h
2620 10-03-2009 19:48:28 5.8 C 5.73 g/m*3 5.8 C 0 km/h
2621 10-03-2009 20:00:28 5.8 C 5.87 g/m*3 5.8 C 0 km/h
2622 10-03-2009 20:12:28 5.8 C 5.95 g/m*3 5.8 C 0 km/h
2623 10-03-2009 20:24:27 5.9 C 5.98 g/m*3 5.9 C 0 km/h
2624 10-03-2009 20:36:27 6.5 C 5.92 g/m*3 6.5 C 0 km/h
2625 10-03-2009 20:48:27 6.9 C 5.62 g/m*3 6.9 C 0 km/h
Sensor: Nr:Datum:Temp:Abs-Feuchte:Windchill:Wind:
Aussen-T/F 2626 10-03-2009 21:00:27 7.2 C 5.34 g/m*3 7.2 C 0 km/h
2627 10-03-2009 21:12:27 7.3 C 5.21 g/m*3 7.3 C 0 km/h
2628 10-03-2009 21:24:27 7.3 C 5.21 g/m*3 7.3 C 0 km/h
2629 10-03-2009 21:36:27 6.8 C 5.51 g/m*3 6.8 C 0 km/h
2630 10-03-2009 21:49:28 6.2 C 5.44 g/m*3 6.2 C 0 km/h
2631 10-03-2009 22:01:28 5.7 C 5.34 g/m*3 5.7 C 0 km/h
2632 10-03-2009 22:13:28 5.6 C 5.3 g/m*3 5.6 C 0 km/h
2633 10-03-2009 22:25:28 5.4 C 5.37 g/m*3 5.4 C 0 km/h
2634 10-03-2009 22:37:28 5.3 C 5.34 g/m*3 5.3 C 0 km/h
2635 10-03-2009 22:49:28 5.2 C 5.51 g/m*3 5.2 C 0 km/h
2636 10-03-2009 23:01:28 5.1 C 5.47 g/m*3 5.1 C 0 km/h
2637 10-03-2009 23:13:28 5.1 C 5.47 g/m*3 5.1 C 0 km/h
2638 10-03-2009 23:25:28 5.2 C 5.37 g/m*3 5.2 C 0 km/h
2639 10-03-2009 23:37:28 5.4 C 5.02 g/m*3 5.4 C 0 km/h
2640 10-03-2009 23:49:28 5.4 C 4.81 g/m*3 5.4 C 0 km/h
2641 11-03-2009 00:01:28 5.5 C 4.64 g/m*3 5.5 C 0 km/h
2642 11-03-2009 00:13:28 5.5 C 4.78 g/m*3 5.5 C 0 km/h
2643 11-03-2009 00:25:28 5.3 C 4.78 g/m*3 5.3 C 0 km/h
2644 11-03-2009 00:37:28 5.1 C 4.72 g/m*3 5.1 C 0 km/h
2645 11-03-2009 00:49:28 5 C 4.69 g/m*3 5 C 0 km/h
2646 11-03-2009 01:01:28 4.8 C 4.69 g/m*3 4.8 C 0 km/h
2647 11-03-2009 01:13:29 4.8 C 4.69 g/m*3 4.8 C 0 km/h
2648 11-03-2009 01:25:29 4.9 C 4.66 g/m*3 4.9 C 0 km/h
2649 11-03-2009 01:37:29 4.9 C 4.66 g/m*3 4.9 C 0 km/h
2650 11-03-2009 01:49:29 4.8 C 4.63 g/m*3 4.8 C 0 km/h
Sensor: Nr:Datum:Temp:Abs-Feuchte:Windchill:Wind:
Aussen-T/F 2651 11-03-2009 02:01:29 4.9 C 4.59 g/m*3 4.9 C 0 km/h
2652 11-03-2009 02:13:29 5 C 4.48 g/m*3 5 C 0 km/h
2653 11-03-2009 02:25:29 4.9 C 4.52 g/m*3 4.9 C 0 km/h
2654 11-03-2009 02:37:29 4.9 C 4.59 g/m*3 4.9 C 0 km/h
2655 11-03-2009 02:49:29 4.8 C 4.56 g/m*3 4.8 C 0 km/h
2656 11-03-2009 03:01:29 4.6 C 4.5 g/m*3 4.6 C 0 km/h
2657 11-03-2009 03:13:29 4.5 C 4.54 g/m*3 4.5 C 0 km/h
2658 11-03-2009 03:25:29 4.5 C 4.54 g/m*3 4.5 C 0 km/h
2659 11-03-2009 03:37:29 4.6 C 4.57 g/m*3 4.6 C 0 km/h
2660 11-03-2009 03:49:29 4.7 C 4.46 g/m*3 4.7 C 0 km/h
2661 11-03-2009 04:01:29 4.7 C 4.46 g/m*3 4.7 C 0 km/h
2662 11-03-2009 04:13:29 4.7 C 4.4 g/m*3 4.7 C 0 km/h
2663 11-03-2009 04:25:29 4.7 C 4.33 g/m*3 4.7 C 0 km/h
2664 11-03-2009 04:37:29 4.7 C 4.33 g/m*3 4.7 C 0 km/h
2665 11-03-2009 04:49:29 4.7 C 4.33 g/m*3 4.7 C 0 km/h
2666 11-03-2009 05:01:30 4.7 C 4.26 g/m*3 4.7 C 0 km/h
2667 11-03-2009 05:13:30 4.6 C 4.23 g/m*3 4.6 C 0 km/h
2668 11-03-2009 05:25:30 4.6 C 4.23 g/m*3 4.6 C 0 km/h
2669 11-03-2009 05:37:30 4.6 C 4.17 g/m*3 4.6 C 0 km/h
2670 11-03-2009 05:49:30 4.6 C 4.17 g/m*3 4.6 C 0 km/h
2671 11-03-2009 06:01:30 4.6 C 4.1 g/m*3 4.6 C 0 km/h
2672 11-03-2009 06:13:30 4.1 C 4.22 g/m*3 4.1 C 0 km/h
2673 11-03-2009 06:25:30 3.9 C 4.55 g/m*3 3.9 C 0 km/h
2674 11-03-2009 06:37:30 3.6 C 4.7 g/m*3 3.6 C 0 km/h
2675 11-03-2009 06:49:30 3.6 C 4.83 g/m*3 3.6 C 0 km/h
Sensor: Nr:Datum:Temp:Abs-Feuchte:Windchill:Wind:
Aussen-T/F 2676 11-03-2009 07:01:27 3.7 C 4.86 g/m*3 3.7 C 0 km/h
2677 11-03-2009 07:13:28 3.9 C 4.86 g/m*3 3.9 C 0 km/h
2678 11-03-2009 07:25:28 3.9 C 4.86 g/m*3 3.9 C 0 km/h
2679 11-03-2009 07:37:27 3.8 C 4.89 g/m*3 3.8 C 0 km/h
2680 11-03-2009 07:49:27 4 C 4.83 g/m*3 4 C 0 km/h
2681 11-03-2009 08:01:27 4.3 C 4.74 g/m*3 4.3 C 0 km/h
2682 11-03-2009 08:13:27 4.5 C 4.6 g/m*3 4.5 C 0 km/h
2683 11-03-2009 08:25:27 4.5 C 4.6 g/m*3 4.5 C 0 km/h
2684 11-03-2009 08:37:26 4.7 C 4.6 g/m*3 4.7 C 0 km/h
2685 11-03-2009 08:49:27 4.9 C 4.59 g/m*3 4.9 C 0 km/h
2686 11-03-2009 09:01:26 4.8 C 4.69 g/m*3 4.8 C 0 km/h
2687 11-03-2009 09:13:26 4.6 C 4.83 g/m*3 4.6 C 0 km/h
2688 11-03-2009 09:25:26 4.6 C 4.83 g/m*3 4.6 C 0 km/h
2689 11-03-2009 09:37:26 4.8 C 4.9 g/m*3 4.8 C 0 km/h
2690 11-03-2009 09:49:26 4.9 C 4.93 g/m*3 4.9 C 0 km/h
2691 11-03-2009 10:01:25 4.9 C 4.79 g/m*3 4.9 C 0 km/h
2692 11-03-2009 10:13:26 5 C 4.69 g/m*3 5 C 0 km/h
2693 11-03-2009 10:25:26 4.8 C 4.69 g/m*3 4.8 C 0 km/h
2694 11-03-2009 10:37:25 4.8 C 4.69 g/m*3 4.8 C 0 km/h
2695 11-03-2009 10:49:25 4.8 C 4.63 g/m*3 4.8 C 0 km/h
2696 11-03-2009 11:01:26 5.2 C 4.54 g/m*3 5.2 C 0 km/h
2697 11-03-2009 11:13:25 5.2 C 4.54 g/m*3 5.2 C 0 km/h
2698 11-03-2009 11:25:25 5.2 C 4.48 g/m*3 5.2 C 0 km/h
2699 11-03-2009 11:37:25 5.4 C 4.47 g/m*3 5.4 C 0 km/h
2700 11-03-2009 11:49:25 5.9 C 4.54 g/m*3 5.9 C 0 km/h
Sensor: Nr:Datum:Temp:Abs-Feuchte:Windchill:Wind:
Aussen-T/F 2701 11-03-2009 12:01:25 6.7 C 4.33 g/m*3 6.7 C 0 km/h
2702 11-03-2009 12:13:24 7.1 C 4.21 g/m*3 7.1 C 0 km/h
2703 11-03-2009 12:25:24 7.4 C 4.29 g/m*3 7.4 C 0 km/h
2704 11-03-2009 12:37:24 7.3 C 3.95 g/m*3 7.3 C 0 km/h
2705 11-03-2009 12:49:24 7.4 C 4.06 g/m*3 7.4 C 0 km/h
2706 11-03-2009 13:01:24 7.1 C 4.06 g/m*3 7.1 C 0 km/h
2707 11-03-2009 13:13:24 6.2 C 4.63 g/m*3 6.2 C 0 km/h
2708 11-03-2009 13:25:24 6.5 C 4.87 g/m*3 6.5 C 0 km/h
2709 11-03-2009 13:37:24 7.3 C 4.82 g/m*3 7.3 C 0 km/h
2710 11-03-2009 13:49:24 7.9 C 4.19 g/m*3 7.9 C 0 km/h
2711 11-03-2009 14:01:23 8 C 3.72 g/m*3 8 C 0 km/h
2712 11-03-2009 14:13:24 8.1 C 3.91 g/m*3 8.1 C 0 km/h
2713 11-03-2009 14:25:24 7.6 C 3.79 g/m*3 7.6 C 0 km/h
2714 11-03-2009 14:37:23 8.5 C 3.5 g/m*3 8.5 C 0 km/h
2715 11-03-2009 14:49:23 8.5 C 3.42 g/m*3 8.5 C 0 km/h
2716 11-03-2009 15:01:23 8.6 C 3.52 g/m*3 8.6 C 0 km/h
2717 11-03-2009 15:13:23 9.3 C 3.5 g/m*3 9.3 C 0 km/h
2718 11-03-2009 15:25:23 9.4 C 3.62 g/m*3 9.4 C 0 km/h
2719 11-03-2009 15:37:23 9.7 C 3.69 g/m*3 9.7 C 0 km/h
2720 11-03-2009 15:49:22 9.1 C 3.64 g/m*3 9.1 C 0 km/h
2721 11-03-2009 16:01:23 8.5 C 3.59 g/m*3 8.5 C 0 km/h
2722 11-03-2009 16:13:22 8.4 C 3.73 g/m*3 8.4 C 0 km/h
2723 11-03-2009 16:25:22 8.5 C 3.84 g/m*3 8.5 C 0 km/h
2724 11-03-2009 16:37:22 8.6 C 3.95 g/m*3 8.6 C 0 km/h
2725 11-03-2009 16:49:22 8.3 C 3.88 g/m*3 8.3 C 0 km/h
Sensor: Nr:Datum:Temp:Abs-Feuchte:Windchill:Wind:
Aussen-T/F 2726 11-03-2009 17:01:22 9.1 C 4.08 g/m*3 9.1 C 0 km/h
2727 11-03-2009 17:13:21 8.5 C 3.67 g/m*3 8.5 C 0 km/h
2728 11-03-2009 17:25:21 8.4 C 3.82 g/m*3 8.4 C 0 km/h
2729 11-03-2009 17:37:22 8.3 C 3.71 g/m*3 8.3 C 0 km/h
2730 11-03-2009 17:49:21 8.3 C 3.71 g/m*3 8.3 C 0 km/h
2731 11-03-2009 18:01:21 8.1 C 3.66 g/m*3 8.1 C 0 km/h
2732 11-03-2009 18:13:22 7.6 C 3.79 g/m*3 7.6 C 0 km/h
2733 11-03-2009 18:25:22 7.1 C 3.9 g/m*3 7.1 C 0 km/h
2734 11-03-2009 18:37:21 6.8 C 4.13 g/m*3 6.8 C 0 km/h
2735 11-03-2009 18:49:21 6.5 C 4.12 g/m*3 6.5 C 0 km/h
2736 11-03-2009 19:01:20 6.4 C 4.17 g/m*3 6.4 C 0 km/h
2737 11-03-2009 19:13:21 6.3 C 4.22 g/m*3 6.3 C 0 km/h
2738 11-03-2009 19:25:21 6.1 C 4.02 g/m*3 6.1 C 0 km/h
2739 11-03-2009 19:37:20 5.8 C 4.01 g/m*3 5.8 C 0 km/h
2740 11-03-2009 19:49:20 5.6 C 4.03 g/m*3 5.6 C 0 km/h
2741 11-03-2009 20:01:20 5.7 C 4.06 g/m*3 5.7 C 0 km/h
2742 11-03-2009 20:13:20 5.8 C 4.01 g/m*3 5.8 C 0 km/h
2743 11-03-2009 20:25:20 5.5 C 4 g/m*3 5.5 C 0 km/h
2744 11-03-2009 20:37:20 5.3 C 4.02 g/m*3 5.3 C 0 km/h
2745 11-03-2009 20:49:20 5.1 C 4.04 g/m*3 5.1 C 0 km/h
2746 11-03-2009 21:01:20 4.8 C 4.09 g/m*3 4.8 C 0 km/h
2747 11-03-2009 21:13:20 4.6 C 4.1 g/m*3 4.6 C 0 km/h
2748 11-03-2009 21:25:20 4.3 C 4.15 g/m*3 4.3 C 0 km/h
2749 11-03-2009 21:37:19 4.2 C 4.19 g/m*3 4.2 C 0 km/h
2750 11-03-2009 21:49:20 4 C 4.13 g/m*3 4 C 0 km/h
Sensor: Nr:Datum:Temp:Abs-Feuchte:Windchill:Wind:
Aussen-T/F 2751 11-03-2009 22:02:20 4.1 C 4.16 g/m*3 4.1 C 0 km/h
2752 11-03-2009 22:14:20 3.7 C 4.18 g/m*3 3.7 C 0 km/h
2753 11-03-2009 22:26:20 3.5 C 4.18 g/m*3 3.5 C 0 km/h
2754 11-03-2009 22:38:20 3.4 C 4.15 g/m*3 3.4 C 0 km/h
2755 11-03-2009 22:50:21 3.1 C 4.13 g/m*3 3.1 C 0 km/h
2756 11-03-2009 23:02:21 3.3 C 4.19 g/m*3 3.3 C 0 km/h
2757 11-03-2009 23:14:21 3 C 4.16 g/m*3 3 C 0 km/h
2758 11-03-2009 23:26:21 2.8 C 4.22 g/m*3 2.8 C 0 km/h
2759 11-03-2009 23:38:21 2.8 C 4.28 g/m*3 2.8 C 0 km/h
2760 11-03-2009 23:50:21 3.1 C 4.25 g/m*3 3.1 C 0 km/h
2761 12-03-2009 00:02:21 3.4 C 4.28 g/m*3 3.4 C 0 km/h
2762 12-03-2009 00:14:21 3.5 C 4.24 g/m*3 3.5 C 0 km/h
2763 12-03-2009 00:26:21 3.5 C 4.18 g/m*3 3.5 C 0 km/h
2764 12-03-2009 00:38:21 3.5 C 4.18 g/m*3 3.5 C 0 km/h
2765 12-03-2009 00:50:21 3.5 C 4.18 g/m*3 3.5 C 0 km/h
2766 12-03-2009 01:02:21 3.5 C 4.18 g/m*3 3.5 C 0 km/h
2767 12-03-2009 01:14:21 3.4 C 4.15 g/m*3 3.4 C 0 km/h
2768 12-03-2009 01:26:21 3.4 C 4.15 g/m*3 3.4 C 0 km/h
2769 12-03-2009 01:38:21 3.4 C 4.21 g/m*3 3.4 C 0 km/h
2770 12-03-2009 01:50:21 3.4 C 4.15 g/m*3 3.4 C 0 km/h
2771 12-03-2009 02:02:21 3.5 C 4.18 g/m*3 3.5 C 0 km/h
2772 12-03-2009 02:14:21 3.4 C 4.15 g/m*3 3.4 C 0 km/h
2773 12-03-2009 02:26:21 3.5 C 4.18 g/m*3 3.5 C 0 km/h
2774 12-03-2009 02:38:22 3.6 C 4.15 g/m*3 3.6 C 0 km/h
2775 12-03-2009 02:50:22 3.6 C 4.15 g/m*3 3.6 C 0 km/h
Sensor: Nr:Datum:Temp:Abs-Feuchte:Windchill:Wind:
Aussen-T/F 2776 12-03-2009 03:02:22 3.8 C 4.08 g/m*3 3.8 C 0 km/h
2777 12-03-2009 03:14:22 3.8 C 4.02 g/m*3 3.8 C 0 km/h
2778 12-03-2009 03:26:22 3.8 C 4.02 g/m*3 3.8 C 0 km/h
2779 12-03-2009 03:38:22 3.9 C 4.04 g/m*3 3.9 C 0 km/h
2780 12-03-2009 03:50:22 4.1 C 3.9 g/m*3 4.1 C 0 km/h
2781 12-03-2009 04:02:22 4 C 3.94 g/m*3 4 C 0 km/h
2782 12-03-2009 04:14:22 4 C 3.94 g/m*3 4 C 0 km/h
2783 12-03-2009 04:26:22 4.1 C 3.97 g/m*3 4.1 C 0 km/h
2784 12-03-2009 04:38:22 4.2 C 3.93 g/m*3 4.2 C 0 km/h
2785 12-03-2009 04:50:22 4.2 C 3.93 g/m*3 4.2 C 0 km/h
2786 12-03-2009 05:02:22 4.4 C 3.92 g/m*3 4.4 C 0 km/h
2787 12-03-2009 05:14:22 4.3 C 3.89 g/m*3 4.3 C 0 km/h
2788 12-03-2009 05:26:22 4.5 C 3.81 g/m*3 4.5 C 0 km/h
2789 12-03-2009 05:38:22 4.6 C 3.9 g/m*3 4.6 C 0 km/h
2790 12-03-2009 05:50:22 4.4 C 3.92 g/m*3 4.4 C 0 km/h
2791 12-03-2009 06:02:22 4.4 C 3.98 g/m*3 4.4 C 0 km/h
2792 12-03-2009 06:14:22 4.5 C 4.01 g/m*3 4.5 C 0 km/h
2793 12-03-2009 06:26:23 4.7 C 4 g/m*3 4.7 C 0 km/h
2794 12-03-2009 06:38:23 4.8 C 3.96 g/m*3 4.8 C 0 km/h
2795 12-03-2009 06:50:23 4.8 C 3.96 g/m*3 4.8 C 0 km/h
2796 12-03-2009 07:02:20 4.7 C 3.93 g/m*3 4.7 C 0 km/h
2797 12-03-2009 07:14:20 4.7 C 4 g/m*3 4.7 C 0 km/h
2798 12-03-2009 07:26:20 4.7 C 4 g/m*3 4.7 C 0 km/h
2799 12-03-2009 07:38:20 4.8 C 4.02 g/m*3 4.8 C 0 km/h
2800 12-03-2009 07:50:19 4.9 C 3.98 g/m*3 4.9 C 0 km/h
Sensor: Nr:Datum:Temp:Abs-Feuchte:Windchill:Wind:
Aussen-T/F 2801 12-03-2009 08:02:19 5 C 4.01 g/m*3 5 C 0 km/h
2802 12-03-2009 08:14:20 5.1 C 3.97 g/m*3 5.1 C 0 km/h
2803 12-03-2009 08:26:20 5.1 C 3.97 g/m*3 5.1 C 0 km/h
2804 12-03-2009 08:38:19 5.2 C 3.99 g/m*3 5.2 C 0 km/h
2805 12-03-2009 08:50:19 5.1 C 4.24 g/m*3 5.1 C 0 km/h
2806 12-03-2009 09:02:19 5 C 4.42 g/m*3 5 C 0 km/h
2807 12-03-2009 09:14:19 4.9 C 4.66 g/m*3 4.9 C 0 km/h
2808 12-03-2009 09:26:19 4.8 C 4.76 g/m*3 4.8 C 0 km/h
2809 12-03-2009 09:38:18 4.7 C 4.86 g/m*3 4.7 C 0 km/h
2810 12-03-2009 09:50:19 4.8 C 4.83 g/m*3 4.8 C 0 km/h
2811 12-03-2009 10:02:18 4.6 C 4.83 g/m*3 4.6 C 0 km/h
2812 12-03-2009 10:14:18 4.6 C 4.9 g/m*3 4.6 C 0 km/h
2813 12-03-2009 10:26:18 4.5 C 4.93 g/m*3 4.5 C 0 km/h
2814 12-03-2009 10:38:18 4.7 C 4.93 g/m*3 4.7 C 0 km/h
2815 12-03-2009 10:50:18 5.1 C 4.79 g/m*3 5.1 C 0 km/h
2816 12-03-2009 11:02:18 5.4 C 4.74 g/m*3 5.4 C 0 km/h
2817 12-03-2009 11:14:17 5.5 C 4.64 g/m*3 5.5 C 0 km/h
2818 12-03-2009 11:26:17 5.5 C 4.64 g/m*3 5.5 C 0 km/h
2819 12-03-2009 11:38:18 5.5 C 4.78 g/m*3 5.5 C 0 km/h
2820 12-03-2009 11:50:17 5.7 C 4.7 g/m*3 5.7 C 0 km/h
2821 12-03-2009 12:02:17 6.1 C 4.68 g/m*3 6.1 C 0 km/h
2822 12-03-2009 12:14:18 6.5 C 4.72 g/m*3 6.5 C 0 km/h
2823 12-03-2009 12:26:18 6.5 C 4.72 g/m*3 6.5 C 0 km/h
2824 12-03-2009 12:38:17 6.5 C 4.8 g/m*3 6.5 C 0 km/h
2825 12-03-2009 12:50:17 6.6 C 4.83 g/m*3 6.6 C 0 km/h
Sensor: Nr:Datum:Temp:Abs-Feuchte:Windchill:Wind:
Aussen-T/F 2826 12-03-2009 13:02:16 6.7 C 4.86 g/m*3 6.7 C 0 km/h
2827 12-03-2009 13:14:17 6.8 C 4.89 g/m*3 6.8 C 0 km/h
2828 12-03-2009 13:26:17 6.8 C 4.89 g/m*3 6.8 C 0 km/h
2829 12-03-2009 13:38:16 6.8 C 4.89 g/m*3 6.8 C 0 km/h
2830 12-03-2009 13:50:17 6.9 C 4.93 g/m*3 6.9 C 0 km/h
2831 12-03-2009 14:02:16 6.9 C 5 g/m*3 6.9 C 0 km/h
2832 12-03-2009 14:14:16 6.8 C 5.05 g/m*3 6.8 C 0 km/h
2833 12-03-2009 14:26:16 6.9 C 5.16 g/m*3 6.9 C 0 km/h
2834 12-03-2009 14:38:16 6.9 C 5.16 g/m*3 6.9 C 0 km/h
2835 12-03-2009 14:50:16 7 C 5.35 g/m*3 7 C 0 km/h
2836 12-03-2009 15:02:16 6.8 C 5.51 g/m*3 6.8 C 0 km/h
2837 12-03-2009 15:14:15 6.5 C 5.55 g/m*3 6.5 C 0 km/h
2838 12-03-2009 15:26:15 6.4 C 5.74 g/m*3 6.4 C 0 km/h
2839 12-03-2009 15:38:16 6.8 C 6.04 g/m*3 6.8 C 0 km/h
2840 12-03-2009 15:50:15 6.9 C 6 g/m*3 6.9 C 0 km/h
2841 12-03-2009 16:02:15 7 C 5.81 g/m*3 7 C 0 km/h
2842 12-03-2009 16:14:14 7.1 C 5.85 g/m*3 7.1 C 0 km/h
2843 12-03-2009 16:26:14 7.1 C 5.85 g/m*3 7.1 C 0 km/h
2844 12-03-2009 16:38:15 7.2 C 5.89 g/m*3 7.2 C 0 km/h
2845 12-03-2009 16:50:14 7.1 C 5.85 g/m*3 7.1 C 0 km/h
2846 12-03-2009 17:02:14 7.1 C 5.85 g/m*3 7.1 C 0 km/h
2847 12-03-2009 17:14:15 6.9 C 6 g/m*3 6.9 C 0 km/h
2848 12-03-2009 17:26:15 6.9 C 6.16 g/m*3 6.9 C 0 km/h
2849 12-03-2009 17:38:14 6.9 C 6.16 g/m*3 6.9 C 0 km/h
2850 12-03-2009 17:50:14 6.9 C 6.16 g/m*3 6.9 C 0 km/h
Sensor: Nr:Datum:Temp:Abs-Feuchte:Windchill:Wind:
Aussen-T/F 2851 12-03-2009 18:02:14 6.8 C 6.19 g/m*3 6.8 C 0 km/h
2852 12-03-2009 18:14:14 6.7 C 6.31 g/m*3 6.7 C 0 km/h
2853 12-03-2009 18:26:14 6.7 C 6.38 g/m*3 6.7 C 0 km/h
2854 12-03-2009 18:38:14 6.7 C 6.53 g/m*3 6.7 C 0 km/h
2855 12-03-2009 18:50:13 6.7 C 6.61 g/m*3 6.7 C 0 km/h
2856 12-03-2009 19:02:13 6.7 C 6.69 g/m*3 6.7 C 0 km/h
2857 12-03-2009 19:14:13 6.7 C 6.76 g/m*3 6.7 C 0 km/h
2858 12-03-2009 19:26:13 6.9 C 6.93 g/m*3 6.9 C 0 km/h
2859 12-03-2009 19:38:13 6.9 C 7.01 g/m*3 6.9 C 0 km/h
2860 12-03-2009 19:50:13 7.1 C 7.02 g/m*3 7.1 C 0 km/h
2861 12-03-2009 20:02:13 7.2 C 7.14 g/m*3 7.2 C 0 km/h
2862 12-03-2009 20:14:13 7.1 C 7.1 g/m*3 7.1 C 0 km/h
2863 12-03-2009 20:26:13 7.2 C 7.14 g/m*3 7.2 C 0 km/h
2864 12-03-2009 20:38:12 7.1 C 7.1 g/m*3 7.1 C 0 km/h
2865 12-03-2009 20:50:13 7.2 C 7.14 g/m*3 7.2 C 0 km/h
2866 12-03-2009 21:02:13 7.1 C 7.1 g/m*3 7.1 C 0 km/h
2867 12-03-2009 21:14:12 7.1 C 7.1 g/m*3 7.1 C 0 km/h
2868 12-03-2009 21:26:12 7.1 C 7.1 g/m*3 7.1 C 0 km/h
2869 12-03-2009 21:38:12 7.2 C 7.14 g/m*3 7.2 C 0 km/h
2870 12-03-2009 21:50:12 7.2 C 7.14 g/m*3 7.2 C 0 km/h
2871 12-03-2009 22:03:12 7.2 C 7.06 g/m*3 7.2 C 0 km/h
2872 12-03-2009 22:15:12 7.2 C 7.06 g/m*3 7.2 C 0 km/h
2873 12-03-2009 22:27:12 7.3 C 7.11 g/m*3 7.3 C 0 km/h
2874 12-03-2009 22:39:12 7.4 C 7.08 g/m*3 7.4 C 0 km/h
2875 12-03-2009 22:51:12 7.4 C 7 g/m*3 7.4 C 0 km/h
Sensor: Nr:Datum:Temp:Abs-Feuchte:Windchill:Wind:
Aussen-T/F 2876 12-03-2009 23:03:12 7.5 C 7.04 g/m*3 7.5 C 0 km/h
2877 12-03-2009 23:15:12 7.6 C 7.01 g/m*3 7.6 C 0 km/h
2878 12-03-2009 23:27:12 7.7 C 6.97 g/m*3 7.7 C 0 km/h
2879 12-03-2009 23:39:12 7.7 C 6.97 g/m*3 7.7 C 0 km/h
2880 12-03-2009 23:51:12 7.8 C 7.02 g/m*3 7.8 C 0 km/h
2881 13-03-2009 00:03:12 7.8 C 6.94 g/m*3 7.8 C 0 km/h
2882 13-03-2009 00:15:12 7.8 C 7.02 g/m*3 7.8 C 0 km/h
2883 13-03-2009 00:27:12 7.8 C 7.02 g/m*3 7.8 C 0 km/h
2884 13-03-2009 00:39:12 7.8 C 7.02 g/m*3 7.8 C 0 km/h
2885 13-03-2009 00:51:12 7.7 C 7.05 g/m*3 7.7 C 0 km/h
2886 13-03-2009 01:03:12 7.7 C 7.05 g/m*3 7.7 C 0 km/h
2887 13-03-2009 01:15:12 7.7 C 7.14 g/m*3 7.7 C 0 km/h
2888 13-03-2009 01:27:12 7.6 C 7.09 g/m*3 7.6 C 0 km/h
2889 13-03-2009 01:39:12 7.6 C 7.09 g/m*3 7.6 C 0 km/h
2890 13-03-2009 01:51:12 7.5 C 7.12 g/m*3 7.5 C 0 km/h
2891 13-03-2009 02:03:13 7.5 C 7.12 g/m*3 7.5 C 0 km/h
2892 13-03-2009 02:15:13 7.5 C 7.2 g/m*3 7.5 C 0 km/h
2893 13-03-2009 02:27:13 7.5 C 7.2 g/m*3 7.5 C 0 km/h
2894 13-03-2009 02:39:13 7.4 C 7.16 g/m*3 7.4 C 0 km/h
2895 13-03-2009 02:51:13 7.4 C 7.24 g/m*3 7.4 C 0 km/h
2896 13-03-2009 03:03:13 7.3 C 7.19 g/m*3 7.3 C 0 km/h
2897 13-03-2009 03:15:13 7.5 C 7.28 g/m*3 7.5 C 0 km/h
2898 13-03-2009 03:27:13 7.5 C 7.12 g/m*3 7.5 C 0 km/h
2899 13-03-2009 03:39:13 7.4 C 7 g/m*3 7.4 C 0 km/h
2900 13-03-2009 03:51:13 7.3 C 6.87 g/m*3 7.3 C 0 km/h
Sensor: Nr:Datum:Temp:Abs-Feuchte:Windchill:Wind:
Aussen-T/F 2901 13-03-2009 04:03:13 7.3 C 6.79 g/m*3 7.3 C 0 km/h
2902 13-03-2009 04:15:13 7.3 C 6.87 g/m*3 7.3 C 0 km/h
2903 13-03-2009 04:27:13 7.3 C 6.87 g/m*3 7.3 C 0 km/h
2904 13-03-2009 04:39:13 7.1 C 6.79 g/m*3 7.1 C 0 km/h
2905 13-03-2009 04:51:13 7.2 C 6.75 g/m*3 7.2 C 0 km/h
2906 13-03-2009 05:03:13 7.3 C 6.72 g/m*3 7.3 C 0 km/h
2907 13-03-2009 05:15:13 6.9 C 6.47 g/m*3 6.9 C 0 km/h
2908 13-03-2009 05:27:13 6.6 C 6.42 g/m*3 6.6 C 0 km/h
2909 13-03-2009 05:39:13 6.3 C 6.29 g/m*3 6.3 C 0 km/h
2910 13-03-2009 05:51:14 6.1 C 6.28 g/m*3 6.1 C 0 km/h
2911 13-03-2009 06:03:14 5.9 C 6.27 g/m*3 5.9 C 0 km/h
2912 13-03-2009 06:15:14 5.7 C 6.19 g/m*3 5.7 C 0 km/h
2913 13-03-2009 06:27:14 5.6 C 6.22 g/m*3 5.6 C 0 km/h
2914 13-03-2009 06:39:14 5.5 C 6.18 g/m*3 5.5 C 0 km/h
2915 13-03-2009 06:51:14 5.4 C 6.14 g/m*3 5.4 C 0 km/h
2916 13-03-2009 07:03:12 5.4 C 6.14 g/m*3 5.4 C 0 km/h
2917 13-03-2009 07:15:12 5.4 C 6.21 g/m*3 5.4 C 0 km/h
2918 13-03-2009 07:27:12 5.4 C 6.21 g/m*3 5.4 C 0 km/h
2919 13-03-2009 07:39:12 5.4 C 6.21 g/m*3 5.4 C 0 km/h
2920 13-03-2009 07:51:12 5.5 C 6.25 g/m*3 5.5 C 0 km/h
2921 13-03-2009 08:03:11 5.7 C 6.33 g/m*3 5.7 C 0 km/h
2922 13-03-2009 08:15:12 5.9 C 6.49 g/m*3 5.9 C 0 km/h
2923 13-03-2009 08:27:12 5.9 C 6.49 g/m*3 5.9 C 0 km/h
2924 13-03-2009 08:39:11 5.9 C 6.49 g/m*3 5.9 C 0 km/h
2925 13-03-2009 08:51:11 5.9 C 6.42 g/m*3 5.9 C 0 km/h
Sensor: Nr:Datum:Temp:Abs-Feuchte:Windchill:Wind:
Aussen-T/F 2926 13-03-2009 09:03:11 5.9 C 6.42 g/m*3 5.9 C 0 km/h
2927 13-03-2009 09:15:11 6.4 C 6.63 g/m*3 6.4 C 0 km/h
2928 13-03-2009 09:27:11 7.3 C 7.11 g/m*3 7.3 C 0 km/h
2929 13-03-2009 09:39:11 7.4 C 6.84 g/m*3 7.4 C 0 km/h
2930 13-03-2009 09:51:10 8 C 6.78 g/m*3 8 C 0 km/h
2931 13-03-2009 10:03:11 8.6 C 6.7 g/m*3 8.6 C 0 km/h
2932 13-03-2009 10:15:10 8.8 C 6.35 g/m*3 8.8 C 0 km/h
2933 13-03-2009 10:27:10 9.3 C 5.84 g/m*3 9.3 C 0 km/h
2934 13-03-2009 10:39:10 9.5 C 5.73 g/m*3 9.5 C 0 km/h
2935 13-03-2009 10:51:10 9.7 C 5.53 g/m*3 9.7 C 0 km/h
2936 13-03-2009 11:03:10 10 C 5.54 g/m*3 10 C 0 km/h
2937 13-03-2009 11:15:10 10.3 C 5.36 g/m*3 10.3 C 0 km/h
2938 13-03-2009 11:27:10 10.2 C 5.23 g/m*3 10.2 C 0 km/h
2939 13-03-2009 11:39:09 10.7 C 5.5 g/m*3 10.7 C 0 km/h
2940 13-03-2009 11:51:10 11.7 C 5.12 g/m*3 11.7 C 0 km/h
2941 13-03-2009 12:03:09 11.6 C 4.89 g/m*3 11.6 C 0 km/h
2942 13-03-2009 12:15:09 11.9 C 4.77 g/m*3 11.9 C 0 km/h
2943 13-03-2009 12:27:10 11.3 C 4.49 g/m*3 11.3 C 0 km/h
2944 13-03-2009 12:39:09 10.9 C 4.28 g/m*3 10.9 C 0 km/h
2945 13-03-2009 12:51:09 11.7 C 4.81 g/m*3 11.7 C 0 km/h
2946 13-03-2009 13:03:08 11.9 C 4.24 g/m*3 11.9 C 0 km/h
2947 13-03-2009 13:15:09 11.8 C 4.32 g/m*3 11.8 C 0 km/h
2948 13-03-2009 13:27:09 12.1 C 3.75 g/m*3 12.1 C 0 km/h
2949 13-03-2009 13:39:09 12.5 C 3.85 g/m*3 12.5 C 0 km/h
2950 13-03-2009 13:51:08 14.1 C 3.88 g/m*3 14.1 C 0 km/h
Sensor: Nr:Datum:Temp:Abs-Feuchte:Windchill:Wind:
Aussen-T/F 2951 13-03-2009 14:03:09 13.9 C 3.72 g/m*3 13.9 C 0 km/h
2952 13-03-2009 14:15:08 13.1 C 3.65 g/m*3 13.1 C 0 km/h
2953 13-03-2009 14:27:08 13.2 C 3.44 g/m*3 13.2 C 0 km/h
2954 13-03-2009 14:39:08 13.4 C 3.49 g/m*3 13.4 C 0 km/h
2955 13-03-2009 14:51:07 13.6 C 3.65 g/m*3 13.6 C 0 km/h
2956 13-03-2009 15:03:08 14 C 3.5 g/m*3 14 C 0 km/h
2957 13-03-2009 15:15:08 13.7 C 3.32 g/m*3 13.7 C 0 km/h
2958 13-03-2009 15:27:08 13.9 C 3.48 g/m*3 13.9 C 0 km/h
2959 13-03-2009 15:39:07 14.1 C 3.52 g/m*3 14.1 C 0 km/h
2960 13-03-2009 15:51:08 13.6 C 3.3 g/m*3 13.6 C 0 km/h
2961 13-03-2009 16:03:07 13.8 C 3.46 g/m*3 13.8 C 0 km/h
2962 13-03-2009 16:15:07 13.5 C 3.28 g/m*3 13.5 C 0 km/h
2963 13-03-2009 16:27:07 13.3 C 3.35 g/m*3 13.3 C 0 km/h
2964 13-03-2009 16:39:07 13.1 C 3.42 g/m*3 13.1 C 0 km/h
2965 13-03-2009 16:51:07 13.2 C 3.56 g/m*3 13.2 C 0 km/h
2966 13-03-2009 17:03:06 13 C 3.4 g/m*3 13 C 0 km/h
2967 13-03-2009 17:15:07 12.9 C 3.38 g/m*3 12.9 C 0 km/h
2968 13-03-2009 17:27:07 12.8 C 3.81 g/m*3 12.8 C 0 km/h
2969 13-03-2009 17:39:06 12.6 C 3.98 g/m*3 12.6 C 0 km/h
2970 13-03-2009 17:51:06 12.4 C 4.48 g/m*3 12.4 C 0 km/h
2971 13-03-2009 18:03:06 11.7 C 4.39 g/m*3 11.7 C 0 km/h
2972 13-03-2009 18:15:06 11.1 C 4.33 g/m*3 11.1 C 0 km/h
2973 13-03-2009 18:27:06 10.4 C 4.24 g/m*3 10.4 C 0 km/h
2974 13-03-2009 18:39:05 9.8 C 4.27 g/m*3 9.8 C 0 km/h
2975 13-03-2009 18:51:06 9.2 C 4.29 g/m*3 9.2 C 0 km/h
Sensor: Nr:Datum:Temp:Abs-Feuchte:Windchill:Wind:
Aussen-T/F 2976 13-03-2009 19:03:06 9 C 4.23 g/m*3 9 C 0 km/h
2977 13-03-2009 19:15:05 8.6 C 4.47 g/m*3 8.6 C 0 km/h
2978 13-03-2009 19:27:05 8.3 C 4.55 g/m*3 8.3 C 0 km/h
2979 13-03-2009 19:39:05 8.1 C 4.49 g/m*3 8.1 C 0 km/h
2980 13-03-2009 19:51:05 8 C 4.46 g/m*3 8 C 0 km/h
2981 13-03-2009 20:03:05 7.8 C 4.65 g/m*3 7.8 C 0 km/h
2982 13-03-2009 20:15:04 7.6 C 4.75 g/m*3 7.6 C 0 km/h
2983 13-03-2009 20:27:04 7.4 C 4.77 g/m*3 7.4 C 0 km/h
2984 13-03-2009 20:39:05 7.2 C 4.79 g/m*3 7.2 C 0 km/h
2985 13-03-2009 20:51:04 6.9 C 4.85 g/m*3 6.9 C 0 km/h
2986 13-03-2009 21:03:04 6.6 C 4.83 g/m*3 6.6 C 0 km/h
2987 13-03-2009 21:15:04 6.5 C 4.8 g/m*3 6.5 C 0 km/h
2988 13-03-2009 21:27:04 6.3 C 4.74 g/m*3 6.3 C 0 km/h
2989 13-03-2009 21:39:04 6.1 C 4.75 g/m*3 6.1 C 0 km/h
2990 13-03-2009 21:51:04 5.9 C 4.83 g/m*3 5.9 C 0 km/h
2991 13-03-2009 22:03:04 5.8 C 4.8 g/m*3 5.8 C 0 km/h
2992 13-03-2009 22:15:03 5.8 C 4.8 g/m*3 5.8 C 0 km/h
2993 13-03-2009 22:27:03 5.6 C 4.74 g/m*3 5.6 C 0 km/h
2994 13-03-2009 22:39:04 5.6 C 4.81 g/m*3 5.6 C 0 km/h
2995 13-03-2009 22:52:05 5.4 C 4.81 g/m*3 5.4 C 0 km/h
2996 13-03-2009 23:04:05 5.3 C 4.85 g/m*3 5.3 C 0 km/h
2997 13-03-2009 23:16:05 5.2 C 4.82 g/m*3 5.2 C 0 km/h
2998 13-03-2009 23:28:05 5 C 4.76 g/m*3 5 C 0 km/h
2999 13-03-2009 23:40:05 4.9 C 4.86 g/m*3 4.9 C 0 km/h
3000 13-03-2009 23:52:05 4.8 C 4.83 g/m*3 4.8 C 0 km/h
Sensor: Nr:Datum:Temp:Abs-Feuchte:Windchill:Wind:
Aussen-T/F 3001 14-03-2009 00:04:05 4.6 C 4.83 g/m*3 4.6 C 0 km/h
3002 14-03-2009 00:16:05 4.5 C 4.8 g/m*3 4.5 C 0 km/h
3003 14-03-2009 00:28:05 4.5 C 4.86 g/m*3 4.5 C 0 km/h
3004 14-03-2009 00:40:06 4.4 C 4.83 g/m*3 4.4 C 0 km/h
3005 14-03-2009 00:52:06 4.2 C 4.9 g/m*3 4.2 C 0 km/h
3006 14-03-2009 01:04:06 4.1 C 4.86 g/m*3 4.1 C 0 km/h
3007 14-03-2009 01:16:06 4 C 4.83 g/m*3 4 C 0 km/h
3008 14-03-2009 01:28:06 4 C 4.83 g/m*3 4 C 0 km/h
3009 14-03-2009 01:40:06 3.7 C 4.86 g/m*3 3.7 C 0 km/h
3010 14-03-2009 01:52:06 3.9 C 4.93 g/m*3 3.9 C 0 km/h
3011 14-03-2009 02:04:06 3.8 C 4.89 g/m*3 3.8 C 0 km/h
3012 14-03-2009 02:16:06 3.7 C 4.86 g/m*3 3.7 C 0 km/h
3013 14-03-2009 02:28:06 3.5 C 4.86 g/m*3 3.5 C 0 km/h
3014 14-03-2009 02:40:06 3.4 C 4.83 g/m*3 3.4 C 0 km/h
3015 14-03-2009 02:52:06 3.6 C 4.95 g/m*3 3.6 C 0 km/h
3016 14-03-2009 03:04:06 3.6 C 4.95 g/m*3 3.6 C 0 km/h
3017 14-03-2009 03:16:06 3.2 C 4.82 g/m*3 3.2 C 0 km/h
3018 14-03-2009 03:28:06 3.3 C 4.85 g/m*3 3.3 C 0 km/h
3019 14-03-2009 03:40:06 3.4 C 4.95 g/m*3 3.4 C 0 km/h
3020 14-03-2009 03:52:06 3.4 C 4.95 g/m*3 3.4 C 0 km/h
3021 14-03-2009 04:04:06 3.4 C 4.95 g/m*3 3.4 C 0 km/h
3022 14-03-2009 04:16:06 3.3 C 4.91 g/m*3 3.3 C 0 km/h
3023 14-03-2009 04:28:06 3 C 4.76 g/m*3 3 C 0 km/h
3024 14-03-2009 04:40:07 3 C 4.82 g/m*3 3 C 0 km/h
3025 14-03-2009 04:52:07 2.7 C 4.78 g/m*3 2.7 C 0 km/h
Sensor: Nr:Datum:Temp:Abs-Feuchte:Windchill:Wind:
Aussen-T/F 3026 14-03-2009 05:04:07 2.6 C 4.75 g/m*3 2.6 C 0 km/h
3027 14-03-2009 05:16:07 2.6 C 4.8 g/m*3 2.6 C 0 km/h
3028 14-03-2009 05:28:07 2.6 C 4.8 g/m*3 2.6 C 0 km/h
3029 14-03-2009 05:40:07 2.8 C 4.93 g/m*3 2.8 C 0 km/h
3030 14-03-2009 05:52:07 3 C 4.99 g/m*3 3 C 0 km/h
3031 14-03-2009 06:04:07 3.2 C 5.06 g/m*3 3.2 C 0 km/h
3032 14-03-2009 06:16:07 3.3 C 5.1 g/m*3 3.3 C 0 km/h
3033 14-03-2009 06:28:07 3.3 C 5.1 g/m*3 3.3 C 0 km/h
3034 14-03-2009 06:40:07 3.5 C 5.16 g/m*3 3.5 C 0 km/h
3035 14-03-2009 06:52:07 3.7 C 5.23 g/m*3 3.7 C 0 km/h
3036 14-03-2009 07:04:07 3.8 C 5.21 g/m*3 3.8 C 0 km/h
3037 14-03-2009 07:16:07 3.8 C 5.14 g/m*3 3.8 C 0 km/h
3038 14-03-2009 07:28:07 3.8 C 5.14 g/m*3 3.8 C 0 km/h
3039 14-03-2009 07:40:07 4.1 C 5.18 g/m*3 4.1 C 0 km/h
3040 14-03-2009 07:52:07 4.2 C 5.15 g/m*3 4.2 C 0 km/h
3041 14-03-2009 08:04:07 4.4 C 5.16 g/m*3 4.4 C 0 km/h
3042 14-03-2009 08:16:04 4.6 C 5.23 g/m*3 4.6 C 0 km/h
3043 14-03-2009 08:28:04 4.8 C 5.3 g/m*3 4.8 C 0 km/h
3044 14-03-2009 08:40:05 5.4 C 5.37 g/m*3 5.4 C 0 km/h
3045 14-03-2009 08:52:05 5.6 C 5.3 g/m*3 5.6 C 0 km/h
3046 14-03-2009 09:04:04 5.9 C 5.34 g/m*3 5.9 C 0 km/h
3047 14-03-2009 09:16:04 6.2 C 5.29 g/m*3 6.2 C 0 km/h
3048 14-03-2009 09:28:04 6.3 C 5.18 g/m*3 6.3 C 0 km/h
3049 14-03-2009 09:40:04 6.8 C 5.35 g/m*3 6.8 C 0 km/h
3050 14-03-2009 09:52:04 7.1 C 5.15 g/m*3 7.1 C 0 km/h
Sensor: Nr:Datum:Temp:Abs-Feuchte:Windchill:Wind:
Aussen-T/F 3051 14-03-2009 10:04:04 7.4 C 5.17 g/m*3 7.4 C 0 km/h
3052 14-03-2009 10:16:03 7.9 C 5.26 g/m*3 7.9 C 0 km/h
3053 14-03-2009 10:28:03 8.5 C 5.21 g/m*3 8.5 C 0 km/h
3054 14-03-2009 10:40:04 9.4 C 5.25 g/m*3 9.4 C 0 km/h
3055 14-03-2009 10:52:03 9.8 C 5.29 g/m*3 9.8 C 0 km/h
3056 14-03-2009 11:04:03 10.4 C 5.3 g/m*3 10.4 C 0 km/h
3057 14-03-2009 11:16:03 10.9 C 5.27 g/m*3 10.9 C 0 km/h
3058 14-03-2009 11:28:03 11.3 C 5.3 g/m*3 11.3 C 0 km/h
3059 14-03-2009 11:40:03 11.6 C 5.2 g/m*3 11.6 C 0 km/h
3060 14-03-2009 11:52:02 12.1 C 5.15 g/m*3 12.1 C 0 km/h
3061 14-03-2009 12:04:03 12.5 C 4.95 g/m*3 12.5 C 0 km/h
3062 14-03-2009 12:16:03 12.4 C 4.7 g/m*3 12.4 C 0 km/h
3063 14-03-2009 12:28:03 13 C 4.88 g/m*3 13 C 0 km/h
3064 14-03-2009 12:40:02 13.4 C 4.77 g/m*3 13.4 C 0 km/h
3065 14-03-2009 12:52:03 13.7 C 4.74 g/m*3 13.7 C 0 km/h
3066 14-03-2009 13:04:02 13.6 C 4.71 g/m*3 13.6 C 0 km/h
3067 14-03-2009 13:16:02 13.8 C 4.77 g/m*3 13.8 C 0 km/h
3068 14-03-2009 13:28:02 14.1 C 4.73 g/m*3 14.1 C 0 km/h
3069 14-03-2009 13:40:02 14.5 C 4.73 g/m*3 14.5 C 0 km/h
3070 14-03-2009 13:52:02 14.7 C 4.66 g/m*3 14.7 C 0 km/h
3071 14-03-2009 14:04:01 15.4 C 4.6 g/m*3 15.4 C 0 km/h
3072 14-03-2009 14:16:01 15.8 C 4.58 g/m*3 15.8 C 0 km/h
3073 14-03-2009 14:28:01 15.9 C 4.47 g/m*3 15.9 C 0 km/h
3074 14-03-2009 14:40:01 15.9 C 4.47 g/m*3 15.9 C 0 km/h
3075 14-03-2009 14:52:01 16.9 C 4.31 g/m*3 16.9 C 0 km/h
Sensor: Nr:Datum:Temp:Abs-Feuchte:Windchill:Wind:
Aussen-T/F 3076 14-03-2009 15:04:01 17.5 C 4.47 g/m*3 17.5 C 0 km/h
3077 14-03-2009 15:16:01 17 C 4.49 g/m*3 17 C 0 km/h
3078 14-03-2009 15:28:01 16.1 C 4.8 g/m*3 16.1 C 0 km/h
3079 14-03-2009 15:40:01 15.7 C 4.95 g/m*3 15.7 C 0 km/h
3080 14-03-2009 15:52:00 16.8 C 5 g/m*3 16.8 C 0 km/h
3081 14-03-2009 16:04:01 17.2 C 4.83 g/m*3 17.2 C 0 km/h
3082 14-03-2009 16:16:00 16.2 C 4.83 g/m*3 16.2 C 0 km/h
3083 14-03-2009 16:28:00 15.6 C 5.05 g/m*3 15.6 C 0 km/h
3084 14-03-2009 16:40:00 15.7 C 5.22 g/m*3 15.7 C 0 km/h
3085 14-03-2009 16:52:00 15.4 C 5.12 g/m*3 15.4 C 0 km/h
3086 14-03-2009 17:04:00 15.4 C 5.12 g/m*3 15.4 C 0 km/h
3087 14-03-2009 17:16:00 15.4 C 5.26 g/m*3 15.4 C 0 km/h
3088 14-03-2009 17:28:00 15.2 C 5.32 g/m*3 15.2 C 0 km/h
3089 14-03-2009 17:39:59 15 C 5.26 g/m*3 15 C 0 km/h
3090 14-03-2009 17:52:00 14.7 C 5.41 g/m*3 14.7 C 0 km/h
3091 14-03-2009 18:04:59 14.5 C 5.35 g/m*3 14.5 C 0 km/h
3092 14-03-2009 18:16:59 14.4 C 5.44 g/m*3 14.4 C 0 km/h
3093 14-03-2009 18:28:59 14.2 C 5.49 g/m*3 14.2 C 0 km/h
3094 14-03-2009 18:40:59 14.1 C 5.58 g/m*3 14.1 C 0 km/h
3095 14-03-2009 18:52:59 13.8 C 6.08 g/m*3 13.8 C 0 km/h
3096 14-03-2009 19:04:58 12.3 C 7.28 g/m*3 12.3 C 0 km/h
3097 14-03-2009 19:16:59 11.5 C 7.95 g/m*3 11.5 C 0 km/h
3098 14-03-2009 19:28:59 11.1 C 8.16 g/m*3 11.1 C 0 km/h
3099 14-03-2009 19:40:59 11.4 C 8.52 g/m*3 11.4 C 0 km/h
3100 14-03-2009 19:52:58 10.7 C 8.15 g/m*3 10.7 C 0 km/h
Sensor: Nr:Datum:Temp:Abs-Feuchte:Windchill:Wind:
Aussen-T/F 3101 14-03-2009 20:04:59 10.4 C 8 g/m*3 10.4 C 0 km/h
3102 14-03-2009 20:16:58 10.4 C 8.1 g/m*3 10.4 C 0 km/h
3103 14-03-2009 20:28:58 10.3 C 8.04 g/m*3 10.3 C 0 km/h
3104 14-03-2009 20:40:59 10.2 C 8.09 g/m*3 10.2 C 0 km/h
3105 14-03-2009 20:52:57 10 C 7.8 g/m*3 10 C 0 km/h
3106 14-03-2009 21:04:57 9.6 C 6.78 g/m*3 9.6 C 0 km/h
3107 14-03-2009 21:16:58 9.6 C 6.78 g/m*3 9.6 C 0 km/h
3108 14-03-2009 21:28:57 9.4 C 6.87 g/m*3 9.4 C 0 km/h
3109 14-03-2009 21:40:57 9.3 C 6.92 g/m*3 9.3 C 0 km/h
3110 14-03-2009 21:52:57 9.1 C 6.92 g/m*3 9.1 C 0 km/h
3111 14-03-2009 22:04:57 9 C 6.96 g/m*3 9 C 0 km/h
3112 14-03-2009 22:17:58 9 C 6.88 g/m*3 9 C 0 km/h
3113 14-03-2009 22:29:58 9.1 C 6.74 g/m*3 9.1 C 0 km/h
3114 14-03-2009 22:41:58 9.2 C 6.7 g/m*3 9.2 C 0 km/h
3115 14-03-2009 22:53:58 9.2 C 6.61 g/m*3 9.2 C 0 km/h
3116 14-03-2009 23:05:58 9.2 C 6.61 g/m*3 9.2 C 0 km/h
3117 14-03-2009 23:17:58 9.2 C 6.52 g/m*3 9.2 C 0 km/h
3118 14-03-2009 23:29:58 9.2 C 5.98 g/m*3 9.2 C 0 km/h
3119 14-03-2009 23:41:58 9.1 C 5.86 g/m*3 9.1 C 0 km/h
3120 14-03-2009 23:53:58 9.1 C 5.68 g/m*3 9.1 C 0 km/h
3121 15-03-2009 00:05:58 9.1 C 5.59 g/m*3 9.1 C 0 km/h
3122 15-03-2009 00:17:58 9.1 C 5.5 g/m*3 9.1 C 0 km/h
3123 15-03-2009 00:29:58 9 C 5.47 g/m*3 9 C 0 km/h
3124 15-03-2009 00:41:58 9.1 C 5.41 g/m*3 9.1 C 0 km/h
3125 15-03-2009 00:53:58 9 C 5.38 g/m*3 9 C 0 km/h
Sensor: Nr:Datum:Temp:Abs-Feuchte:Windchill:Wind:
Aussen-T/F 3126 15-03-2009 01:05:58 9 C 5.38 g/m*3 9 C 0 km/h
3127 15-03-2009 01:17:58 9 C 5.29 g/m*3 9 C 0 km/h
3128 15-03-2009 01:29:58 8.8 C 5.48 g/m*3 8.8 C 0 km/h
3129 15-03-2009 01:41:58 8.8 C 5.4 g/m*3 8.8 C 0 km/h
3130 15-03-2009 01:53:59 8.9 C 5.43 g/m*3 8.9 C 0 km/h
3131 15-03-2009 02:05:59 8.8 C 5.4 g/m*3 8.8 C 0 km/h
3132 15-03-2009 02:16:59 8.6 C 5.59 g/m*3 8.6 C 0 km/h
3133 15-03-2009 02:28:59 8.9 C 5.61 g/m*3 8.9 C 0 km/h
3134 15-03-2009 02:40:59 8.8 C 5.48 g/m*3 8.8 C 0 km/h
3135 15-03-2009 02:52:59 8.8 C 5.57 g/m*3 8.8 C 0 km/h
3136 15-03-2009 03:04:59 8.6 C 5.59 g/m*3 8.6 C 0 km/h
3137 15-03-2009 03:16:59 8.7 C 5.53 g/m*3 8.7 C 0 km/h
3138 15-03-2009 03:28:59 8.6 C 5.41 g/m*3 8.6 C 0 km/h
3139 15-03-2009 03:40:59 8.6 C 5.33 g/m*3 8.6 C 0 km/h
3140 15-03-2009 03:52:59 8.6 C 5.24 g/m*3 8.6 C 0 km/h
3141 15-03-2009 04:04:59 8.6 C 5.24 g/m*3 8.6 C 0 km/h
3142 15-03-2009 04:16:59 8.6 C 5.16 g/m*3 8.6 C 0 km/h
3143 15-03-2009 04:28:59 8.6 C 5.24 g/m*3 8.6 C 0 km/h
3144 15-03-2009 04:40:59 8.6 C 5.24 g/m*3 8.6 C 0 km/h
3145 15-03-2009 04:52:59 8.6 C 5.24 g/m*3 8.6 C 0 km/h
3146 15-03-2009 05:04:59 8.6 C 5.24 g/m*3 8.6 C 0 km/h
3147 15-03-2009 05:16:59 8.5 C 5.21 g/m*3 8.5 C 0 km/h
3148 15-03-2009 05:28:59 8.5 C 5.21 g/m*3 8.5 C 0 km/h
3149 15-03-2009 05:40:59 8.5 C 5.21 g/m*3 8.5 C 0 km/h
3150 15-03-2009 05:53:00 8.5 C 5.12 g/m*3 8.5 C 0 km/h
Sensor: Nr:Datum:Temp:Abs-Feuchte:Windchill:Wind:
Aussen-T/F 3151 15-03-2009 06:05:00 8.5 C 5.04 g/m*3 8.5 C 0 km/h
3152 15-03-2009 06:17:00 8.5 C 4.95 g/m*3 8.5 C 0 km/h
3153 15-03-2009 06:29:00 8.5 C 4.95 g/m*3 8.5 C 0 km/h
3154 15-03-2009 06:41:00 8.4 C 4.92 g/m*3 8.4 C 0 km/h
3155 15-03-2009 06:53:00 8.4 C 4.92 g/m*3 8.4 C 0 km/h
3156 15-03-2009 07:05:00 8.4 C 4.84 g/m*3 8.4 C 0 km/h
3157 15-03-2009 07:17:00 8.4 C 4.75 g/m*3 8.4 C 0 km/h
3158 15-03-2009 07:29:00 8.4 C 4.75 g/m*3 8.4 C 0 km/h
3159 15-03-2009 07:41:00 8.5 C 4.78 g/m*3 8.5 C 0 km/h
3160 15-03-2009 07:53:00 8.5 C 4.78 g/m*3 8.5 C 0 km/h
3161 15-03-2009 08:05:00 8.5 C 4.7 g/m*3 8.5 C 0 km/h
3162 15-03-2009 08:17:00 8.5 C 4.7 g/m*3 8.5 C 0 km/h
3163 15-03-2009 08:29:00 8.9 C 4.82 g/m*3 8.9 C 0 km/h
3164 15-03-2009 08:41:00 8.7 C 4.76 g/m*3 8.7 C 0 km/h
3165 15-03-2009 08:53:00 8.8 C 4.79 g/m*3 8.8 C 0 km/h
3166 15-03-2009 09:05:58 8.8 C 4.79 g/m*3 8.8 C 0 km/h
3167 15-03-2009 09:17:58 8.8 C 4.79 g/m*3 8.8 C 0 km/h
3168 15-03-2009 09:29:58 8.9 C 4.73 g/m*3 8.9 C 0 km/h
3169 15-03-2009 09:41:58 9.1 C 4.79 g/m*3 9.1 C 0 km/h
3170 15-03-2009 09:53:57 9.2 C 4.64 g/m*3 9.2 C 0 km/h
3171 15-03-2009 10:05:58 9.3 C 4.67 g/m*3 9.3 C 0 km/h
3172 15-03-2009 10:17:57 9.3 C 4.58 g/m*3 9.3 C 0 km/h
3173 15-03-2009 10:29:57 9.3 C 4.49 g/m*3 9.3 C 0 km/h
3174 15-03-2009 10:41:57 9.6 C 4.49 g/m*3 9.6 C 0 km/h
3175 15-03-2009 10:53:57 9.7 C 4.43 g/m*3 9.7 C 0 km/h
Sensor: Nr:Datum:Temp:Abs-Feuchte:Windchill:Wind:
Aussen-T/F 3176 15-03-2009 11:05:57 9.9 C 4.39 g/m*3 9.9 C 0 km/h
3177 15-03-2009 11:17:57 10.1 C 4.44 g/m*3 10.1 C 0 km/h
3178 15-03-2009 11:29:56 10.2 C 4.28 g/m*3 10.2 C 0 km/h
3179 15-03-2009 11:41:56 10.4 C 4.43 g/m*3 10.4 C 0 km/h
3180 15-03-2009 11:53:57 10.5 C 4.36 g/m*3 10.5 C 0 km/h
3181 15-03-2009 12:05:56 10.8 C 4.25 g/m*3 10.8 C 0 km/h
3182 15-03-2009 12:17:56 11.2 C 3.95 g/m*3 11.2 C 0 km/h
3183 15-03-2009 12:29:56 11.4 C 3.9 g/m*3 11.4 C 0 km/h
3184 15-03-2009 12:41:56 11.4 C 3.9 g/m*3 11.4 C 0 km/h
3185 15-03-2009 12:53:56 11.5 C 3.41 g/m*3 11.5 C 0 km/h
3186 15-03-2009 13:05:55 11.3 C 3.26 g/m*3 11.3 C 0 km/h
3187 15-03-2009 13:17:56 11.5 C 3.31 g/m*3 11.5 C 0 km/h
3188 15-03-2009 13:29:56 11.2 C 3.45 g/m*3 11.2 C 0 km/h
3189 15-03-2009 13:41:56 11.1 C 3.53 g/m*3 11.1 C 0 km/h
3190 15-03-2009 13:53:55 11 C 3.6 g/m*3 11 C 0 km/h
3191 15-03-2009 14:05:56 10.9 C 3.98 g/m*3 10.9 C 0 km/h
3192 15-03-2009 14:17:55 11.1 C 4.03 g/m*3 11.1 C 0 km/h
3193 15-03-2009 14:29:55 11 C 4 g/m*3 11 C 0 km/h
3194 15-03-2009 14:41:56 10.8 C 4.05 g/m*3 10.8 C 0 km/h
3195 15-03-2009 14:53:55 10.7 C 3.93 g/m*3 10.7 C 0 km/h
3196 15-03-2009 15:05:55 10.6 C 4.2 g/m*3 10.6 C 0 km/h
3197 15-03-2009 15:17:54 10.6 C 4.39 g/m*3 10.6 C 0 km/h
3198 15-03-2009 15:29:54 10.9 C 4.48 g/m*3 10.9 C 0 km/h
3199 15-03-2009 15:41:54 10.8 C 4.35 g/m*3 10.8 C 0 km/h
3200 15-03-2009 15:53:54 10.6 C 4.29 g/m*3 10.6 C 0 km/h
Sensor: Nr:Datum:Temp:Abs-Feuchte:Windchill:Wind:
Aussen-T/F 3201 15-03-2009 16:05:54 10.7 C 4.42 g/m*3 10.7 C 0 km/h
3202 15-03-2009 16:17:54 10.8 C 4.45 g/m*3 10.8 C 0 km/h
3203 15-03-2009 16:29:54 10.8 C 4.45 g/m*3 10.8 C 0 km/h
3204 15-03-2009 16:41:54 10.7 C 4.42 g/m*3 10.7 C 0 km/h
3205 15-03-2009 16:53:54 10.6 C 4.39 g/m*3 10.6 C 0 km/h
3206 15-03-2009 17:05:53 10.6 C 4.49 g/m*3 10.6 C 0 km/h
3207 15-03-2009 17:17:54 10.4 C 4.63 g/m*3 10.4 C 0 km/h
3208 15-03-2009 17:29:53 10.1 C 4.92 g/m*3 10.1 C 0 km/h
3209 15-03-2009 17:41:53 9.9 C 5.04 g/m*3 9.9 C 0 km/h
3210 15-03-2009 17:53:53 9.9 C 4.95 g/m*3 9.9 C 0 km/h
3211 15-03-2009 18:05:53 9.8 C 4.92 g/m*3 9.8 C 0 km/h
3212 15-03-2009 18:17:53 9.8 C 5.01 g/m*3 9.8 C 0 km/h
3213 15-03-2009 18:29:53 9.7 C 4.98 g/m*3 9.7 C 0 km/h
3214 15-03-2009 18:41:53 9.8 C 4.82 g/m*3 9.8 C 0 km/h
3215 15-03-2009 18:53:52 9.8 C 4.73 g/m*3 9.8 C 0 km/h
3216 15-03-2009 19:05:02 9.8 C 4.64 g/m*3 9.8 C 0 km/h
3217 15-03-2009 19:17:01 9.7 C 4.7 g/m*3 9.7 C 0 km/h
3218 15-03-2009 19:29:01 9.6 C 4.76 g/m*3 9.6 C 0 km/h
3219 15-03-2009 19:41:02 9.5 C 4.82 g/m*3 9.5 C 0 km/h
3220 15-03-2009 19:53:01 9.5 C 4.82 g/m*3 9.5 C 0 km/h
3221 15-03-2009 20:05:02 9.4 C 4.97 g/m*3 9.4 C 0 km/h
3222 15-03-2009 20:17:01 9.2 C 5 g/m*3 9.2 C 0 km/h
3223 15-03-2009 20:29:01 9.2 C 5.09 g/m*3 9.2 C 0 km/h
3224 15-03-2009 20:41:01 9.1 C 5.23 g/m*3 9.1 C 0 km/h
3225 15-03-2009 20:53:01 9 C 5.29 g/m*3 9 C 0 km/h
Sensor: Nr:Datum:Temp:Abs-Feuchte:Windchill:Wind:
Aussen-T/F 3226 15-03-2009 21:05:01 9 C 5.29 g/m*3 9 C 0 km/h
3227 15-03-2009 21:17:00 8.9 C 5.43 g/m*3 8.9 C 0 km/h
3228 15-03-2009 21:29:00 8.9 C 5.52 g/m*3 8.9 C 0 km/h
3229 15-03-2009 21:41:01 8.9 C 5.61 g/m*3 8.9 C 0 km/h
3230 15-03-2009 21:54:08 8.7 C 5.53 g/m*3 8.7 C 0 km/h
3231 15-03-2009 22:06:08 8.7 C 5.62 g/m*3 8.7 C 0 km/h
3232 15-03-2009 22:18:08 8.7 C 5.62 g/m*3 8.7 C 0 km/h
3233 15-03-2009 22:30:08 8.6 C 5.67 g/m*3 8.6 C 0 km/h
3234 15-03-2009 22:42:08 8.5 C 5.72 g/m*3 8.5 C 0 km/h
3235 15-03-2009 22:54:08 8.4 C 5.68 g/m*3 8.4 C 0 km/h
3236 15-03-2009 23:06:08 8.4 C 5.68 g/m*3 8.4 C 0 km/h
3237 15-03-2009 23:18:09 8.4 C 5.77 g/m*3 8.4 C 0 km/h
3238 15-03-2009 23:30:09 8.3 C 5.73 g/m*3 8.3 C 0 km/h
3239 15-03-2009 23:42:09 8.3 C 5.73 g/m*3 8.3 C 0 km/h
3240 15-03-2009 23:54:09 8.1 C 5.82 g/m*3 8.1 C 0 km/h
3241 16-03-2009 00:06:09 8 C 5.87 g/m*3 8 C 0 km/h
3242 16-03-2009 00:18:09 8.1 C 5.91 g/m*3 8.1 C 0 km/h
3243 16-03-2009 00:30:09 8.1 C 5.91 g/m*3 8.1 C 0 km/h